<?xml version="1.0" encoding="UTF-8" standalone="no" ?>
<gpx xmlns="http://www.topografix.com/GPX/1/1" xmlns:xsi="http://www.w3.org/2001/XMLSchema-instance" xsi:schemaLocation="http://www.topografix.com/GPX/1/1 http://www.topografix.com/GPX/1/1/gpx.xsd" version="1.1" creator="VisuGPX - https://www.visugpx.com">
  <metadata>
    <name>Pas de la Couronne</name>
    <desc><![CDATA[Le Pas de la Couronne mérite d'être parcouru !

Sentiers balisés au début, puis chemins forestiers peu parcourus, puis enfin sentier du Pas de la Couronne discret mais toujours bien visible et légèrement balisé en bleu.
Retour par le Pas d'Ambel sans difficulté sauf si le brouillard est dense car de début dans l'herbe n'est pas vraiment marqué.]]></desc>
  </metadata>
  <trk>
    <name><![CDATA[26 St-Julien en Quint Pas de la Couronne 2023-09-17]]></name>
    <desc><![CDATA[comment ...]]></desc>
    <extensions>
      <line xmlns="http://www.topografix.com/GPX/gpx_style/0/2">
        <width>4</width>
      </line>
    </extensions>
    <trkseg>
      <trkpt lat="44.85948" lon="5.29868">
        <ele>604</ele>
        <time>2023-09-17T07:30:30.000Z</time>
      </trkpt>
      <trkpt lat="44.85948" lon="5.29868">
        <ele>604</ele>
        <time>2023-09-17T07:30:31.000Z</time>
      </trkpt>
      <trkpt lat="44.85948" lon="5.29861">
        <ele>603</ele>
        <time>2023-09-17T07:30:51.000Z</time>
      </trkpt>
      <trkpt lat="44.85955" lon="5.29862">
        <ele>603</ele>
        <time>2023-09-17T07:31:12.000Z</time>
      </trkpt>
      <trkpt lat="44.85973" lon="5.29854">
        <ele>610</ele>
        <time>2023-09-17T07:31:31.000Z</time>
      </trkpt>
      <trkpt lat="44.85979" lon="5.29849">
        <ele>612</ele>
        <time>2023-09-17T07:31:38.000Z</time>
      </trkpt>
      <trkpt lat="44.85998" lon="5.29825">
        <ele>615</ele>
        <time>2023-09-17T07:32:00.000Z</time>
      </trkpt>
      <trkpt lat="44.86004" lon="5.29823">
        <ele>618</ele>
        <time>2023-09-17T07:32:08.000Z</time>
      </trkpt>
      <trkpt lat="44.86011" lon="5.29825">
        <ele>619</ele>
        <time>2023-09-17T07:32:13.000Z</time>
      </trkpt>
      <trkpt lat="44.86024" lon="5.29831">
        <ele>620</ele>
        <time>2023-09-17T07:32:24.000Z</time>
      </trkpt>
      <trkpt lat="44.86031" lon="5.29837">
        <ele>620</ele>
        <time>2023-09-17T07:32:29.000Z</time>
      </trkpt>
      <trkpt lat="44.86053" lon="5.29872">
        <ele>618</ele>
        <time>2023-09-17T07:32:59.000Z</time>
      </trkpt>
      <trkpt lat="44.86061" lon="5.29884">
        <ele>618</ele>
        <time>2023-09-17T07:33:08.000Z</time>
      </trkpt>
      <trkpt lat="44.86065" lon="5.29898">
        <ele>620</ele>
        <time>2023-09-17T07:33:17.000Z</time>
      </trkpt>
      <trkpt lat="44.86066" lon="5.29906">
        <ele>622</ele>
        <time>2023-09-17T07:33:23.000Z</time>
      </trkpt>
      <trkpt lat="44.86064" lon="5.29912">
        <ele>623</ele>
        <time>2023-09-17T07:33:27.000Z</time>
      </trkpt>
      <trkpt lat="44.86062" lon="5.29919">
        <ele>626</ele>
        <time>2023-09-17T07:33:31.000Z</time>
      </trkpt>
      <trkpt lat="44.86058" lon="5.29922">
        <ele>627</ele>
        <time>2023-09-17T07:33:34.000Z</time>
      </trkpt>
      <trkpt lat="44.86052" lon="5.29926">
        <ele>628</ele>
        <time>2023-09-17T07:33:38.000Z</time>
      </trkpt>
      <trkpt lat="44.86047" lon="5.29929">
        <ele>630</ele>
        <time>2023-09-17T07:33:42.000Z</time>
      </trkpt>
      <trkpt lat="44.86037" lon="5.29933">
        <ele>633</ele>
        <time>2023-09-17T07:33:52.000Z</time>
      </trkpt>
      <trkpt lat="44.86032" lon="5.29935">
        <ele>635</ele>
        <time>2023-09-17T07:33:57.000Z</time>
      </trkpt>
      <trkpt lat="44.86014" lon="5.2995">
        <ele>640</ele>
        <time>2023-09-17T07:34:16.000Z</time>
      </trkpt>
      <trkpt lat="44.86011" lon="5.29956">
        <ele>641</ele>
        <time>2023-09-17T07:34:21.000Z</time>
      </trkpt>
      <trkpt lat="44.86005" lon="5.29966">
        <ele>640</ele>
        <time>2023-09-17T07:34:30.000Z</time>
      </trkpt>
      <trkpt lat="44.85998" lon="5.29976">
        <ele>637</ele>
        <time>2023-09-17T07:34:39.000Z</time>
      </trkpt>
      <trkpt lat="44.85997" lon="5.29983">
        <ele>636</ele>
        <time>2023-09-17T07:34:44.000Z</time>
      </trkpt>
      <trkpt lat="44.85997" lon="5.29988">
        <ele>635</ele>
        <time>2023-09-17T07:34:47.000Z</time>
      </trkpt>
      <trkpt lat="44.85999" lon="5.29994">
        <ele>634</ele>
        <time>2023-09-17T07:34:51.000Z</time>
      </trkpt>
      <trkpt lat="44.86007" lon="5.30005">
        <ele>631</ele>
        <time>2023-09-17T07:35:03.000Z</time>
      </trkpt>
      <trkpt lat="44.86037" lon="5.30016">
        <ele>633</ele>
        <time>2023-09-17T07:35:34.000Z</time>
      </trkpt>
      <trkpt lat="44.86073" lon="5.30028">
        <ele>637</ele>
        <time>2023-09-17T07:36:08.000Z</time>
      </trkpt>
      <trkpt lat="44.86078" lon="5.30032">
        <ele>637</ele>
        <time>2023-09-17T07:36:15.000Z</time>
      </trkpt>
      <trkpt lat="44.86083" lon="5.30036">
        <ele>638</ele>
        <time>2023-09-17T07:36:20.000Z</time>
      </trkpt>
      <trkpt lat="44.86108" lon="5.30052">
        <ele>637</ele>
        <time>2023-09-17T07:36:46.000Z</time>
      </trkpt>
      <trkpt lat="44.86122" lon="5.30061">
        <ele>640</ele>
        <time>2023-09-17T07:37:02.000Z</time>
      </trkpt>
      <trkpt lat="44.86137" lon="5.30072">
        <ele>642</ele>
        <time>2023-09-17T07:37:19.000Z</time>
      </trkpt>
      <trkpt lat="44.86161" lon="5.3009">
        <ele>647</ele>
        <time>2023-09-17T07:37:45.000Z</time>
      </trkpt>
      <trkpt lat="44.86174" lon="5.30095">
        <ele>646</ele>
        <time>2023-09-17T07:37:56.000Z</time>
      </trkpt>
      <trkpt lat="44.86186" lon="5.30104">
        <ele>649</ele>
        <time>2023-09-17T07:38:09.000Z</time>
      </trkpt>
      <trkpt lat="44.86214" lon="5.30118">
        <ele>651</ele>
        <time>2023-09-17T07:38:35.000Z</time>
      </trkpt>
      <trkpt lat="44.86219" lon="5.30123">
        <ele>651</ele>
        <time>2023-09-17T07:38:42.000Z</time>
      </trkpt>
      <trkpt lat="44.86254" lon="5.30139">
        <ele>654</ele>
        <time>2023-09-17T07:39:14.000Z</time>
      </trkpt>
      <trkpt lat="44.86287" lon="5.3016">
        <ele>655</ele>
        <time>2023-09-17T07:39:45.000Z</time>
      </trkpt>
      <trkpt lat="44.86292" lon="5.30164">
        <ele>656</ele>
        <time>2023-09-17T07:39:51.000Z</time>
      </trkpt>
      <trkpt lat="44.86307" lon="5.30172">
        <ele>657</ele>
        <time>2023-09-17T07:40:04.000Z</time>
      </trkpt>
      <trkpt lat="44.86348" lon="5.30174">
        <ele>661</ele>
        <time>2023-09-17T07:40:36.000Z</time>
      </trkpt>
      <trkpt lat="44.86355" lon="5.30174">
        <ele>662</ele>
        <time>2023-09-17T07:40:43.000Z</time>
      </trkpt>
      <trkpt lat="44.86373" lon="5.30177">
        <ele>662</ele>
        <time>2023-09-17T07:40:58.000Z</time>
      </trkpt>
      <trkpt lat="44.86401" lon="5.30181">
        <ele>663</ele>
        <time>2023-09-17T07:41:23.000Z</time>
      </trkpt>
      <trkpt lat="44.86435" lon="5.30184">
        <ele>666</ele>
        <time>2023-09-17T07:41:53.000Z</time>
      </trkpt>
      <trkpt lat="44.86442" lon="5.30185">
        <ele>666</ele>
        <time>2023-09-17T07:41:58.000Z</time>
      </trkpt>
      <trkpt lat="44.86448" lon="5.30188">
        <ele>667</ele>
        <time>2023-09-17T07:42:04.000Z</time>
      </trkpt>
      <trkpt lat="44.86481" lon="5.30198">
        <ele>671</ele>
        <time>2023-09-17T07:42:31.000Z</time>
      </trkpt>
      <trkpt lat="44.86493" lon="5.30203">
        <ele>671</ele>
        <time>2023-09-17T07:42:42.000Z</time>
      </trkpt>
      <trkpt lat="44.8653" lon="5.30221">
        <ele>671</ele>
        <time>2023-09-17T07:43:14.000Z</time>
      </trkpt>
      <trkpt lat="44.86543" lon="5.30227">
        <ele>671</ele>
        <time>2023-09-17T07:43:27.000Z</time>
      </trkpt>
      <trkpt lat="44.86564" lon="5.30233">
        <ele>673</ele>
        <time>2023-09-17T07:43:45.000Z</time>
      </trkpt>
      <trkpt lat="44.86597" lon="5.30262">
        <ele>673</ele>
        <time>2023-09-17T07:44:16.000Z</time>
      </trkpt>
      <trkpt lat="44.86611" lon="5.3027">
        <ele>674</ele>
        <time>2023-09-17T07:44:28.000Z</time>
      </trkpt>
      <trkpt lat="44.86618" lon="5.30273">
        <ele>675</ele>
        <time>2023-09-17T07:44:35.000Z</time>
      </trkpt>
      <trkpt lat="44.86646" lon="5.30288">
        <ele>671</ele>
        <time>2023-09-17T07:45:00.000Z</time>
      </trkpt>
      <trkpt lat="44.86659" lon="5.3029">
        <ele>671</ele>
        <time>2023-09-17T07:45:13.000Z</time>
      </trkpt>
      <trkpt lat="44.86676" lon="5.30291">
        <ele>677</ele>
        <time>2023-09-17T07:45:31.000Z</time>
      </trkpt>
      <trkpt lat="44.86671" lon="5.30288">
        <ele>682</ele>
        <time>2023-09-17T07:47:06.000Z</time>
      </trkpt>
      <trkpt lat="44.86664" lon="5.30287">
        <ele>681</ele>
        <time>2023-09-17T07:47:13.000Z</time>
      </trkpt>
      <trkpt lat="44.8666" lon="5.30281">
        <ele>681</ele>
        <time>2023-09-17T07:47:19.000Z</time>
      </trkpt>
      <trkpt lat="44.86656" lon="5.30275">
        <ele>680</ele>
        <time>2023-09-17T07:47:27.000Z</time>
      </trkpt>
      <trkpt lat="44.86649" lon="5.30272">
        <ele>681</ele>
        <time>2023-09-17T07:47:33.000Z</time>
      </trkpt>
      <trkpt lat="44.86644" lon="5.30268">
        <ele>681</ele>
        <time>2023-09-17T07:47:39.000Z</time>
      </trkpt>
      <trkpt lat="44.86635" lon="5.30263">
        <ele>680</ele>
        <time>2023-09-17T07:47:52.000Z</time>
      </trkpt>
      <trkpt lat="44.86622" lon="5.30251">
        <ele>682</ele>
        <time>2023-09-17T07:48:10.000Z</time>
      </trkpt>
      <trkpt lat="44.86611" lon="5.3024">
        <ele>683</ele>
        <time>2023-09-17T07:48:25.000Z</time>
      </trkpt>
      <trkpt lat="44.86608" lon="5.30234">
        <ele>683</ele>
        <time>2023-09-17T07:48:32.000Z</time>
      </trkpt>
      <trkpt lat="44.86605" lon="5.30228">
        <ele>684</ele>
        <time>2023-09-17T07:48:38.000Z</time>
      </trkpt>
      <trkpt lat="44.866" lon="5.30214">
        <ele>685</ele>
        <time>2023-09-17T07:48:51.000Z</time>
      </trkpt>
      <trkpt lat="44.86591" lon="5.30193">
        <ele>688</ele>
        <time>2023-09-17T07:49:10.000Z</time>
      </trkpt>
      <trkpt lat="44.86588" lon="5.30187">
        <ele>689</ele>
        <time>2023-09-17T07:49:16.000Z</time>
      </trkpt>
      <trkpt lat="44.86583" lon="5.30176">
        <ele>690</ele>
        <time>2023-09-17T07:49:26.000Z</time>
      </trkpt>
      <trkpt lat="44.86579" lon="5.3017">
        <ele>690</ele>
        <time>2023-09-17T07:49:33.000Z</time>
      </trkpt>
      <trkpt lat="44.86574" lon="5.30163">
        <ele>691</ele>
        <time>2023-09-17T07:49:41.000Z</time>
      </trkpt>
      <trkpt lat="44.86575" lon="5.30155">
        <ele>692</ele>
        <time>2023-09-17T07:49:49.000Z</time>
      </trkpt>
      <trkpt lat="44.86588" lon="5.30141">
        <ele>693</ele>
        <time>2023-09-17T07:50:11.000Z</time>
      </trkpt>
      <trkpt lat="44.86593" lon="5.3014">
        <ele>694</ele>
        <time>2023-09-17T07:50:19.000Z</time>
      </trkpt>
      <trkpt lat="44.86598" lon="5.30138">
        <ele>697</ele>
        <time>2023-09-17T07:50:26.000Z</time>
      </trkpt>
      <trkpt lat="44.8661" lon="5.30133">
        <ele>700</ele>
        <time>2023-09-17T07:50:44.000Z</time>
      </trkpt>
      <trkpt lat="44.86624" lon="5.30127">
        <ele>703</ele>
        <time>2023-09-17T07:51:00.000Z</time>
      </trkpt>
      <trkpt lat="44.86642" lon="5.30121">
        <ele>703</ele>
        <time>2023-09-17T07:51:27.000Z</time>
      </trkpt>
      <trkpt lat="44.86652" lon="5.30113">
        <ele>706</ele>
        <time>2023-09-17T07:51:42.000Z</time>
      </trkpt>
      <trkpt lat="44.86664" lon="5.3011">
        <ele>708</ele>
        <time>2023-09-17T07:51:54.000Z</time>
      </trkpt>
      <trkpt lat="44.8667" lon="5.3011">
        <ele>709</ele>
        <time>2023-09-17T07:52:00.000Z</time>
      </trkpt>
      <trkpt lat="44.86676" lon="5.30106">
        <ele>709</ele>
        <time>2023-09-17T07:52:08.000Z</time>
      </trkpt>
      <trkpt lat="44.86683" lon="5.30106">
        <ele>710</ele>
        <time>2023-09-17T07:52:15.000Z</time>
      </trkpt>
      <trkpt lat="44.8669" lon="5.30109">
        <ele>711</ele>
        <time>2023-09-17T07:52:22.000Z</time>
      </trkpt>
      <trkpt lat="44.86697" lon="5.30107">
        <ele>712</ele>
        <time>2023-09-17T07:52:33.000Z</time>
      </trkpt>
      <trkpt lat="44.86702" lon="5.30103">
        <ele>712</ele>
        <time>2023-09-17T07:52:41.000Z</time>
      </trkpt>
      <trkpt lat="44.86719" lon="5.30098">
        <ele>712</ele>
        <time>2023-09-17T07:52:59.000Z</time>
      </trkpt>
      <trkpt lat="44.86738" lon="5.30105">
        <ele>714</ele>
        <time>2023-09-17T07:53:19.000Z</time>
      </trkpt>
      <trkpt lat="44.86755" lon="5.30108">
        <ele>717</ele>
        <time>2023-09-17T07:53:40.000Z</time>
      </trkpt>
      <trkpt lat="44.86761" lon="5.30108">
        <ele>718</ele>
        <time>2023-09-17T07:53:48.000Z</time>
      </trkpt>
      <trkpt lat="44.86774" lon="5.30107">
        <ele>720</ele>
        <time>2023-09-17T07:54:04.000Z</time>
      </trkpt>
      <trkpt lat="44.86793" lon="5.30113">
        <ele>725</ele>
        <time>2023-09-17T07:54:29.000Z</time>
      </trkpt>
      <trkpt lat="44.86799" lon="5.30108">
        <ele>728</ele>
        <time>2023-09-17T07:54:42.000Z</time>
      </trkpt>
      <trkpt lat="44.86804" lon="5.30102">
        <ele>730</ele>
        <time>2023-09-17T07:54:51.000Z</time>
      </trkpt>
      <trkpt lat="44.86807" lon="5.30096">
        <ele>730</ele>
        <time>2023-09-17T07:54:56.000Z</time>
      </trkpt>
      <trkpt lat="44.86814" lon="5.30093">
        <ele>733</ele>
        <time>2023-09-17T07:55:07.000Z</time>
      </trkpt>
      <trkpt lat="44.86818" lon="5.30087">
        <ele>734</ele>
        <time>2023-09-17T07:55:15.000Z</time>
      </trkpt>
      <trkpt lat="44.86825" lon="5.30089">
        <ele>734</ele>
        <time>2023-09-17T07:55:25.000Z</time>
      </trkpt>
      <trkpt lat="44.86837" lon="5.30089">
        <ele>734</ele>
        <time>2023-09-17T07:55:40.000Z</time>
      </trkpt>
      <trkpt lat="44.86848" lon="5.30085">
        <ele>736</ele>
        <time>2023-09-17T07:55:58.000Z</time>
      </trkpt>
      <trkpt lat="44.86854" lon="5.30081">
        <ele>737</ele>
        <time>2023-09-17T07:56:07.000Z</time>
      </trkpt>
      <trkpt lat="44.8686" lon="5.30079">
        <ele>739</ele>
        <time>2023-09-17T07:56:19.000Z</time>
      </trkpt>
      <trkpt lat="44.86872" lon="5.30079">
        <ele>741</ele>
        <time>2023-09-17T07:56:42.000Z</time>
      </trkpt>
      <trkpt lat="44.86881" lon="5.30083">
        <ele>741</ele>
        <time>2023-09-17T07:56:54.000Z</time>
      </trkpt>
      <trkpt lat="44.86886" lon="5.30084">
        <ele>739</ele>
        <time>2023-09-17T07:57:00.000Z</time>
      </trkpt>
      <trkpt lat="44.8689" lon="5.30085">
        <ele>739</ele>
        <time>2023-09-17T07:57:05.000Z</time>
      </trkpt>
      <trkpt lat="44.86902" lon="5.30088">
        <ele>742</ele>
        <time>2023-09-17T07:57:27.000Z</time>
      </trkpt>
      <trkpt lat="44.86916" lon="5.30087">
        <ele>746</ele>
        <time>2023-09-17T07:57:46.000Z</time>
      </trkpt>
      <trkpt lat="44.86937" lon="5.30083">
        <ele>751</ele>
        <time>2023-09-17T07:58:16.000Z</time>
      </trkpt>
      <trkpt lat="44.86944" lon="5.30082">
        <ele>752</ele>
        <time>2023-09-17T07:58:27.000Z</time>
      </trkpt>
      <trkpt lat="44.86949" lon="5.30077">
        <ele>755</ele>
        <time>2023-09-17T07:58:42.000Z</time>
      </trkpt>
      <trkpt lat="44.86955" lon="5.30074">
        <ele>758</ele>
        <time>2023-09-17T07:58:52.000Z</time>
      </trkpt>
      <trkpt lat="44.86962" lon="5.30076">
        <ele>758</ele>
        <time>2023-09-17T07:59:01.000Z</time>
      </trkpt>
      <trkpt lat="44.86968" lon="5.30077">
        <ele>757</ele>
        <time>2023-09-17T07:59:08.000Z</time>
      </trkpt>
      <trkpt lat="44.86975" lon="5.30081">
        <ele>758</ele>
        <time>2023-09-17T07:59:17.000Z</time>
      </trkpt>
      <trkpt lat="44.8698" lon="5.30086">
        <ele>759</ele>
        <time>2023-09-17T07:59:24.000Z</time>
      </trkpt>
      <trkpt lat="44.87001" lon="5.30094">
        <ele>761</ele>
        <time>2023-09-17T07:59:49.000Z</time>
      </trkpt>
      <trkpt lat="44.87014" lon="5.30097">
        <ele>761</ele>
        <time>2023-09-17T08:00:04.000Z</time>
      </trkpt>
      <trkpt lat="44.8702" lon="5.30101">
        <ele>760</ele>
        <time>2023-09-17T08:00:11.000Z</time>
      </trkpt>
      <trkpt lat="44.87027" lon="5.30108">
        <ele>760</ele>
        <time>2023-09-17T08:00:21.000Z</time>
      </trkpt>
      <trkpt lat="44.87039" lon="5.30116">
        <ele>760</ele>
        <time>2023-09-17T08:00:33.000Z</time>
      </trkpt>
      <trkpt lat="44.8705" lon="5.30127">
        <ele>760</ele>
        <time>2023-09-17T08:00:46.000Z</time>
      </trkpt>
      <trkpt lat="44.87058" lon="5.30131">
        <ele>762</ele>
        <time>2023-09-17T08:00:55.000Z</time>
      </trkpt>
      <trkpt lat="44.87066" lon="5.30133">
        <ele>766</ele>
        <time>2023-09-17T08:01:06.000Z</time>
      </trkpt>
      <trkpt lat="44.87073" lon="5.30135">
        <ele>767</ele>
        <time>2023-09-17T08:01:16.000Z</time>
      </trkpt>
      <trkpt lat="44.87082" lon="5.30139">
        <ele>768</ele>
        <time>2023-09-17T08:01:24.000Z</time>
      </trkpt>
      <trkpt lat="44.8709" lon="5.30141">
        <ele>769</ele>
        <time>2023-09-17T08:01:34.000Z</time>
      </trkpt>
      <trkpt lat="44.87105" lon="5.30143">
        <ele>772</ele>
        <time>2023-09-17T08:01:51.000Z</time>
      </trkpt>
      <trkpt lat="44.87111" lon="5.3014">
        <ele>775</ele>
        <time>2023-09-17T08:02:02.000Z</time>
      </trkpt>
      <trkpt lat="44.87118" lon="5.30145">
        <ele>776</ele>
        <time>2023-09-17T08:02:11.000Z</time>
      </trkpt>
      <trkpt lat="44.87145" lon="5.30145">
        <ele>779</ele>
        <time>2023-09-17T08:02:45.000Z</time>
      </trkpt>
      <trkpt lat="44.87169" lon="5.30146">
        <ele>781</ele>
        <time>2023-09-17T08:03:15.000Z</time>
      </trkpt>
      <trkpt lat="44.87176" lon="5.30143">
        <ele>782</ele>
        <time>2023-09-17T08:03:29.000Z</time>
      </trkpt>
      <trkpt lat="44.87192" lon="5.30144">
        <ele>784</ele>
        <time>2023-09-17T08:03:48.000Z</time>
      </trkpt>
      <trkpt lat="44.87201" lon="5.30143">
        <ele>789</ele>
        <time>2023-09-17T08:04:00.000Z</time>
      </trkpt>
      <trkpt lat="44.87208" lon="5.30141">
        <ele>793</ele>
        <time>2023-09-17T08:04:15.000Z</time>
      </trkpt>
      <trkpt lat="44.87214" lon="5.3014">
        <ele>795</ele>
        <time>2023-09-17T08:04:28.000Z</time>
      </trkpt>
      <trkpt lat="44.87221" lon="5.3014">
        <ele>797</ele>
        <time>2023-09-17T08:04:38.000Z</time>
      </trkpt>
      <trkpt lat="44.87233" lon="5.30138">
        <ele>798</ele>
        <time>2023-09-17T08:04:56.000Z</time>
      </trkpt>
      <trkpt lat="44.87241" lon="5.30139">
        <ele>799</ele>
        <time>2023-09-17T08:05:07.000Z</time>
      </trkpt>
      <trkpt lat="44.87254" lon="5.30129">
        <ele>802</ele>
        <time>2023-09-17T08:05:37.000Z</time>
      </trkpt>
      <trkpt lat="44.87262" lon="5.30126">
        <ele>804</ele>
        <time>2023-09-17T08:05:47.000Z</time>
      </trkpt>
      <trkpt lat="44.87269" lon="5.30125">
        <ele>807</ele>
        <time>2023-09-17T08:06:01.000Z</time>
      </trkpt>
      <trkpt lat="44.87276" lon="5.30122">
        <ele>812</ele>
        <time>2023-09-17T08:06:15.000Z</time>
      </trkpt>
      <trkpt lat="44.87284" lon="5.30123">
        <ele>814</ele>
        <time>2023-09-17T08:06:30.000Z</time>
      </trkpt>
      <trkpt lat="44.87301" lon="5.30119">
        <ele>818</ele>
        <time>2023-09-17T08:06:52.000Z</time>
      </trkpt>
      <trkpt lat="44.87308" lon="5.30119">
        <ele>820</ele>
        <time>2023-09-17T08:07:00.000Z</time>
      </trkpt>
      <trkpt lat="44.87315" lon="5.30119">
        <ele>821</ele>
        <time>2023-09-17T08:07:10.000Z</time>
      </trkpt>
      <trkpt lat="44.87319" lon="5.30115">
        <ele>821</ele>
        <time>2023-09-17T08:07:17.000Z</time>
      </trkpt>
      <trkpt lat="44.87326" lon="5.30115">
        <ele>820</ele>
        <time>2023-09-17T08:07:23.000Z</time>
      </trkpt>
      <trkpt lat="44.87331" lon="5.30118">
        <ele>821</ele>
        <time>2023-09-17T08:07:29.000Z</time>
      </trkpt>
      <trkpt lat="44.87338" lon="5.30121">
        <ele>821</ele>
        <time>2023-09-17T08:07:38.000Z</time>
      </trkpt>
      <trkpt lat="44.87345" lon="5.30126">
        <ele>822</ele>
        <time>2023-09-17T08:07:46.000Z</time>
      </trkpt>
      <trkpt lat="44.8735" lon="5.3013">
        <ele>824</ele>
        <time>2023-09-17T08:07:52.000Z</time>
      </trkpt>
      <trkpt lat="44.87358" lon="5.30134">
        <ele>825</ele>
        <time>2023-09-17T08:08:00.000Z</time>
      </trkpt>
      <trkpt lat="44.87379" lon="5.30149">
        <ele>826</ele>
        <time>2023-09-17T08:08:32.000Z</time>
      </trkpt>
      <trkpt lat="44.87386" lon="5.3015">
        <ele>827</ele>
        <time>2023-09-17T08:08:44.000Z</time>
      </trkpt>
      <trkpt lat="44.87393" lon="5.30154">
        <ele>830</ele>
        <time>2023-09-17T08:08:55.000Z</time>
      </trkpt>
      <trkpt lat="44.874" lon="5.30157">
        <ele>831</ele>
        <time>2023-09-17T08:09:06.000Z</time>
      </trkpt>
      <trkpt lat="44.87407" lon="5.30158">
        <ele>832</ele>
        <time>2023-09-17T08:09:16.000Z</time>
      </trkpt>
      <trkpt lat="44.87436" lon="5.30164">
        <ele>836</ele>
        <time>2023-09-17T08:09:55.000Z</time>
      </trkpt>
      <trkpt lat="44.87452" lon="5.30169">
        <ele>841</ele>
        <time>2023-09-17T08:10:19.000Z</time>
      </trkpt>
      <trkpt lat="44.8746" lon="5.30169">
        <ele>844</ele>
        <time>2023-09-17T08:10:29.000Z</time>
      </trkpt>
      <trkpt lat="44.87469" lon="5.30169">
        <ele>845</ele>
        <time>2023-09-17T08:10:40.000Z</time>
      </trkpt>
      <trkpt lat="44.87476" lon="5.30171">
        <ele>847</ele>
        <time>2023-09-17T08:10:52.000Z</time>
      </trkpt>
      <trkpt lat="44.87484" lon="5.30176">
        <ele>848</ele>
        <time>2023-09-17T08:11:02.000Z</time>
      </trkpt>
      <trkpt lat="44.87492" lon="5.3018">
        <ele>851</ele>
        <time>2023-09-17T08:11:12.000Z</time>
      </trkpt>
      <trkpt lat="44.87501" lon="5.30181">
        <ele>851</ele>
        <time>2023-09-17T08:11:24.000Z</time>
      </trkpt>
      <trkpt lat="44.87518" lon="5.30179">
        <ele>851</ele>
        <time>2023-09-17T08:11:44.000Z</time>
      </trkpt>
      <trkpt lat="44.87539" lon="5.30184">
        <ele>856</ele>
        <time>2023-09-17T08:12:18.000Z</time>
      </trkpt>
      <trkpt lat="44.87545" lon="5.30179">
        <ele>855</ele>
        <time>2023-09-17T08:12:26.000Z</time>
      </trkpt>
      <trkpt lat="44.87556" lon="5.30187">
        <ele>855</ele>
        <time>2023-09-17T08:12:40.000Z</time>
      </trkpt>
      <trkpt lat="44.87563" lon="5.30188">
        <ele>858</ele>
        <time>2023-09-17T08:12:51.000Z</time>
      </trkpt>
      <trkpt lat="44.87569" lon="5.3019">
        <ele>860</ele>
        <time>2023-09-17T08:12:59.000Z</time>
      </trkpt>
      <trkpt lat="44.87575" lon="5.30192">
        <ele>860</ele>
        <time>2023-09-17T08:13:05.000Z</time>
      </trkpt>
      <trkpt lat="44.8758" lon="5.30196">
        <ele>860</ele>
        <time>2023-09-17T08:13:13.000Z</time>
      </trkpt>
      <trkpt lat="44.87586" lon="5.30197">
        <ele>860</ele>
        <time>2023-09-17T08:13:19.000Z</time>
      </trkpt>
      <trkpt lat="44.8759" lon="5.30202">
        <ele>862</ele>
        <time>2023-09-17T08:13:24.000Z</time>
      </trkpt>
      <trkpt lat="44.87598" lon="5.30203">
        <ele>863</ele>
        <time>2023-09-17T08:13:36.000Z</time>
      </trkpt>
      <trkpt lat="44.87605" lon="5.30207">
        <ele>866</ele>
        <time>2023-09-17T08:13:44.000Z</time>
      </trkpt>
      <trkpt lat="44.87622" lon="5.30211">
        <ele>867</ele>
        <time>2023-09-17T08:14:02.000Z</time>
      </trkpt>
      <trkpt lat="44.87629" lon="5.30213">
        <ele>867</ele>
        <time>2023-09-17T08:14:11.000Z</time>
      </trkpt>
      <trkpt lat="44.87644" lon="5.30207">
        <ele>871</ele>
        <time>2023-09-17T08:14:29.000Z</time>
      </trkpt>
      <trkpt lat="44.87651" lon="5.30206">
        <ele>872</ele>
        <time>2023-09-17T08:14:36.000Z</time>
      </trkpt>
      <trkpt lat="44.87658" lon="5.30208">
        <ele>872</ele>
        <time>2023-09-17T08:14:45.000Z</time>
      </trkpt>
      <trkpt lat="44.87665" lon="5.30211">
        <ele>872</ele>
        <time>2023-09-17T08:14:53.000Z</time>
      </trkpt>
      <trkpt lat="44.87672" lon="5.30215">
        <ele>872</ele>
        <time>2023-09-17T08:15:03.000Z</time>
      </trkpt>
      <trkpt lat="44.8768" lon="5.30218">
        <ele>871</ele>
        <time>2023-09-17T08:15:14.000Z</time>
      </trkpt>
      <trkpt lat="44.87687" lon="5.30224">
        <ele>874</ele>
        <time>2023-09-17T08:15:22.000Z</time>
      </trkpt>
      <trkpt lat="44.87694" lon="5.30223">
        <ele>875</ele>
        <time>2023-09-17T08:15:32.000Z</time>
      </trkpt>
      <trkpt lat="44.87701" lon="5.30227">
        <ele>875</ele>
        <time>2023-09-17T08:15:39.000Z</time>
      </trkpt>
      <trkpt lat="44.87708" lon="5.30231">
        <ele>875</ele>
        <time>2023-09-17T08:15:46.000Z</time>
      </trkpt>
      <trkpt lat="44.87715" lon="5.30233">
        <ele>874</ele>
        <time>2023-09-17T08:15:54.000Z</time>
      </trkpt>
      <trkpt lat="44.87732" lon="5.30228">
        <ele>875</ele>
        <time>2023-09-17T08:16:14.000Z</time>
      </trkpt>
      <trkpt lat="44.8774" lon="5.30232">
        <ele>876</ele>
        <time>2023-09-17T08:16:22.000Z</time>
      </trkpt>
      <trkpt lat="44.87753" lon="5.30233">
        <ele>875</ele>
        <time>2023-09-17T08:16:36.000Z</time>
      </trkpt>
      <trkpt lat="44.87778" lon="5.30236">
        <ele>877</ele>
        <time>2023-09-17T08:17:05.000Z</time>
      </trkpt>
      <trkpt lat="44.87797" lon="5.30246">
        <ele>879</ele>
        <time>2023-09-17T08:17:27.000Z</time>
      </trkpt>
      <trkpt lat="44.87828" lon="5.3025">
        <ele>882</ele>
        <time>2023-09-17T08:17:58.000Z</time>
      </trkpt>
      <trkpt lat="44.87858" lon="5.30246">
        <ele>880</ele>
        <time>2023-09-17T08:18:29.000Z</time>
      </trkpt>
      <trkpt lat="44.87894" lon="5.30248">
        <ele>881</ele>
        <time>2023-09-17T08:19:04.000Z</time>
      </trkpt>
      <trkpt lat="44.87907" lon="5.30247">
        <ele>885</ele>
        <time>2023-09-17T08:19:22.000Z</time>
      </trkpt>
      <trkpt lat="44.87921" lon="5.30248">
        <ele>887</ele>
        <time>2023-09-17T08:19:36.000Z</time>
      </trkpt>
      <trkpt lat="44.87929" lon="5.30246">
        <ele>889</ele>
        <time>2023-09-17T08:19:44.000Z</time>
      </trkpt>
      <trkpt lat="44.87936" lon="5.30247">
        <ele>889</ele>
        <time>2023-09-17T08:19:52.000Z</time>
      </trkpt>
      <trkpt lat="44.87943" lon="5.30246">
        <ele>891</ele>
        <time>2023-09-17T08:19:57.000Z</time>
      </trkpt>
      <trkpt lat="44.8797" lon="5.30255">
        <ele>894</ele>
        <time>2023-09-17T08:20:26.000Z</time>
      </trkpt>
      <trkpt lat="44.87977" lon="5.30255">
        <ele>894</ele>
        <time>2023-09-17T08:20:35.000Z</time>
      </trkpt>
      <trkpt lat="44.87984" lon="5.30253">
        <ele>894</ele>
        <time>2023-09-17T08:20:42.000Z</time>
      </trkpt>
      <trkpt lat="44.8799" lon="5.30254">
        <ele>893</ele>
        <time>2023-09-17T08:20:47.000Z</time>
      </trkpt>
      <trkpt lat="44.87997" lon="5.30259">
        <ele>894</ele>
        <time>2023-09-17T08:20:54.000Z</time>
      </trkpt>
      <trkpt lat="44.88015" lon="5.30267">
        <ele>894</ele>
        <time>2023-09-17T08:21:13.000Z</time>
      </trkpt>
      <trkpt lat="44.88025" lon="5.30271">
        <ele>897</ele>
        <time>2023-09-17T08:21:24.000Z</time>
      </trkpt>
      <trkpt lat="44.88033" lon="5.30279">
        <ele>898</ele>
        <time>2023-09-17T08:21:34.000Z</time>
      </trkpt>
      <trkpt lat="44.8804" lon="5.30283">
        <ele>900</ele>
        <time>2023-09-17T08:21:45.000Z</time>
      </trkpt>
      <trkpt lat="44.88047" lon="5.30288">
        <ele>902</ele>
        <time>2023-09-17T08:21:58.000Z</time>
      </trkpt>
      <trkpt lat="44.88053" lon="5.30294">
        <ele>906</ele>
        <time>2023-09-17T08:22:10.000Z</time>
      </trkpt>
      <trkpt lat="44.88059" lon="5.30292">
        <ele>906</ele>
        <time>2023-09-17T08:22:17.000Z</time>
      </trkpt>
      <trkpt lat="44.88073" lon="5.30293">
        <ele>904</ele>
        <time>2023-09-17T08:22:42.000Z</time>
      </trkpt>
      <trkpt lat="44.88079" lon="5.30287">
        <ele>907</ele>
        <time>2023-09-17T08:22:57.000Z</time>
      </trkpt>
      <trkpt lat="44.88095" lon="5.3028">
        <ele>912</ele>
        <time>2023-09-17T08:23:33.000Z</time>
      </trkpt>
      <trkpt lat="44.88104" lon="5.30275">
        <ele>914</ele>
        <time>2023-09-17T08:23:49.000Z</time>
      </trkpt>
      <trkpt lat="44.88114" lon="5.30272">
        <ele>914</ele>
        <time>2023-09-17T08:24:08.000Z</time>
      </trkpt>
      <trkpt lat="44.88134" lon="5.30267">
        <ele>916</ele>
        <time>2023-09-17T08:24:44.000Z</time>
      </trkpt>
      <trkpt lat="44.88146" lon="5.30283">
        <ele>919</ele>
        <time>2023-09-17T08:25:01.000Z</time>
      </trkpt>
      <trkpt lat="44.88153" lon="5.3028">
        <ele>921</ele>
        <time>2023-09-17T08:25:17.000Z</time>
      </trkpt>
      <trkpt lat="44.88171" lon="5.30281">
        <ele>925</ele>
        <time>2023-09-17T08:25:45.000Z</time>
      </trkpt>
      <trkpt lat="44.8818" lon="5.30277">
        <ele>927</ele>
        <time>2023-09-17T08:26:00.000Z</time>
      </trkpt>
      <trkpt lat="44.88187" lon="5.30273">
        <ele>929</ele>
        <time>2023-09-17T08:26:10.000Z</time>
      </trkpt>
      <trkpt lat="44.88195" lon="5.30274">
        <ele>928</ele>
        <time>2023-09-17T08:26:22.000Z</time>
      </trkpt>
      <trkpt lat="44.88205" lon="5.30276">
        <ele>932</ele>
        <time>2023-09-17T08:26:37.000Z</time>
      </trkpt>
      <trkpt lat="44.88211" lon="5.3028">
        <ele>935</ele>
        <time>2023-09-17T08:26:52.000Z</time>
      </trkpt>
      <trkpt lat="44.88229" lon="5.30283">
        <ele>942</ele>
        <time>2023-09-17T08:27:27.000Z</time>
      </trkpt>
      <trkpt lat="44.88235" lon="5.30276">
        <ele>942</ele>
        <time>2023-09-17T08:27:37.000Z</time>
      </trkpt>
      <trkpt lat="44.88245" lon="5.30278">
        <ele>943</ele>
        <time>2023-09-17T08:28:02.000Z</time>
      </trkpt>
      <trkpt lat="44.88264" lon="5.30275">
        <ele>950</ele>
        <time>2023-09-17T08:28:39.000Z</time>
      </trkpt>
      <trkpt lat="44.88275" lon="5.30276">
        <ele>954</ele>
        <time>2023-09-17T08:28:55.000Z</time>
      </trkpt>
      <trkpt lat="44.88284" lon="5.30273">
        <ele>953</ele>
        <time>2023-09-17T08:29:23.000Z</time>
      </trkpt>
      <trkpt lat="44.88291" lon="5.30277">
        <ele>959</ele>
        <time>2023-09-17T08:29:39.000Z</time>
      </trkpt>
      <trkpt lat="44.88299" lon="5.30283">
        <ele>961</ele>
        <time>2023-09-17T08:29:55.000Z</time>
      </trkpt>
      <trkpt lat="44.88311" lon="5.30287">
        <ele>965</ele>
        <time>2023-09-17T08:30:17.000Z</time>
      </trkpt>
      <trkpt lat="44.88321" lon="5.30289">
        <ele>970</ele>
        <time>2023-09-17T08:30:41.000Z</time>
      </trkpt>
      <trkpt lat="44.88327" lon="5.30292">
        <ele>971</ele>
        <time>2023-09-17T08:30:51.000Z</time>
      </trkpt>
      <trkpt lat="44.88334" lon="5.30297">
        <ele>972</ele>
        <time>2023-09-17T08:31:04.000Z</time>
      </trkpt>
      <trkpt lat="44.88347" lon="5.30294">
        <ele>971</ele>
        <time>2023-09-17T08:31:19.000Z</time>
      </trkpt>
      <trkpt lat="44.88354" lon="5.30296">
        <ele>972</ele>
        <time>2023-09-17T08:31:32.000Z</time>
      </trkpt>
      <trkpt lat="44.88371" lon="5.30299">
        <ele>978</ele>
        <time>2023-09-17T08:32:00.000Z</time>
      </trkpt>
      <trkpt lat="44.88379" lon="5.30295">
        <ele>979</ele>
        <time>2023-09-17T08:32:09.000Z</time>
      </trkpt>
      <trkpt lat="44.88389" lon="5.303">
        <ele>982</ele>
        <time>2023-09-17T08:32:24.000Z</time>
      </trkpt>
      <trkpt lat="44.884" lon="5.3031">
        <ele>986</ele>
        <time>2023-09-17T08:32:39.000Z</time>
      </trkpt>
      <trkpt lat="44.88415" lon="5.30317">
        <ele>987</ele>
        <time>2023-09-17T08:32:55.000Z</time>
      </trkpt>
      <trkpt lat="44.88428" lon="5.30323">
        <ele>988</ele>
        <time>2023-09-17T08:33:11.000Z</time>
      </trkpt>
      <trkpt lat="44.88438" lon="5.3033">
        <ele>991</ele>
        <time>2023-09-17T08:33:24.000Z</time>
      </trkpt>
      <trkpt lat="44.88448" lon="5.30334">
        <ele>995</ele>
        <time>2023-09-17T08:33:40.000Z</time>
      </trkpt>
      <trkpt lat="44.88458" lon="5.30337">
        <ele>998</ele>
        <time>2023-09-17T08:33:59.000Z</time>
      </trkpt>
      <trkpt lat="44.88469" lon="5.3034">
        <ele>999</ele>
        <time>2023-09-17T08:34:14.000Z</time>
      </trkpt>
      <trkpt lat="44.88478" lon="5.30344">
        <ele>1001</ele>
        <time>2023-09-17T08:34:30.000Z</time>
      </trkpt>
      <trkpt lat="44.88488" lon="5.30347">
        <ele>1004</ele>
        <time>2023-09-17T08:34:46.000Z</time>
      </trkpt>
      <trkpt lat="44.88496" lon="5.30355">
        <ele>1005</ele>
        <time>2023-09-17T08:34:57.000Z</time>
      </trkpt>
      <trkpt lat="44.88506" lon="5.30356">
        <ele>1008</ele>
        <time>2023-09-17T08:35:17.000Z</time>
      </trkpt>
      <trkpt lat="44.88526" lon="5.30362">
        <ele>1017</ele>
        <time>2023-09-17T08:35:51.000Z</time>
      </trkpt>
      <trkpt lat="44.88536" lon="5.30367">
        <ele>1019</ele>
        <time>2023-09-17T08:36:05.000Z</time>
      </trkpt>
      <trkpt lat="44.88547" lon="5.3037">
        <ele>1020</ele>
        <time>2023-09-17T08:36:22.000Z</time>
      </trkpt>
      <trkpt lat="44.88558" lon="5.30378">
        <ele>1021</ele>
        <time>2023-09-17T08:36:36.000Z</time>
      </trkpt>
      <trkpt lat="44.88571" lon="5.30383">
        <ele>1021</ele>
        <time>2023-09-17T08:36:51.000Z</time>
      </trkpt>
      <trkpt lat="44.88583" lon="5.30386">
        <ele>1023</ele>
        <time>2023-09-17T08:37:08.000Z</time>
      </trkpt>
      <trkpt lat="44.88595" lon="5.30393">
        <ele>1024</ele>
        <time>2023-09-17T08:37:25.000Z</time>
      </trkpt>
      <trkpt lat="44.88604" lon="5.30399">
        <ele>1025</ele>
        <time>2023-09-17T08:37:39.000Z</time>
      </trkpt>
      <trkpt lat="44.88615" lon="5.30401">
        <ele>1025</ele>
        <time>2023-09-17T08:37:55.000Z</time>
      </trkpt>
      <trkpt lat="44.88624" lon="5.30404">
        <ele>1029</ele>
        <time>2023-09-17T08:38:13.000Z</time>
      </trkpt>
      <trkpt lat="44.88634" lon="5.30401">
        <ele>1033</ele>
        <time>2023-09-17T08:38:31.000Z</time>
      </trkpt>
      <trkpt lat="44.88644" lon="5.30405">
        <ele>1036</ele>
        <time>2023-09-17T08:38:44.000Z</time>
      </trkpt>
      <trkpt lat="44.88656" lon="5.30412">
        <ele>1037</ele>
        <time>2023-09-17T08:39:04.000Z</time>
      </trkpt>
      <trkpt lat="44.88667" lon="5.3042">
        <ele>1041</ele>
        <time>2023-09-17T08:39:27.000Z</time>
      </trkpt>
      <trkpt lat="44.88678" lon="5.3042">
        <ele>1044</ele>
        <time>2023-09-17T08:39:46.000Z</time>
      </trkpt>
      <trkpt lat="44.88688" lon="5.30422">
        <ele>1047</ele>
        <time>2023-09-17T08:40:07.000Z</time>
      </trkpt>
      <trkpt lat="44.88698" lon="5.30426">
        <ele>1050</ele>
        <time>2023-09-17T08:40:30.000Z</time>
      </trkpt>
      <trkpt lat="44.88708" lon="5.30435">
        <ele>1056</ele>
        <time>2023-09-17T08:40:44.000Z</time>
      </trkpt>
      <trkpt lat="44.88716" lon="5.30435">
        <ele>1057</ele>
        <time>2023-09-17T08:41:01.000Z</time>
      </trkpt>
      <trkpt lat="44.88724" lon="5.30441">
        <ele>1057</ele>
        <time>2023-09-17T08:41:17.000Z</time>
      </trkpt>
      <trkpt lat="44.88746" lon="5.30449">
        <ele>1058</ele>
        <time>2023-09-17T08:41:46.000Z</time>
      </trkpt>
      <trkpt lat="44.88756" lon="5.3046">
        <ele>1060</ele>
        <time>2023-09-17T08:42:01.000Z</time>
      </trkpt>
      <trkpt lat="44.88765" lon="5.30469">
        <ele>1062</ele>
        <time>2023-09-17T08:42:12.000Z</time>
      </trkpt>
      <trkpt lat="44.88776" lon="5.30478">
        <ele>1065</ele>
        <time>2023-09-17T08:42:28.000Z</time>
      </trkpt>
      <trkpt lat="44.88799" lon="5.30501">
        <ele>1066</ele>
        <time>2023-09-17T08:43:12.000Z</time>
      </trkpt>
      <trkpt lat="44.88806" lon="5.30518">
        <ele>1068</ele>
        <time>2023-09-17T08:43:27.000Z</time>
      </trkpt>
      <trkpt lat="44.88814" lon="5.30526">
        <ele>1075</ele>
        <time>2023-09-17T08:43:47.000Z</time>
      </trkpt>
      <trkpt lat="44.88825" lon="5.30534">
        <ele>1078</ele>
        <time>2023-09-17T08:44:19.000Z</time>
      </trkpt>
      <trkpt lat="44.8884" lon="5.30556">
        <ele>1087</ele>
        <time>2023-09-17T08:45:04.000Z</time>
      </trkpt>
      <trkpt lat="44.88852" lon="5.30554">
        <ele>1087</ele>
        <time>2023-09-17T08:45:23.000Z</time>
      </trkpt>
      <trkpt lat="44.88864" lon="5.3055">
        <ele>1089</ele>
        <time>2023-09-17T08:45:46.000Z</time>
      </trkpt>
      <trkpt lat="44.88876" lon="5.30554">
        <ele>1090</ele>
        <time>2023-09-17T08:46:12.000Z</time>
      </trkpt>
      <trkpt lat="44.88886" lon="5.30562">
        <ele>1094</ele>
        <time>2023-09-17T08:46:33.000Z</time>
      </trkpt>
      <trkpt lat="44.88895" lon="5.30568">
        <ele>1097</ele>
        <time>2023-09-17T08:46:58.000Z</time>
      </trkpt>
      <trkpt lat="44.88913" lon="5.30579">
        <ele>1105</ele>
        <time>2023-09-17T08:47:44.000Z</time>
      </trkpt>
      <trkpt lat="44.88918" lon="5.30574">
        <ele>1103</ele>
        <time>2023-09-17T08:56:12.000Z</time>
      </trkpt>
      <trkpt lat="44.88932" lon="5.30566">
        <ele>1102</ele>
        <time>2023-09-17T08:56:26.000Z</time>
      </trkpt>
      <trkpt lat="44.88944" lon="5.30554">
        <ele>1104</ele>
        <time>2023-09-17T08:56:42.000Z</time>
      </trkpt>
      <trkpt lat="44.88958" lon="5.30546">
        <ele>1103</ele>
        <time>2023-09-17T08:56:55.000Z</time>
      </trkpt>
      <trkpt lat="44.88978" lon="5.30533">
        <ele>1103</ele>
        <time>2023-09-17T08:57:43.000Z</time>
      </trkpt>
      <trkpt lat="44.88989" lon="5.30515">
        <ele>1104</ele>
        <time>2023-09-17T08:57:58.000Z</time>
      </trkpt>
      <trkpt lat="44.88994" lon="5.3051">
        <ele>1104</ele>
        <time>2023-09-17T08:58:12.000Z</time>
      </trkpt>
      <trkpt lat="44.89004" lon="5.30491">
        <ele>1102</ele>
        <time>2023-09-17T08:58:40.000Z</time>
      </trkpt>
      <trkpt lat="44.8901" lon="5.30487">
        <ele>1102</ele>
        <time>2023-09-17T08:58:47.000Z</time>
      </trkpt>
      <trkpt lat="44.89017" lon="5.30481">
        <ele>1102</ele>
        <time>2023-09-17T08:58:56.000Z</time>
      </trkpt>
      <trkpt lat="44.89029" lon="5.30469">
        <ele>1102</ele>
        <time>2023-09-17T08:59:08.000Z</time>
      </trkpt>
      <trkpt lat="44.89034" lon="5.30461">
        <ele>1101</ele>
        <time>2023-09-17T08:59:17.000Z</time>
      </trkpt>
      <trkpt lat="44.89039" lon="5.30454">
        <ele>1101</ele>
        <time>2023-09-17T08:59:23.000Z</time>
      </trkpt>
      <trkpt lat="44.89046" lon="5.3045">
        <ele>1101</ele>
        <time>2023-09-17T08:59:30.000Z</time>
      </trkpt>
      <trkpt lat="44.89053" lon="5.30443">
        <ele>1101</ele>
        <time>2023-09-17T08:59:37.000Z</time>
      </trkpt>
      <trkpt lat="44.8906" lon="5.30423">
        <ele>1101</ele>
        <time>2023-09-17T08:59:53.000Z</time>
      </trkpt>
      <trkpt lat="44.89066" lon="5.30406">
        <ele>1098</ele>
        <time>2023-09-17T09:00:07.000Z</time>
      </trkpt>
      <trkpt lat="44.89071" lon="5.30399">
        <ele>1098</ele>
        <time>2023-09-17T09:00:14.000Z</time>
      </trkpt>
      <trkpt lat="44.89077" lon="5.30391">
        <ele>1099</ele>
        <time>2023-09-17T09:00:21.000Z</time>
      </trkpt>
      <trkpt lat="44.89083" lon="5.30382">
        <ele>1099</ele>
        <time>2023-09-17T09:00:27.000Z</time>
      </trkpt>
      <trkpt lat="44.8909" lon="5.30375">
        <ele>1097</ele>
        <time>2023-09-17T09:00:34.000Z</time>
      </trkpt>
      <trkpt lat="44.89096" lon="5.30369">
        <ele>1096</ele>
        <time>2023-09-17T09:00:41.000Z</time>
      </trkpt>
      <trkpt lat="44.89117" lon="5.30342">
        <ele>1092</ele>
        <time>2023-09-17T09:01:07.000Z</time>
      </trkpt>
      <trkpt lat="44.89122" lon="5.30336">
        <ele>1093</ele>
        <time>2023-09-17T09:01:14.000Z</time>
      </trkpt>
      <trkpt lat="44.89128" lon="5.30328">
        <ele>1094</ele>
        <time>2023-09-17T09:01:21.000Z</time>
      </trkpt>
      <trkpt lat="44.89155" lon="5.30295">
        <ele>1095</ele>
        <time>2023-09-17T09:01:53.000Z</time>
      </trkpt>
      <trkpt lat="44.89162" lon="5.30289">
        <ele>1096</ele>
        <time>2023-09-17T09:02:01.000Z</time>
      </trkpt>
      <trkpt lat="44.8917" lon="5.30284">
        <ele>1096</ele>
        <time>2023-09-17T09:02:08.000Z</time>
      </trkpt>
      <trkpt lat="44.89196" lon="5.30262">
        <ele>1094</ele>
        <time>2023-09-17T09:02:36.000Z</time>
      </trkpt>
      <trkpt lat="44.89222" lon="5.30239">
        <ele>1091</ele>
        <time>2023-09-17T09:03:04.000Z</time>
      </trkpt>
      <trkpt lat="44.89227" lon="5.30229">
        <ele>1092</ele>
        <time>2023-09-17T09:03:12.000Z</time>
      </trkpt>
      <trkpt lat="44.89233" lon="5.30222">
        <ele>1094</ele>
        <time>2023-09-17T09:03:19.000Z</time>
      </trkpt>
      <trkpt lat="44.89241" lon="5.30214">
        <ele>1095</ele>
        <time>2023-09-17T09:03:28.000Z</time>
      </trkpt>
      <trkpt lat="44.8925" lon="5.30205">
        <ele>1097</ele>
        <time>2023-09-17T09:03:36.000Z</time>
      </trkpt>
      <trkpt lat="44.89282" lon="5.30197">
        <ele>1095</ele>
        <time>2023-09-17T09:04:05.000Z</time>
      </trkpt>
      <trkpt lat="44.89288" lon="5.30193">
        <ele>1094</ele>
        <time>2023-09-17T09:04:13.000Z</time>
      </trkpt>
      <trkpt lat="44.89294" lon="5.30186">
        <ele>1092</ele>
        <time>2023-09-17T09:04:19.000Z</time>
      </trkpt>
      <trkpt lat="44.893" lon="5.3018">
        <ele>1090</ele>
        <time>2023-09-17T09:04:27.000Z</time>
      </trkpt>
      <trkpt lat="44.89314" lon="5.3017">
        <ele>1091</ele>
        <time>2023-09-17T09:04:42.000Z</time>
      </trkpt>
      <trkpt lat="44.8932" lon="5.30164">
        <ele>1090</ele>
        <time>2023-09-17T09:04:48.000Z</time>
      </trkpt>
      <trkpt lat="44.89351" lon="5.30141">
        <ele>1085</ele>
        <time>2023-09-17T09:05:22.000Z</time>
      </trkpt>
      <trkpt lat="44.89348" lon="5.30136">
        <ele>1084</ele>
        <time>2023-09-17T09:06:00.000Z</time>
      </trkpt>
      <trkpt lat="44.89353" lon="5.30132">
        <ele>1086</ele>
        <time>2023-09-17T09:06:53.000Z</time>
      </trkpt>
      <trkpt lat="44.8936" lon="5.30132">
        <ele>1086</ele>
        <time>2023-09-17T09:06:59.000Z</time>
      </trkpt>
      <trkpt lat="44.89365" lon="5.30131">
        <ele>1081</ele>
        <time>2023-09-17T09:07:14.000Z</time>
      </trkpt>
      <trkpt lat="44.89371" lon="5.30133">
        <ele>1081</ele>
        <time>2023-09-17T09:07:19.000Z</time>
      </trkpt>
      <trkpt lat="44.89377" lon="5.30136">
        <ele>1081</ele>
        <time>2023-09-17T09:07:26.000Z</time>
      </trkpt>
      <trkpt lat="44.89383" lon="5.30135">
        <ele>1080</ele>
        <time>2023-09-17T09:07:32.000Z</time>
      </trkpt>
      <trkpt lat="44.89386" lon="5.3013">
        <ele>1080</ele>
        <time>2023-09-17T09:07:38.000Z</time>
      </trkpt>
      <trkpt lat="44.89379" lon="5.30109">
        <ele>1082</ele>
        <time>2023-09-17T09:07:55.000Z</time>
      </trkpt>
      <trkpt lat="44.89374" lon="5.30102">
        <ele>1083</ele>
        <time>2023-09-17T09:08:01.000Z</time>
      </trkpt>
      <trkpt lat="44.89367" lon="5.30098">
        <ele>1084</ele>
        <time>2023-09-17T09:08:08.000Z</time>
      </trkpt>
      <trkpt lat="44.8936" lon="5.30095">
        <ele>1085</ele>
        <time>2023-09-17T09:08:13.000Z</time>
      </trkpt>
      <trkpt lat="44.89347" lon="5.30085">
        <ele>1086</ele>
        <time>2023-09-17T09:08:24.000Z</time>
      </trkpt>
      <trkpt lat="44.89333" lon="5.30073">
        <ele>1088</ele>
        <time>2023-09-17T09:08:40.000Z</time>
      </trkpt>
      <trkpt lat="44.89324" lon="5.30068">
        <ele>1089</ele>
        <time>2023-09-17T09:08:48.000Z</time>
      </trkpt>
      <trkpt lat="44.89315" lon="5.30064">
        <ele>1092</ele>
        <time>2023-09-17T09:08:54.000Z</time>
      </trkpt>
      <trkpt lat="44.89294" lon="5.30057">
        <ele>1093</ele>
        <time>2023-09-17T09:09:12.000Z</time>
      </trkpt>
      <trkpt lat="44.89287" lon="5.30053">
        <ele>1091</ele>
        <time>2023-09-17T09:09:19.000Z</time>
      </trkpt>
      <trkpt lat="44.89282" lon="5.30044">
        <ele>1091</ele>
        <time>2023-09-17T09:09:26.000Z</time>
      </trkpt>
      <trkpt lat="44.8928" lon="5.30034">
        <ele>1090</ele>
        <time>2023-09-17T09:09:36.000Z</time>
      </trkpt>
      <trkpt lat="44.89275" lon="5.30024">
        <ele>1089</ele>
        <time>2023-09-17T09:09:45.000Z</time>
      </trkpt>
      <trkpt lat="44.89271" lon="5.30011">
        <ele>1088</ele>
        <time>2023-09-17T09:10:12.000Z</time>
      </trkpt>
      <trkpt lat="44.89268" lon="5.3">
        <ele>1091</ele>
        <time>2023-09-17T09:10:25.000Z</time>
      </trkpt>
      <trkpt lat="44.89264" lon="5.2999">
        <ele>1093</ele>
        <time>2023-09-17T09:10:35.000Z</time>
      </trkpt>
      <trkpt lat="44.8926" lon="5.29983">
        <ele>1092</ele>
        <time>2023-09-17T09:10:45.000Z</time>
      </trkpt>
      <trkpt lat="44.89269" lon="5.29977">
        <ele>1092</ele>
        <time>2023-09-17T09:10:58.000Z</time>
      </trkpt>
      <trkpt lat="44.89276" lon="5.29981">
        <ele>1092</ele>
        <time>2023-09-17T09:11:07.000Z</time>
      </trkpt>
      <trkpt lat="44.89276" lon="5.2998">
        <ele>1095</ele>
        <time>2023-09-17T09:11:44.000Z</time>
      </trkpt>
      <trkpt lat="44.89273" lon="5.29971">
        <ele>1097</ele>
        <time>2023-09-17T09:11:50.000Z</time>
      </trkpt>
      <trkpt lat="44.8927" lon="5.29962">
        <ele>1099</ele>
        <time>2023-09-17T09:12:02.000Z</time>
      </trkpt>
      <trkpt lat="44.89268" lon="5.2995">
        <ele>1101</ele>
        <time>2023-09-17T09:12:18.000Z</time>
      </trkpt>
      <trkpt lat="44.89266" lon="5.29941">
        <ele>1101</ele>
        <time>2023-09-17T09:12:30.000Z</time>
      </trkpt>
      <trkpt lat="44.89262" lon="5.29935">
        <ele>1103</ele>
        <time>2023-09-17T09:12:41.000Z</time>
      </trkpt>
      <trkpt lat="44.89262" lon="5.29927">
        <ele>1104</ele>
        <time>2023-09-17T09:12:51.000Z</time>
      </trkpt>
      <trkpt lat="44.89261" lon="5.29917">
        <ele>1106</ele>
        <time>2023-09-17T09:13:05.000Z</time>
      </trkpt>
      <trkpt lat="44.8926" lon="5.29906">
        <ele>1108</ele>
        <time>2023-09-17T09:13:18.000Z</time>
      </trkpt>
      <trkpt lat="44.89257" lon="5.29897">
        <ele>1108</ele>
        <time>2023-09-17T09:13:28.000Z</time>
      </trkpt>
      <trkpt lat="44.89255" lon="5.29888">
        <ele>1109</ele>
        <time>2023-09-17T09:13:40.000Z</time>
      </trkpt>
      <trkpt lat="44.89245" lon="5.29874">
        <ele>1112</ele>
        <time>2023-09-17T09:14:00.000Z</time>
      </trkpt>
      <trkpt lat="44.89243" lon="5.29865">
        <ele>1116</ele>
        <time>2023-09-17T09:14:11.000Z</time>
      </trkpt>
      <trkpt lat="44.89242" lon="5.29855">
        <ele>1118</ele>
        <time>2023-09-17T09:14:25.000Z</time>
      </trkpt>
      <trkpt lat="44.89242" lon="5.29846">
        <ele>1118</ele>
        <time>2023-09-17T09:14:40.000Z</time>
      </trkpt>
      <trkpt lat="44.89242" lon="5.29836">
        <ele>1119</ele>
        <time>2023-09-17T09:14:53.000Z</time>
      </trkpt>
      <trkpt lat="44.89238" lon="5.2983">
        <ele>1120</ele>
        <time>2023-09-17T09:15:02.000Z</time>
      </trkpt>
      <trkpt lat="44.89239" lon="5.2982">
        <ele>1122</ele>
        <time>2023-09-17T09:15:19.000Z</time>
      </trkpt>
      <trkpt lat="44.89237" lon="5.29813">
        <ele>1124</ele>
        <time>2023-09-17T09:15:31.000Z</time>
      </trkpt>
      <trkpt lat="44.89232" lon="5.29809">
        <ele>1125</ele>
        <time>2023-09-17T09:15:54.000Z</time>
      </trkpt>
      <trkpt lat="44.89227" lon="5.29806">
        <ele>1125</ele>
        <time>2023-09-17T09:15:59.000Z</time>
      </trkpt>
      <trkpt lat="44.89202" lon="5.29785">
        <ele>1128</ele>
        <time>2023-09-17T09:16:25.000Z</time>
      </trkpt>
      <trkpt lat="44.89198" lon="5.2978">
        <ele>1129</ele>
        <time>2023-09-17T09:16:31.000Z</time>
      </trkpt>
      <trkpt lat="44.89183" lon="5.29768">
        <ele>1127</ele>
        <time>2023-09-17T09:16:48.000Z</time>
      </trkpt>
      <trkpt lat="44.89162" lon="5.29753">
        <ele>1127</ele>
        <time>2023-09-17T09:17:09.000Z</time>
      </trkpt>
      <trkpt lat="44.89153" lon="5.29743">
        <ele>1126</ele>
        <time>2023-09-17T09:17:20.000Z</time>
      </trkpt>
      <trkpt lat="44.89147" lon="5.29741">
        <ele>1126</ele>
        <time>2023-09-17T09:17:25.000Z</time>
      </trkpt>
      <trkpt lat="44.89135" lon="5.29737">
        <ele>1126</ele>
        <time>2023-09-17T09:17:36.000Z</time>
      </trkpt>
      <trkpt lat="44.89131" lon="5.29732">
        <ele>1125</ele>
        <time>2023-09-17T09:17:42.000Z</time>
      </trkpt>
      <trkpt lat="44.89117" lon="5.29716">
        <ele>1126</ele>
        <time>2023-09-17T09:18:02.000Z</time>
      </trkpt>
      <trkpt lat="44.89114" lon="5.29708">
        <ele>1125</ele>
        <time>2023-09-17T09:18:11.000Z</time>
      </trkpt>
      <trkpt lat="44.89101" lon="5.29697">
        <ele>1125</ele>
        <time>2023-09-17T09:18:29.000Z</time>
      </trkpt>
      <trkpt lat="44.89096" lon="5.29691">
        <ele>1126</ele>
        <time>2023-09-17T09:18:38.000Z</time>
      </trkpt>
      <trkpt lat="44.89087" lon="5.2968">
        <ele>1128</ele>
        <time>2023-09-17T09:18:52.000Z</time>
      </trkpt>
      <trkpt lat="44.89082" lon="5.29674">
        <ele>1129</ele>
        <time>2023-09-17T09:19:01.000Z</time>
      </trkpt>
      <trkpt lat="44.89076" lon="5.29668">
        <ele>1130</ele>
        <time>2023-09-17T09:19:12.000Z</time>
      </trkpt>
      <trkpt lat="44.89052" lon="5.29645">
        <ele>1134</ele>
        <time>2023-09-17T09:19:50.000Z</time>
      </trkpt>
      <trkpt lat="44.89039" lon="5.29636">
        <ele>1136</ele>
        <time>2023-09-17T09:20:08.000Z</time>
      </trkpt>
      <trkpt lat="44.89033" lon="5.29631">
        <ele>1138</ele>
        <time>2023-09-17T09:20:15.000Z</time>
      </trkpt>
      <trkpt lat="44.89028" lon="5.29627">
        <ele>1139</ele>
        <time>2023-09-17T09:20:24.000Z</time>
      </trkpt>
      <trkpt lat="44.89023" lon="5.29619">
        <ele>1141</ele>
        <time>2023-09-17T09:20:33.000Z</time>
      </trkpt>
      <trkpt lat="44.89019" lon="5.2961">
        <ele>1141</ele>
        <time>2023-09-17T09:20:41.000Z</time>
      </trkpt>
      <trkpt lat="44.89014" lon="5.29603">
        <ele>1141</ele>
        <time>2023-09-17T09:20:48.000Z</time>
      </trkpt>
      <trkpt lat="44.89007" lon="5.29598">
        <ele>1141</ele>
        <time>2023-09-17T09:20:56.000Z</time>
      </trkpt>
      <trkpt lat="44.89001" lon="5.29592">
        <ele>1141</ele>
        <time>2023-09-17T09:21:05.000Z</time>
      </trkpt>
      <trkpt lat="44.8899" lon="5.29579">
        <ele>1143</ele>
        <time>2023-09-17T09:21:22.000Z</time>
      </trkpt>
      <trkpt lat="44.88977" lon="5.29567">
        <ele>1145</ele>
        <time>2023-09-17T09:21:40.000Z</time>
      </trkpt>
      <trkpt lat="44.88976" lon="5.29562">
        <ele>1145</ele>
        <time>2023-09-17T09:21:50.000Z</time>
      </trkpt>
      <trkpt lat="44.88974" lon="5.29558">
        <ele>1145</ele>
        <time>2023-09-17T09:21:59.000Z</time>
      </trkpt>
      <trkpt lat="44.88969" lon="5.29556">
        <ele>1145</ele>
        <time>2023-09-17T09:22:46.000Z</time>
      </trkpt>
      <trkpt lat="44.88966" lon="5.29549">
        <ele>1147</ele>
        <time>2023-09-17T09:23:01.000Z</time>
      </trkpt>
      <trkpt lat="44.88961" lon="5.29545">
        <ele>1146</ele>
        <time>2023-09-17T09:23:06.000Z</time>
      </trkpt>
      <trkpt lat="44.88947" lon="5.29534">
        <ele>1147</ele>
        <time>2023-09-17T09:23:19.000Z</time>
      </trkpt>
      <trkpt lat="44.88936" lon="5.29524">
        <ele>1148</ele>
        <time>2023-09-17T09:23:30.000Z</time>
      </trkpt>
      <trkpt lat="44.88926" lon="5.29515">
        <ele>1149</ele>
        <time>2023-09-17T09:23:42.000Z</time>
      </trkpt>
      <trkpt lat="44.88921" lon="5.2951">
        <ele>1149</ele>
        <time>2023-09-17T09:23:47.000Z</time>
      </trkpt>
      <trkpt lat="44.8891" lon="5.29501">
        <ele>1148</ele>
        <time>2023-09-17T09:24:14.000Z</time>
      </trkpt>
      <trkpt lat="44.88905" lon="5.29497">
        <ele>1149</ele>
        <time>2023-09-17T09:24:21.000Z</time>
      </trkpt>
      <trkpt lat="44.88901" lon="5.29494">
        <ele>1150</ele>
        <time>2023-09-17T09:24:25.000Z</time>
      </trkpt>
      <trkpt lat="44.88873" lon="5.29484">
        <ele>1150</ele>
        <time>2023-09-17T09:24:55.000Z</time>
      </trkpt>
      <trkpt lat="44.88837" lon="5.29462">
        <ele>1150</ele>
        <time>2023-09-17T09:25:27.000Z</time>
      </trkpt>
      <trkpt lat="44.88821" lon="5.29451">
        <ele>1152</ele>
        <time>2023-09-17T09:25:39.000Z</time>
      </trkpt>
      <trkpt lat="44.88793" lon="5.29423">
        <ele>1151</ele>
        <time>2023-09-17T09:26:10.000Z</time>
      </trkpt>
      <trkpt lat="44.88787" lon="5.29416">
        <ele>1152</ele>
        <time>2023-09-17T09:26:17.000Z</time>
      </trkpt>
      <trkpt lat="44.88784" lon="5.29411">
        <ele>1153</ele>
        <time>2023-09-17T09:26:22.000Z</time>
      </trkpt>
      <trkpt lat="44.8877" lon="5.2939">
        <ele>1153</ele>
        <time>2023-09-17T09:26:39.000Z</time>
      </trkpt>
      <trkpt lat="44.88766" lon="5.29378">
        <ele>1152</ele>
        <time>2023-09-17T09:26:47.000Z</time>
      </trkpt>
      <trkpt lat="44.88758" lon="5.2937">
        <ele>1150</ele>
        <time>2023-09-17T09:26:55.000Z</time>
      </trkpt>
      <trkpt lat="44.88747" lon="5.29356">
        <ele>1150</ele>
        <time>2023-09-17T09:27:08.000Z</time>
      </trkpt>
      <trkpt lat="44.88745" lon="5.29349">
        <ele>1150</ele>
        <time>2023-09-17T09:27:13.000Z</time>
      </trkpt>
      <trkpt lat="44.88744" lon="5.29335">
        <ele>1149</ele>
        <time>2023-09-17T09:27:20.000Z</time>
      </trkpt>
      <trkpt lat="44.88749" lon="5.29308">
        <ele>1148</ele>
        <time>2023-09-17T09:27:37.000Z</time>
      </trkpt>
      <trkpt lat="44.8874" lon="5.29273">
        <ele>1147</ele>
        <time>2023-09-17T09:28:01.000Z</time>
      </trkpt>
      <trkpt lat="44.88714" lon="5.29247">
        <ele>1151</ele>
        <time>2023-09-17T09:28:47.000Z</time>
      </trkpt>
      <trkpt lat="44.8869" lon="5.29232">
        <ele>1151</ele>
        <time>2023-09-17T09:29:15.000Z</time>
      </trkpt>
      <trkpt lat="44.88671" lon="5.2923">
        <ele>1151</ele>
        <time>2023-09-17T09:29:37.000Z</time>
      </trkpt>
      <trkpt lat="44.88667" lon="5.29233">
        <ele>1150</ele>
        <time>2023-09-17T09:29:53.000Z</time>
      </trkpt>
      <trkpt lat="44.88659" lon="5.29233">
        <ele>1150</ele>
        <time>2023-09-17T09:29:59.000Z</time>
      </trkpt>
      <trkpt lat="44.88623" lon="5.29222">
        <ele>1147</ele>
        <time>2023-09-17T09:30:32.000Z</time>
      </trkpt>
      <trkpt lat="44.88589" lon="5.29207">
        <ele>1147</ele>
        <time>2023-09-17T09:31:05.000Z</time>
      </trkpt>
      <trkpt lat="44.88565" lon="5.29195">
        <ele>1148</ele>
        <time>2023-09-17T09:31:35.000Z</time>
      </trkpt>
      <trkpt lat="44.88541" lon="5.29178">
        <ele>1146</ele>
        <time>2023-09-17T09:31:58.000Z</time>
      </trkpt>
      <trkpt lat="44.88529" lon="5.29163">
        <ele>1145</ele>
        <time>2023-09-17T09:32:12.000Z</time>
      </trkpt>
      <trkpt lat="44.88498" lon="5.29133">
        <ele>1144</ele>
        <time>2023-09-17T09:32:45.000Z</time>
      </trkpt>
      <trkpt lat="44.88486" lon="5.29121">
        <ele>1144</ele>
        <time>2023-09-17T09:32:57.000Z</time>
      </trkpt>
      <trkpt lat="44.88478" lon="5.29114">
        <ele>1145</ele>
        <time>2023-09-17T09:33:06.000Z</time>
      </trkpt>
      <trkpt lat="44.88475" lon="5.29109">
        <ele>1145</ele>
        <time>2023-09-17T09:33:10.000Z</time>
      </trkpt>
      <trkpt lat="44.88471" lon="5.29105">
        <ele>1147</ele>
        <time>2023-09-17T09:33:41.000Z</time>
      </trkpt>
      <trkpt lat="44.88442" lon="5.29084">
        <ele>1144</ele>
        <time>2023-09-17T09:34:10.000Z</time>
      </trkpt>
      <trkpt lat="44.88437" lon="5.2908">
        <ele>1143</ele>
        <time>2023-09-17T09:34:15.000Z</time>
      </trkpt>
      <trkpt lat="44.88429" lon="5.29072">
        <ele>1143</ele>
        <time>2023-09-17T09:34:25.000Z</time>
      </trkpt>
      <trkpt lat="44.88421" lon="5.29064">
        <ele>1141</ele>
        <time>2023-09-17T09:34:34.000Z</time>
      </trkpt>
      <trkpt lat="44.8841" lon="5.29054">
        <ele>1139</ele>
        <time>2023-09-17T09:34:46.000Z</time>
      </trkpt>
      <trkpt lat="44.88407" lon="5.29049">
        <ele>1139</ele>
        <time>2023-09-17T09:34:50.000Z</time>
      </trkpt>
      <trkpt lat="44.88394" lon="5.29037">
        <ele>1137</ele>
        <time>2023-09-17T09:35:03.000Z</time>
      </trkpt>
      <trkpt lat="44.88391" lon="5.29032">
        <ele>1137</ele>
        <time>2023-09-17T09:35:08.000Z</time>
      </trkpt>
      <trkpt lat="44.8837" lon="5.29008">
        <ele>1133</ele>
        <time>2023-09-17T09:35:34.000Z</time>
      </trkpt>
      <trkpt lat="44.88349" lon="5.28998">
        <ele>1131</ele>
        <time>2023-09-17T09:35:53.000Z</time>
      </trkpt>
      <trkpt lat="44.88345" lon="5.28994">
        <ele>1131</ele>
        <time>2023-09-17T09:35:59.000Z</time>
      </trkpt>
      <trkpt lat="44.88339" lon="5.28985">
        <ele>1130</ele>
        <time>2023-09-17T09:36:09.000Z</time>
      </trkpt>
      <trkpt lat="44.88334" lon="5.28982">
        <ele>1129</ele>
        <time>2023-09-17T09:36:13.000Z</time>
      </trkpt>
      <trkpt lat="44.88325" lon="5.28974">
        <ele>1127</ele>
        <time>2023-09-17T09:36:23.000Z</time>
      </trkpt>
      <trkpt lat="44.88321" lon="5.28971">
        <ele>1124</ele>
        <time>2023-09-17T09:36:28.000Z</time>
      </trkpt>
      <trkpt lat="44.88316" lon="5.28966">
        <ele>1123</ele>
        <time>2023-09-17T09:36:34.000Z</time>
      </trkpt>
      <trkpt lat="44.88311" lon="5.28963">
        <ele>1122</ele>
        <time>2023-09-17T09:36:40.000Z</time>
      </trkpt>
      <trkpt lat="44.88307" lon="5.28957">
        <ele>1122</ele>
        <time>2023-09-17T09:36:46.000Z</time>
      </trkpt>
      <trkpt lat="44.88301" lon="5.28952">
        <ele>1122</ele>
        <time>2023-09-17T09:36:51.000Z</time>
      </trkpt>
      <trkpt lat="44.88299" lon="5.28945">
        <ele>1123</ele>
        <time>2023-09-17T09:37:23.000Z</time>
      </trkpt>
      <trkpt lat="44.88292" lon="5.28946">
        <ele>1123</ele>
        <time>2023-09-17T09:37:29.000Z</time>
      </trkpt>
      <trkpt lat="44.88287" lon="5.28943">
        <ele>1123</ele>
        <time>2023-09-17T09:37:33.000Z</time>
      </trkpt>
      <trkpt lat="44.88275" lon="5.28944">
        <ele>1124</ele>
        <time>2023-09-17T09:37:46.000Z</time>
      </trkpt>
      <trkpt lat="44.8827" lon="5.28947">
        <ele>1124</ele>
        <time>2023-09-17T09:37:51.000Z</time>
      </trkpt>
      <trkpt lat="44.88264" lon="5.28944">
        <ele>1123</ele>
        <time>2023-09-17T09:37:57.000Z</time>
      </trkpt>
      <trkpt lat="44.88233" lon="5.28933">
        <ele>1117</ele>
        <time>2023-09-17T09:38:24.000Z</time>
      </trkpt>
      <trkpt lat="44.88228" lon="5.2893">
        <ele>1116</ele>
        <time>2023-09-17T09:38:29.000Z</time>
      </trkpt>
      <trkpt lat="44.88198" lon="5.28904">
        <ele>1111</ele>
        <time>2023-09-17T09:38:59.000Z</time>
      </trkpt>
      <trkpt lat="44.88193" lon="5.28901">
        <ele>1112</ele>
        <time>2023-09-17T09:39:04.000Z</time>
      </trkpt>
      <trkpt lat="44.88189" lon="5.28897">
        <ele>1111</ele>
        <time>2023-09-17T09:39:10.000Z</time>
      </trkpt>
      <trkpt lat="44.88184" lon="5.28893">
        <ele>1108</ele>
        <time>2023-09-17T09:39:15.000Z</time>
      </trkpt>
      <trkpt lat="44.88179" lon="5.2889">
        <ele>1109</ele>
        <time>2023-09-17T09:39:20.000Z</time>
      </trkpt>
      <trkpt lat="44.88167" lon="5.28876">
        <ele>1105</ele>
        <time>2023-09-17T09:39:34.000Z</time>
      </trkpt>
      <trkpt lat="44.88154" lon="5.28866">
        <ele>1102</ele>
        <time>2023-09-17T09:39:49.000Z</time>
      </trkpt>
      <trkpt lat="44.88151" lon="5.28861">
        <ele>1103</ele>
        <time>2023-09-17T09:39:56.000Z</time>
      </trkpt>
      <trkpt lat="44.88145" lon="5.28857">
        <ele>1104</ele>
        <time>2023-09-17T09:40:08.000Z</time>
      </trkpt>
      <trkpt lat="44.8814" lon="5.28852">
        <ele>1104</ele>
        <time>2023-09-17T09:40:14.000Z</time>
      </trkpt>
      <trkpt lat="44.88139" lon="5.28843">
        <ele>1104</ele>
        <time>2023-09-17T09:40:19.000Z</time>
      </trkpt>
      <trkpt lat="44.88136" lon="5.28829">
        <ele>1104</ele>
        <time>2023-09-17T09:40:31.000Z</time>
      </trkpt>
      <trkpt lat="44.88134" lon="5.28821">
        <ele>1102</ele>
        <time>2023-09-17T09:40:38.000Z</time>
      </trkpt>
      <trkpt lat="44.88132" lon="5.28814">
        <ele>1103</ele>
        <time>2023-09-17T09:40:47.000Z</time>
      </trkpt>
      <trkpt lat="44.88132" lon="5.28804">
        <ele>1105</ele>
        <time>2023-09-17T09:40:59.000Z</time>
      </trkpt>
      <trkpt lat="44.88131" lon="5.28796">
        <ele>1105</ele>
        <time>2023-09-17T09:41:07.000Z</time>
      </trkpt>
      <trkpt lat="44.88132" lon="5.28786">
        <ele>1106</ele>
        <time>2023-09-17T09:41:19.000Z</time>
      </trkpt>
      <trkpt lat="44.8813" lon="5.28776">
        <ele>1108</ele>
        <time>2023-09-17T09:41:25.000Z</time>
      </trkpt>
      <trkpt lat="44.88125" lon="5.28769">
        <ele>1108</ele>
        <time>2023-09-17T09:41:33.000Z</time>
      </trkpt>
      <trkpt lat="44.88113" lon="5.28761">
        <ele>1109</ele>
        <time>2023-09-17T09:41:46.000Z</time>
      </trkpt>
      <trkpt lat="44.88105" lon="5.28758">
        <ele>1112</ele>
        <time>2023-09-17T09:41:57.000Z</time>
      </trkpt>
      <trkpt lat="44.88097" lon="5.28758">
        <ele>1114</ele>
        <time>2023-09-17T09:42:04.000Z</time>
      </trkpt>
      <trkpt lat="44.88089" lon="5.28757">
        <ele>1119</ele>
        <time>2023-09-17T09:42:16.000Z</time>
      </trkpt>
      <trkpt lat="44.88074" lon="5.28757">
        <ele>1123</ele>
        <time>2023-09-17T09:42:29.000Z</time>
      </trkpt>
      <trkpt lat="44.88053" lon="5.28743">
        <ele>1122</ele>
        <time>2023-09-17T09:42:56.000Z</time>
      </trkpt>
      <trkpt lat="44.88044" lon="5.28734">
        <ele>1120</ele>
        <time>2023-09-17T09:43:09.000Z</time>
      </trkpt>
      <trkpt lat="44.88041" lon="5.2873">
        <ele>1122</ele>
        <time>2023-09-17T09:43:15.000Z</time>
      </trkpt>
      <trkpt lat="44.88037" lon="5.28723">
        <ele>1122</ele>
        <time>2023-09-17T09:43:21.000Z</time>
      </trkpt>
      <trkpt lat="44.88031" lon="5.28717">
        <ele>1124</ele>
        <time>2023-09-17T09:43:32.000Z</time>
      </trkpt>
      <trkpt lat="44.88025" lon="5.28711">
        <ele>1125</ele>
        <time>2023-09-17T09:43:40.000Z</time>
      </trkpt>
      <trkpt lat="44.88019" lon="5.28705">
        <ele>1127</ele>
        <time>2023-09-17T09:43:48.000Z</time>
      </trkpt>
      <trkpt lat="44.88004" lon="5.2868">
        <ele>1128</ele>
        <time>2023-09-17T09:44:16.000Z</time>
      </trkpt>
      <trkpt lat="44.87999" lon="5.28673">
        <ele>1128</ele>
        <time>2023-09-17T09:44:23.000Z</time>
      </trkpt>
      <trkpt lat="44.87972" lon="5.28648">
        <ele>1132</ele>
        <time>2023-09-17T09:44:59.000Z</time>
      </trkpt>
      <trkpt lat="44.87959" lon="5.28641">
        <ele>1134</ele>
        <time>2023-09-17T09:45:16.000Z</time>
      </trkpt>
      <trkpt lat="44.87953" lon="5.28637">
        <ele>1137</ele>
        <time>2023-09-17T09:45:25.000Z</time>
      </trkpt>
      <trkpt lat="44.87934" lon="5.28632">
        <ele>1140</ele>
        <time>2023-09-17T09:45:44.000Z</time>
      </trkpt>
      <trkpt lat="44.8793" lon="5.28628">
        <ele>1140</ele>
        <time>2023-09-17T09:45:49.000Z</time>
      </trkpt>
      <trkpt lat="44.87932" lon="5.28621">
        <ele>1140</ele>
        <time>2023-09-17T09:45:57.000Z</time>
      </trkpt>
      <trkpt lat="44.87937" lon="5.28621">
        <ele>1141</ele>
        <time>2023-09-17T09:46:04.000Z</time>
      </trkpt>
      <trkpt lat="44.87957" lon="5.28617">
        <ele>1147</ele>
        <time>2023-09-17T09:46:30.000Z</time>
      </trkpt>
      <trkpt lat="44.87964" lon="5.28617">
        <ele>1149</ele>
        <time>2023-09-17T09:46:39.000Z</time>
      </trkpt>
      <trkpt lat="44.87972" lon="5.28613">
        <ele>1150</ele>
        <time>2023-09-17T09:46:50.000Z</time>
      </trkpt>
      <trkpt lat="44.87981" lon="5.28613">
        <ele>1152</ele>
        <time>2023-09-17T09:47:02.000Z</time>
      </trkpt>
      <trkpt lat="44.88002" lon="5.28622">
        <ele>1152</ele>
        <time>2023-09-17T09:47:33.000Z</time>
      </trkpt>
      <trkpt lat="44.88008" lon="5.28628">
        <ele>1153</ele>
        <time>2023-09-17T09:47:44.000Z</time>
      </trkpt>
      <trkpt lat="44.88016" lon="5.28631">
        <ele>1154</ele>
        <time>2023-09-17T09:47:54.000Z</time>
      </trkpt>
      <trkpt lat="44.88022" lon="5.28633">
        <ele>1156</ele>
        <time>2023-09-17T09:48:05.000Z</time>
      </trkpt>
      <trkpt lat="44.88029" lon="5.2864">
        <ele>1157</ele>
        <time>2023-09-17T09:48:17.000Z</time>
      </trkpt>
      <trkpt lat="44.88046" lon="5.28644">
        <ele>1161</ele>
        <time>2023-09-17T09:48:39.000Z</time>
      </trkpt>
      <trkpt lat="44.88054" lon="5.28646">
        <ele>1160</ele>
        <time>2023-09-17T09:48:50.000Z</time>
      </trkpt>
      <trkpt lat="44.88061" lon="5.2865">
        <ele>1161</ele>
        <time>2023-09-17T09:49:00.000Z</time>
      </trkpt>
      <trkpt lat="44.88069" lon="5.28655">
        <ele>1162</ele>
        <time>2023-09-17T09:49:11.000Z</time>
      </trkpt>
      <trkpt lat="44.88078" lon="5.28657">
        <ele>1163</ele>
        <time>2023-09-17T09:49:20.000Z</time>
      </trkpt>
      <trkpt lat="44.88086" lon="5.28661">
        <ele>1163</ele>
        <time>2023-09-17T09:49:30.000Z</time>
      </trkpt>
      <trkpt lat="44.88115" lon="5.28667">
        <ele>1166</ele>
        <time>2023-09-17T09:50:06.000Z</time>
      </trkpt>
      <trkpt lat="44.88121" lon="5.28665">
        <ele>1167</ele>
        <time>2023-09-17T09:50:14.000Z</time>
      </trkpt>
      <trkpt lat="44.88128" lon="5.28663">
        <ele>1170</ele>
        <time>2023-09-17T09:50:26.000Z</time>
      </trkpt>
      <trkpt lat="44.88134" lon="5.28658">
        <ele>1177</ele>
        <time>2023-09-17T09:50:42.000Z</time>
      </trkpt>
      <trkpt lat="44.88143" lon="5.28658">
        <ele>1180</ele>
        <time>2023-09-17T09:50:56.000Z</time>
      </trkpt>
      <trkpt lat="44.88157" lon="5.28658">
        <ele>1181</ele>
        <time>2023-09-17T09:51:28.000Z</time>
      </trkpt>
      <trkpt lat="44.88164" lon="5.28658">
        <ele>1179</ele>
        <time>2023-09-17T09:51:35.000Z</time>
      </trkpt>
      <trkpt lat="44.88171" lon="5.28662">
        <ele>1179</ele>
        <time>2023-09-17T09:51:47.000Z</time>
      </trkpt>
      <trkpt lat="44.88178" lon="5.28665">
        <ele>1180</ele>
        <time>2023-09-17T09:51:57.000Z</time>
      </trkpt>
      <trkpt lat="44.88191" lon="5.28673">
        <ele>1181</ele>
        <time>2023-09-17T09:52:15.000Z</time>
      </trkpt>
      <trkpt lat="44.88197" lon="5.28681">
        <ele>1181</ele>
        <time>2023-09-17T09:52:25.000Z</time>
      </trkpt>
      <trkpt lat="44.88205" lon="5.28687">
        <ele>1181</ele>
        <time>2023-09-17T09:52:34.000Z</time>
      </trkpt>
      <trkpt lat="44.88211" lon="5.28696">
        <ele>1182</ele>
        <time>2023-09-17T09:52:46.000Z</time>
      </trkpt>
      <trkpt lat="44.88233" lon="5.28714">
        <ele>1185</ele>
        <time>2023-09-17T09:53:21.000Z</time>
      </trkpt>
      <trkpt lat="44.88241" lon="5.28719">
        <ele>1186</ele>
        <time>2023-09-17T09:53:33.000Z</time>
      </trkpt>
      <trkpt lat="44.88256" lon="5.28732">
        <ele>1189</ele>
        <time>2023-09-17T09:53:57.000Z</time>
      </trkpt>
      <trkpt lat="44.88266" lon="5.28734">
        <ele>1190</ele>
        <time>2023-09-17T09:54:06.000Z</time>
      </trkpt>
      <trkpt lat="44.88273" lon="5.28738">
        <ele>1193</ele>
        <time>2023-09-17T09:54:21.000Z</time>
      </trkpt>
      <trkpt lat="44.8828" lon="5.28736">
        <ele>1194</ele>
        <time>2023-09-17T09:54:33.000Z</time>
      </trkpt>
      <trkpt lat="44.88297" lon="5.28732">
        <ele>1201</ele>
        <time>2023-09-17T09:55:00.000Z</time>
      </trkpt>
      <trkpt lat="44.88312" lon="5.28733">
        <ele>1200</ele>
        <time>2023-09-17T09:55:22.000Z</time>
      </trkpt>
      <trkpt lat="44.8832" lon="5.28733">
        <ele>1200</ele>
        <time>2023-09-17T09:55:33.000Z</time>
      </trkpt>
      <trkpt lat="44.88327" lon="5.28734">
        <ele>1201</ele>
        <time>2023-09-17T09:55:43.000Z</time>
      </trkpt>
      <trkpt lat="44.88333" lon="5.28737">
        <ele>1201</ele>
        <time>2023-09-17T09:55:53.000Z</time>
      </trkpt>
      <trkpt lat="44.88357" lon="5.28753">
        <ele>1202</ele>
        <time>2023-09-17T09:56:26.000Z</time>
      </trkpt>
      <trkpt lat="44.88369" lon="5.28755">
        <ele>1204</ele>
        <time>2023-09-17T09:56:41.000Z</time>
      </trkpt>
      <trkpt lat="44.88375" lon="5.28758">
        <ele>1204</ele>
        <time>2023-09-17T09:56:50.000Z</time>
      </trkpt>
      <trkpt lat="44.8838" lon="5.28762">
        <ele>1205</ele>
        <time>2023-09-17T09:56:58.000Z</time>
      </trkpt>
      <trkpt lat="44.88386" lon="5.28766">
        <ele>1205</ele>
        <time>2023-09-17T09:57:09.000Z</time>
      </trkpt>
      <trkpt lat="44.88389" lon="5.28772">
        <ele>1206</ele>
        <time>2023-09-17T09:57:19.000Z</time>
      </trkpt>
      <trkpt lat="44.88396" lon="5.28786">
        <ele>1205</ele>
        <time>2023-09-17T09:57:37.000Z</time>
      </trkpt>
      <trkpt lat="44.884" lon="5.28792">
        <ele>1208</ele>
        <time>2023-09-17T09:57:44.000Z</time>
      </trkpt>
      <trkpt lat="44.88405" lon="5.28796">
        <ele>1208</ele>
        <time>2023-09-17T09:57:51.000Z</time>
      </trkpt>
      <trkpt lat="44.88414" lon="5.28811">
        <ele>1210</ele>
        <time>2023-09-17T09:58:09.000Z</time>
      </trkpt>
      <trkpt lat="44.88429" lon="5.28826">
        <ele>1211</ele>
        <time>2023-09-17T09:58:44.000Z</time>
      </trkpt>
      <trkpt lat="44.88434" lon="5.28834">
        <ele>1211</ele>
        <time>2023-09-17T09:58:55.000Z</time>
      </trkpt>
      <trkpt lat="44.88438" lon="5.28844">
        <ele>1214</ele>
        <time>2023-09-17T09:59:04.000Z</time>
      </trkpt>
      <trkpt lat="44.88445" lon="5.28849">
        <ele>1214</ele>
        <time>2023-09-17T09:59:14.000Z</time>
      </trkpt>
      <trkpt lat="44.88452" lon="5.28858">
        <ele>1217</ele>
        <time>2023-09-17T09:59:25.000Z</time>
      </trkpt>
      <trkpt lat="44.8846" lon="5.28862">
        <ele>1218</ele>
        <time>2023-09-17T09:59:38.000Z</time>
      </trkpt>
      <trkpt lat="44.88469" lon="5.28868">
        <ele>1218</ele>
        <time>2023-09-17T09:59:51.000Z</time>
      </trkpt>
      <trkpt lat="44.88473" lon="5.28876">
        <ele>1218</ele>
        <time>2023-09-17T09:59:57.000Z</time>
      </trkpt>
      <trkpt lat="44.88474" lon="5.28879">
        <ele>1217</ele>
        <time>2023-09-17T10:01:38.000Z</time>
      </trkpt>
      <trkpt lat="44.88468" lon="5.28872">
        <ele>1218</ele>
        <time>2023-09-17T10:01:55.000Z</time>
      </trkpt>
      <trkpt lat="44.88465" lon="5.28862">
        <ele>1223</ele>
        <time>2023-09-17T10:02:05.000Z</time>
      </trkpt>
      <trkpt lat="44.88462" lon="5.28856">
        <ele>1225</ele>
        <time>2023-09-17T10:02:13.000Z</time>
      </trkpt>
      <trkpt lat="44.88459" lon="5.28848">
        <ele>1227</ele>
        <time>2023-09-17T10:02:22.000Z</time>
      </trkpt>
      <trkpt lat="44.88456" lon="5.28841">
        <ele>1228</ele>
        <time>2023-09-17T10:02:30.000Z</time>
      </trkpt>
      <trkpt lat="44.88451" lon="5.28835">
        <ele>1228</ele>
        <time>2023-09-17T10:02:38.000Z</time>
      </trkpt>
      <trkpt lat="44.88447" lon="5.2883">
        <ele>1227</ele>
        <time>2023-09-17T10:02:43.000Z</time>
      </trkpt>
      <trkpt lat="44.88444" lon="5.28822">
        <ele>1228</ele>
        <time>2023-09-17T10:02:54.000Z</time>
      </trkpt>
      <trkpt lat="44.8844" lon="5.28815">
        <ele>1231</ele>
        <time>2023-09-17T10:03:03.000Z</time>
      </trkpt>
      <trkpt lat="44.88437" lon="5.28805">
        <ele>1232</ele>
        <time>2023-09-17T10:03:15.000Z</time>
      </trkpt>
      <trkpt lat="44.88435" lon="5.28796">
        <ele>1233</ele>
        <time>2023-09-17T10:03:25.000Z</time>
      </trkpt>
      <trkpt lat="44.8843" lon="5.2879">
        <ele>1234</ele>
        <time>2023-09-17T10:03:34.000Z</time>
      </trkpt>
      <trkpt lat="44.88424" lon="5.28774">
        <ele>1235</ele>
        <time>2023-09-17T10:03:52.000Z</time>
      </trkpt>
      <trkpt lat="44.88414" lon="5.28754">
        <ele>1235</ele>
        <time>2023-09-17T10:04:21.000Z</time>
      </trkpt>
      <trkpt lat="44.88411" lon="5.28747">
        <ele>1236</ele>
        <time>2023-09-17T10:04:28.000Z</time>
      </trkpt>
      <trkpt lat="44.88411" lon="5.2874">
        <ele>1235</ele>
        <time>2023-09-17T10:04:35.000Z</time>
      </trkpt>
      <trkpt lat="44.88406" lon="5.2872">
        <ele>1237</ele>
        <time>2023-09-17T10:05:05.000Z</time>
      </trkpt>
      <trkpt lat="44.88402" lon="5.28714">
        <ele>1238</ele>
        <time>2023-09-17T10:05:24.000Z</time>
      </trkpt>
      <trkpt lat="44.88397" lon="5.28709">
        <ele>1242</ele>
        <time>2023-09-17T10:05:41.000Z</time>
      </trkpt>
      <trkpt lat="44.88391" lon="5.28704">
        <ele>1243</ele>
        <time>2023-09-17T10:05:51.000Z</time>
      </trkpt>
      <trkpt lat="44.88386" lon="5.28698">
        <ele>1243</ele>
        <time>2023-09-17T10:06:02.000Z</time>
      </trkpt>
      <trkpt lat="44.88383" lon="5.28691">
        <ele>1243</ele>
        <time>2023-09-17T10:06:10.000Z</time>
      </trkpt>
      <trkpt lat="44.88377" lon="5.28686">
        <ele>1245</ele>
        <time>2023-09-17T10:06:25.000Z</time>
      </trkpt>
      <trkpt lat="44.88371" lon="5.28686">
        <ele>1247</ele>
        <time>2023-09-17T10:06:39.000Z</time>
      </trkpt>
      <trkpt lat="44.88361" lon="5.28679">
        <ele>1250</ele>
        <time>2023-09-17T10:07:02.000Z</time>
      </trkpt>
      <trkpt lat="44.88354" lon="5.28675">
        <ele>1252</ele>
        <time>2023-09-17T10:07:13.000Z</time>
      </trkpt>
      <trkpt lat="44.88349" lon="5.2867">
        <ele>1253</ele>
        <time>2023-09-17T10:07:28.000Z</time>
      </trkpt>
      <trkpt lat="44.8834" lon="5.28668">
        <ele>1256</ele>
        <time>2023-09-17T10:07:41.000Z</time>
      </trkpt>
      <trkpt lat="44.88334" lon="5.28663">
        <ele>1258</ele>
        <time>2023-09-17T10:07:53.000Z</time>
      </trkpt>
      <trkpt lat="44.88327" lon="5.28658">
        <ele>1257</ele>
        <time>2023-09-17T10:08:02.000Z</time>
      </trkpt>
      <trkpt lat="44.88321" lon="5.28654">
        <ele>1257</ele>
        <time>2023-09-17T10:08:12.000Z</time>
      </trkpt>
      <trkpt lat="44.88317" lon="5.28647">
        <ele>1258</ele>
        <time>2023-09-17T10:08:21.000Z</time>
      </trkpt>
      <trkpt lat="44.88297" lon="5.28622">
        <ele>1256</ele>
        <time>2023-09-17T10:08:57.000Z</time>
      </trkpt>
      <trkpt lat="44.88292" lon="5.28615">
        <ele>1258</ele>
        <time>2023-09-17T10:09:06.000Z</time>
      </trkpt>
      <trkpt lat="44.88287" lon="5.28608">
        <ele>1258</ele>
        <time>2023-09-17T10:09:16.000Z</time>
      </trkpt>
      <trkpt lat="44.88282" lon="5.28596">
        <ele>1257</ele>
        <time>2023-09-17T10:09:35.000Z</time>
      </trkpt>
      <trkpt lat="44.88273" lon="5.28587">
        <ele>1259</ele>
        <time>2023-09-17T10:09:53.000Z</time>
      </trkpt>
      <trkpt lat="44.8827" lon="5.28583">
        <ele>1261</ele>
        <time>2023-09-17T10:10:03.000Z</time>
      </trkpt>
      <trkpt lat="44.88265" lon="5.2858">
        <ele>1262</ele>
        <time>2023-09-17T10:10:12.000Z</time>
      </trkpt>
      <trkpt lat="44.8826" lon="5.28564">
        <ele>1264</ele>
        <time>2023-09-17T10:10:32.000Z</time>
      </trkpt>
      <trkpt lat="44.88251" lon="5.28552">
        <ele>1266</ele>
        <time>2023-09-17T10:10:54.000Z</time>
      </trkpt>
      <trkpt lat="44.88248" lon="5.28544">
        <ele>1271</ele>
        <time>2023-09-17T10:11:03.000Z</time>
      </trkpt>
      <trkpt lat="44.88242" lon="5.28538">
        <ele>1271</ele>
        <time>2023-09-17T10:11:13.000Z</time>
      </trkpt>
      <trkpt lat="44.88237" lon="5.28533">
        <ele>1271</ele>
        <time>2023-09-17T10:11:23.000Z</time>
      </trkpt>
      <trkpt lat="44.88231" lon="5.28529">
        <ele>1272</ele>
        <time>2023-09-17T10:11:30.000Z</time>
      </trkpt>
      <trkpt lat="44.88224" lon="5.28525">
        <ele>1274</ele>
        <time>2023-09-17T10:11:40.000Z</time>
      </trkpt>
      <trkpt lat="44.88217" lon="5.28523">
        <ele>1275</ele>
        <time>2023-09-17T10:11:50.000Z</time>
      </trkpt>
      <trkpt lat="44.88212" lon="5.28516">
        <ele>1276</ele>
        <time>2023-09-17T10:11:58.000Z</time>
      </trkpt>
      <trkpt lat="44.88208" lon="5.28509">
        <ele>1278</ele>
        <time>2023-09-17T10:12:12.000Z</time>
      </trkpt>
      <trkpt lat="44.882" lon="5.28505">
        <ele>1278</ele>
        <time>2023-09-17T10:12:24.000Z</time>
      </trkpt>
      <trkpt lat="44.88195" lon="5.28501">
        <ele>1281</ele>
        <time>2023-09-17T10:12:39.000Z</time>
      </trkpt>
      <trkpt lat="44.8819" lon="5.285">
        <ele>1282</ele>
        <time>2023-09-17T10:12:48.000Z</time>
      </trkpt>
      <trkpt lat="44.88183" lon="5.28496">
        <ele>1282</ele>
        <time>2023-09-17T10:13:00.000Z</time>
      </trkpt>
      <trkpt lat="44.88178" lon="5.28489">
        <ele>1282</ele>
        <time>2023-09-17T10:13:10.000Z</time>
      </trkpt>
      <trkpt lat="44.88165" lon="5.2849">
        <ele>1284</ele>
        <time>2023-09-17T10:13:31.000Z</time>
      </trkpt>
      <trkpt lat="44.88154" lon="5.28487">
        <ele>1285</ele>
        <time>2023-09-17T10:13:48.000Z</time>
      </trkpt>
      <trkpt lat="44.88148" lon="5.28486">
        <ele>1286</ele>
        <time>2023-09-17T10:13:54.000Z</time>
      </trkpt>
      <trkpt lat="44.88142" lon="5.28483">
        <ele>1286</ele>
        <time>2023-09-17T10:14:04.000Z</time>
      </trkpt>
      <trkpt lat="44.88131" lon="5.28476">
        <ele>1286</ele>
        <time>2023-09-17T10:14:22.000Z</time>
      </trkpt>
      <trkpt lat="44.88129" lon="5.28471">
        <ele>1286</ele>
        <time>2023-09-17T10:14:30.000Z</time>
      </trkpt>
      <trkpt lat="44.88121" lon="5.2846">
        <ele>1286</ele>
        <time>2023-09-17T10:15:04.000Z</time>
      </trkpt>
      <trkpt lat="44.88117" lon="5.28455">
        <ele>1286</ele>
        <time>2023-09-17T10:15:09.000Z</time>
      </trkpt>
      <trkpt lat="44.88113" lon="5.28451">
        <ele>1286</ele>
        <time>2023-09-17T10:15:18.000Z</time>
      </trkpt>
      <trkpt lat="44.88111" lon="5.28445">
        <ele>1286</ele>
        <time>2023-09-17T10:15:23.000Z</time>
      </trkpt>
      <trkpt lat="44.88103" lon="5.28438">
        <ele>1287</ele>
        <time>2023-09-17T10:15:39.000Z</time>
      </trkpt>
      <trkpt lat="44.88101" lon="5.28433">
        <ele>1288</ele>
        <time>2023-09-17T10:15:47.000Z</time>
      </trkpt>
      <trkpt lat="44.88097" lon="5.28426">
        <ele>1289</ele>
        <time>2023-09-17T10:15:57.000Z</time>
      </trkpt>
      <trkpt lat="44.88093" lon="5.28422">
        <ele>1290</ele>
        <time>2023-09-17T10:16:06.000Z</time>
      </trkpt>
      <trkpt lat="44.88092" lon="5.28414">
        <ele>1290</ele>
        <time>2023-09-17T10:16:18.000Z</time>
      </trkpt>
      <trkpt lat="44.88087" lon="5.28409">
        <ele>1291</ele>
        <time>2023-09-17T10:16:30.000Z</time>
      </trkpt>
      <trkpt lat="44.8808" lon="5.28397">
        <ele>1293</ele>
        <time>2023-09-17T10:16:49.000Z</time>
      </trkpt>
      <trkpt lat="44.88075" lon="5.28391">
        <ele>1294</ele>
        <time>2023-09-17T10:17:01.000Z</time>
      </trkpt>
      <trkpt lat="44.8807" lon="5.28387">
        <ele>1296</ele>
        <time>2023-09-17T10:17:08.000Z</time>
      </trkpt>
      <trkpt lat="44.88063" lon="5.28381">
        <ele>1297</ele>
        <time>2023-09-17T10:17:21.000Z</time>
      </trkpt>
      <trkpt lat="44.88057" lon="5.2838">
        <ele>1301</ele>
        <time>2023-09-17T10:17:34.000Z</time>
      </trkpt>
      <trkpt lat="44.8805" lon="5.28381">
        <ele>1303</ele>
        <time>2023-09-17T10:17:52.000Z</time>
      </trkpt>
      <trkpt lat="44.88038" lon="5.28376">
        <ele>1304</ele>
        <time>2023-09-17T10:18:11.000Z</time>
      </trkpt>
      <trkpt lat="44.88033" lon="5.28373">
        <ele>1304</ele>
        <time>2023-09-17T10:18:18.000Z</time>
      </trkpt>
      <trkpt lat="44.88027" lon="5.28365">
        <ele>1304</ele>
        <time>2023-09-17T10:18:45.000Z</time>
      </trkpt>
      <trkpt lat="44.88017" lon="5.28359">
        <ele>1303</ele>
        <time>2023-09-17T10:19:16.000Z</time>
      </trkpt>
      <trkpt lat="44.8801" lon="5.28357">
        <ele>1305</ele>
        <time>2023-09-17T10:19:34.000Z</time>
      </trkpt>
      <trkpt lat="44.88004" lon="5.28353">
        <ele>1310</ele>
        <time>2023-09-17T10:19:55.000Z</time>
      </trkpt>
      <trkpt lat="44.87998" lon="5.2835">
        <ele>1310</ele>
        <time>2023-09-17T10:20:07.000Z</time>
      </trkpt>
      <trkpt lat="44.87991" lon="5.28349">
        <ele>1313</ele>
        <time>2023-09-17T10:20:19.000Z</time>
      </trkpt>
      <trkpt lat="44.87986" lon="5.28347">
        <ele>1313</ele>
        <time>2023-09-17T10:20:27.000Z</time>
      </trkpt>
      <trkpt lat="44.87982" lon="5.28343">
        <ele>1312</ele>
        <time>2023-09-17T10:20:37.000Z</time>
      </trkpt>
      <trkpt lat="44.87976" lon="5.28344">
        <ele>1313</ele>
        <time>2023-09-17T10:20:49.000Z</time>
      </trkpt>
      <trkpt lat="44.87969" lon="5.28338">
        <ele>1313</ele>
        <time>2023-09-17T10:21:19.000Z</time>
      </trkpt>
      <trkpt lat="44.87966" lon="5.28333">
        <ele>1313</ele>
        <time>2023-09-17T10:21:32.000Z</time>
      </trkpt>
      <trkpt lat="44.87964" lon="5.28327">
        <ele>1315</ele>
        <time>2023-09-17T10:21:38.000Z</time>
      </trkpt>
      <trkpt lat="44.87962" lon="5.28321">
        <ele>1315</ele>
        <time>2023-09-17T10:21:46.000Z</time>
      </trkpt>
      <trkpt lat="44.87955" lon="5.28313">
        <ele>1315</ele>
        <time>2023-09-17T10:22:03.000Z</time>
      </trkpt>
      <trkpt lat="44.87948" lon="5.28293">
        <ele>1316</ele>
        <time>2023-09-17T10:22:31.000Z</time>
      </trkpt>
      <trkpt lat="44.87945" lon="5.28288">
        <ele>1316</ele>
        <time>2023-09-17T10:22:41.000Z</time>
      </trkpt>
      <trkpt lat="44.8793" lon="5.28272">
        <ele>1319</ele>
        <time>2023-09-17T10:23:14.000Z</time>
      </trkpt>
      <trkpt lat="44.87925" lon="5.28264">
        <ele>1320</ele>
        <time>2023-09-17T10:23:21.000Z</time>
      </trkpt>
      <trkpt lat="44.8791" lon="5.28259">
        <ele>1322</ele>
        <time>2023-09-17T10:23:44.000Z</time>
      </trkpt>
      <trkpt lat="44.87903" lon="5.2826">
        <ele>1323</ele>
        <time>2023-09-17T10:23:53.000Z</time>
      </trkpt>
      <trkpt lat="44.87886" lon="5.28251">
        <ele>1325</ele>
        <time>2023-09-17T10:24:25.000Z</time>
      </trkpt>
      <trkpt lat="44.87882" lon="5.28248">
        <ele>1326</ele>
        <time>2023-09-17T10:24:38.000Z</time>
      </trkpt>
      <trkpt lat="44.87877" lon="5.28243">
        <ele>1324</ele>
        <time>2023-09-17T10:24:49.000Z</time>
      </trkpt>
      <trkpt lat="44.87869" lon="5.28234">
        <ele>1323</ele>
        <time>2023-09-17T10:25:04.000Z</time>
      </trkpt>
      <trkpt lat="44.87858" lon="5.28223">
        <ele>1323</ele>
        <time>2023-09-17T10:25:27.000Z</time>
      </trkpt>
      <trkpt lat="44.87852" lon="5.28217">
        <ele>1324</ele>
        <time>2023-09-17T10:25:34.000Z</time>
      </trkpt>
      <trkpt lat="44.87834" lon="5.28209">
        <ele>1326</ele>
        <time>2023-09-17T10:26:02.000Z</time>
      </trkpt>
      <trkpt lat="44.8783" lon="5.28205">
        <ele>1326</ele>
        <time>2023-09-17T10:26:08.000Z</time>
      </trkpt>
      <trkpt lat="44.87824" lon="5.28183">
        <ele>1328</ele>
        <time>2023-09-17T10:26:46.000Z</time>
      </trkpt>
      <trkpt lat="44.87822" lon="5.28176">
        <ele>1330</ele>
        <time>2023-09-17T10:26:59.000Z</time>
      </trkpt>
      <trkpt lat="44.8782" lon="5.28171">
        <ele>1331</ele>
        <time>2023-09-17T10:27:25.000Z</time>
      </trkpt>
      <trkpt lat="44.87822" lon="5.28169">
        <ele>1334</ele>
        <time>2023-09-17T10:28:18.000Z</time>
      </trkpt>
      <trkpt lat="44.87827" lon="5.28175">
        <ele>1335</ele>
        <time>2023-09-17T10:28:32.000Z</time>
      </trkpt>
      <trkpt lat="44.87834" lon="5.28181">
        <ele>1337</ele>
        <time>2023-09-17T10:28:48.000Z</time>
      </trkpt>
      <trkpt lat="44.87847" lon="5.2819">
        <ele>1340</ele>
        <time>2023-09-17T10:29:47.000Z</time>
      </trkpt>
      <trkpt lat="44.87862" lon="5.28193">
        <ele>1348</ele>
        <time>2023-09-17T10:30:31.000Z</time>
      </trkpt>
      <trkpt lat="44.8788" lon="5.28198">
        <ele>1346</ele>
        <time>2023-09-17T10:30:53.000Z</time>
      </trkpt>
      <trkpt lat="44.87893" lon="5.28202">
        <ele>1350</ele>
        <time>2023-09-17T10:31:23.000Z</time>
      </trkpt>
      <trkpt lat="44.87904" lon="5.28196">
        <ele>1352</ele>
        <time>2023-09-17T10:31:47.000Z</time>
      </trkpt>
      <trkpt lat="44.87918" lon="5.28198">
        <ele>1358</ele>
        <time>2023-09-17T10:32:07.000Z</time>
      </trkpt>
      <trkpt lat="44.87934" lon="5.28211">
        <ele>1361</ele>
        <time>2023-09-17T10:32:32.000Z</time>
      </trkpt>
      <trkpt lat="44.8795" lon="5.28222">
        <ele>1367</ele>
        <time>2023-09-17T10:33:15.000Z</time>
      </trkpt>
      <trkpt lat="44.87968" lon="5.28219">
        <ele>1368</ele>
        <time>2023-09-17T10:33:30.000Z</time>
      </trkpt>
      <trkpt lat="44.87981" lon="5.2823">
        <ele>1367</ele>
        <time>2023-09-17T10:34:11.000Z</time>
      </trkpt>
      <trkpt lat="44.87994" lon="5.28229">
        <ele>1372</ele>
        <time>2023-09-17T10:34:41.000Z</time>
      </trkpt>
      <trkpt lat="44.88003" lon="5.28241">
        <ele>1375</ele>
        <time>2023-09-17T10:35:02.000Z</time>
      </trkpt>
      <trkpt lat="44.88012" lon="5.28228">
        <ele>1377</ele>
        <time>2023-09-17T10:35:39.000Z</time>
      </trkpt>
      <trkpt lat="44.88025" lon="5.28228">
        <ele>1382</ele>
        <time>2023-09-17T10:36:01.000Z</time>
      </trkpt>
      <trkpt lat="44.88036" lon="5.28226">
        <ele>1384</ele>
        <time>2023-09-17T10:36:20.000Z</time>
      </trkpt>
      <trkpt lat="44.88048" lon="5.28206">
        <ele>1397</ele>
        <time>2023-09-17T10:37:41.000Z</time>
      </trkpt>
      <trkpt lat="44.88053" lon="5.28199">
        <ele>1401</ele>
        <time>2023-09-17T10:38:45.000Z</time>
      </trkpt>
      <trkpt lat="44.88058" lon="5.28189">
        <ele>1403</ele>
        <time>2023-09-17T10:39:29.000Z</time>
      </trkpt>
      <trkpt lat="44.88063" lon="5.28183">
        <ele>1403</ele>
        <time>2023-09-17T10:40:07.000Z</time>
      </trkpt>
      <trkpt lat="44.88059" lon="5.28176">
        <ele>1404</ele>
        <time>2023-09-17T10:40:28.000Z</time>
      </trkpt>
      <trkpt lat="44.88055" lon="5.28164">
        <ele>1410</ele>
        <time>2023-09-17T10:42:06.000Z</time>
      </trkpt>
      <trkpt lat="44.88053" lon="5.28152">
        <ele>1415</ele>
        <time>2023-09-17T10:42:54.000Z</time>
      </trkpt>
      <trkpt lat="44.88047" lon="5.28151">
        <ele>1416</ele>
        <time>2023-09-17T10:43:27.000Z</time>
      </trkpt>
      <trkpt lat="44.88043" lon="5.2815">
        <ele>1420</ele>
        <time>2023-09-17T10:44:32.000Z</time>
      </trkpt>
      <trkpt lat="44.88042" lon="5.28149">
        <ele>1425</ele>
        <time>2023-09-17T10:45:43.000Z</time>
      </trkpt>
      <trkpt lat="44.88052" lon="5.28143">
        <ele>1426</ele>
        <time>2023-09-17T10:46:36.000Z</time>
      </trkpt>
      <trkpt lat="44.88057" lon="5.28141">
        <ele>1425</ele>
        <time>2023-09-17T10:47:06.000Z</time>
      </trkpt>
      <trkpt lat="44.88062" lon="5.28141">
        <ele>1425</ele>
        <time>2023-09-17T10:47:20.000Z</time>
      </trkpt>
      <trkpt lat="44.88066" lon="5.28145">
        <ele>1425</ele>
        <time>2023-09-17T10:47:27.000Z</time>
      </trkpt>
      <trkpt lat="44.8807" lon="5.28146">
        <ele>1425</ele>
        <time>2023-09-17T10:47:37.000Z</time>
      </trkpt>
      <trkpt lat="44.88074" lon="5.28152">
        <ele>1425</ele>
        <time>2023-09-17T10:47:45.000Z</time>
      </trkpt>
      <trkpt lat="44.88082" lon="5.2816">
        <ele>1427</ele>
        <time>2023-09-17T10:48:08.000Z</time>
      </trkpt>
      <trkpt lat="44.88085" lon="5.28163">
        <ele>1427</ele>
        <time>2023-09-17T10:48:13.000Z</time>
      </trkpt>
      <trkpt lat="44.88099" lon="5.28175">
        <ele>1428</ele>
        <time>2023-09-17T10:48:44.000Z</time>
      </trkpt>
      <trkpt lat="44.88103" lon="5.28173">
        <ele>1429</ele>
        <time>2023-09-17T10:48:56.000Z</time>
      </trkpt>
      <trkpt lat="44.88104" lon="5.28169">
        <ele>1431</ele>
        <time>2023-09-17T10:49:03.000Z</time>
      </trkpt>
      <trkpt lat="44.88105" lon="5.28152">
        <ele>1433</ele>
        <time>2023-09-17T10:49:19.000Z</time>
      </trkpt>
      <trkpt lat="44.88102" lon="5.28148">
        <ele>1433</ele>
        <time>2023-09-17T10:49:25.000Z</time>
      </trkpt>
      <trkpt lat="44.88099" lon="5.28145">
        <ele>1433</ele>
        <time>2023-09-17T10:49:29.000Z</time>
      </trkpt>
      <trkpt lat="44.88086" lon="5.28137">
        <ele>1433</ele>
        <time>2023-09-17T10:49:45.000Z</time>
      </trkpt>
      <trkpt lat="44.88081" lon="5.28134">
        <ele>1433</ele>
        <time>2023-09-17T10:49:51.000Z</time>
      </trkpt>
      <trkpt lat="44.88077" lon="5.28135">
        <ele>1433</ele>
        <time>2023-09-17T10:49:57.000Z</time>
      </trkpt>
      <trkpt lat="44.88063" lon="5.28123">
        <ele>1433</ele>
        <time>2023-09-17T10:50:15.000Z</time>
      </trkpt>
      <trkpt lat="44.88058" lon="5.28122">
        <ele>1435</ele>
        <time>2023-09-17T10:50:22.000Z</time>
      </trkpt>
      <trkpt lat="44.88054" lon="5.28117">
        <ele>1436</ele>
        <time>2023-09-17T10:50:37.000Z</time>
      </trkpt>
      <trkpt lat="44.88049" lon="5.28115">
        <ele>1437</ele>
        <time>2023-09-17T10:50:45.000Z</time>
      </trkpt>
      <trkpt lat="44.88046" lon="5.28111">
        <ele>1438</ele>
        <time>2023-09-17T10:50:55.000Z</time>
      </trkpt>
      <trkpt lat="44.88041" lon="5.28112">
        <ele>1440</ele>
        <time>2023-09-17T10:51:51.000Z</time>
      </trkpt>
      <trkpt lat="44.88033" lon="5.28115">
        <ele>1441</ele>
        <time>2023-09-17T10:52:01.000Z</time>
      </trkpt>
      <trkpt lat="44.88029" lon="5.28114">
        <ele>1441</ele>
        <time>2023-09-17T10:52:18.000Z</time>
      </trkpt>
      <trkpt lat="44.8803" lon="5.28109">
        <ele>1435</ele>
        <time>2023-09-17T12:02:23.000Z</time>
      </trkpt>
      <trkpt lat="44.88027" lon="5.28104">
        <ele>1436</ele>
        <time>2023-09-17T12:02:30.000Z</time>
      </trkpt>
      <trkpt lat="44.88024" lon="5.281">
        <ele>1436</ele>
        <time>2023-09-17T12:02:34.000Z</time>
      </trkpt>
      <trkpt lat="44.88015" lon="5.28089">
        <ele>1438</ele>
        <time>2023-09-17T12:02:56.000Z</time>
      </trkpt>
      <trkpt lat="44.87986" lon="5.28071">
        <ele>1441</ele>
        <time>2023-09-17T12:03:28.000Z</time>
      </trkpt>
      <trkpt lat="44.87966" lon="5.28058">
        <ele>1443</ele>
        <time>2023-09-17T12:03:50.000Z</time>
      </trkpt>
      <trkpt lat="44.87938" lon="5.2804">
        <ele>1444</ele>
        <time>2023-09-17T12:04:21.000Z</time>
      </trkpt>
      <trkpt lat="44.87907" lon="5.2802">
        <ele>1446</ele>
        <time>2023-09-17T12:04:54.000Z</time>
      </trkpt>
      <trkpt lat="44.87878" lon="5.27999">
        <ele>1444</ele>
        <time>2023-09-17T12:05:26.000Z</time>
      </trkpt>
      <trkpt lat="44.87858" lon="5.27987">
        <ele>1444</ele>
        <time>2023-09-17T12:05:52.000Z</time>
      </trkpt>
      <trkpt lat="44.87855" lon="5.27985">
        <ele>1444</ele>
        <time>2023-09-17T12:05:57.000Z</time>
      </trkpt>
      <trkpt lat="44.87852" lon="5.27983">
        <ele>1443</ele>
        <time>2023-09-17T12:06:11.000Z</time>
      </trkpt>
      <trkpt lat="44.87846" lon="5.27978">
        <ele>1443</ele>
        <time>2023-09-17T12:06:22.000Z</time>
      </trkpt>
      <trkpt lat="44.87843" lon="5.27975">
        <ele>1443</ele>
        <time>2023-09-17T12:06:30.000Z</time>
      </trkpt>
      <trkpt lat="44.87834" lon="5.27966">
        <ele>1443</ele>
        <time>2023-09-17T12:06:51.000Z</time>
      </trkpt>
      <trkpt lat="44.87827" lon="5.27958">
        <ele>1442</ele>
        <time>2023-09-17T12:07:02.000Z</time>
      </trkpt>
      <trkpt lat="44.87818" lon="5.27954">
        <ele>1442</ele>
        <time>2023-09-17T12:07:11.000Z</time>
      </trkpt>
      <trkpt lat="44.8781" lon="5.27949">
        <ele>1442</ele>
        <time>2023-09-17T12:07:19.000Z</time>
      </trkpt>
      <trkpt lat="44.87785" lon="5.27942">
        <ele>1444</ele>
        <time>2023-09-17T12:07:44.000Z</time>
      </trkpt>
      <trkpt lat="44.87774" lon="5.27941">
        <ele>1444</ele>
        <time>2023-09-17T12:07:55.000Z</time>
      </trkpt>
      <trkpt lat="44.87749" lon="5.27939">
        <ele>1442</ele>
        <time>2023-09-17T12:08:27.000Z</time>
      </trkpt>
      <trkpt lat="44.87737" lon="5.27937">
        <ele>1442</ele>
        <time>2023-09-17T12:08:39.000Z</time>
      </trkpt>
      <trkpt lat="44.87728" lon="5.27937">
        <ele>1442</ele>
        <time>2023-09-17T12:08:48.000Z</time>
      </trkpt>
      <trkpt lat="44.87711" lon="5.27934">
        <ele>1442</ele>
        <time>2023-09-17T12:09:05.000Z</time>
      </trkpt>
      <trkpt lat="44.87707" lon="5.27932">
        <ele>1442</ele>
        <time>2023-09-17T12:09:09.000Z</time>
      </trkpt>
      <trkpt lat="44.87679" lon="5.27921">
        <ele>1444</ele>
        <time>2023-09-17T12:09:46.000Z</time>
      </trkpt>
      <trkpt lat="44.87675" lon="5.2792">
        <ele>1444</ele>
        <time>2023-09-17T12:09:55.000Z</time>
      </trkpt>
      <trkpt lat="44.87668" lon="5.27913">
        <ele>1444</ele>
        <time>2023-09-17T12:10:03.000Z</time>
      </trkpt>
      <trkpt lat="44.87655" lon="5.27905">
        <ele>1444</ele>
        <time>2023-09-17T12:10:17.000Z</time>
      </trkpt>
      <trkpt lat="44.87651" lon="5.27905">
        <ele>1444</ele>
        <time>2023-09-17T12:10:20.000Z</time>
      </trkpt>
      <trkpt lat="44.87634" lon="5.27896">
        <ele>1445</ele>
        <time>2023-09-17T12:10:38.000Z</time>
      </trkpt>
      <trkpt lat="44.87625" lon="5.27882">
        <ele>1446</ele>
        <time>2023-09-17T12:10:52.000Z</time>
      </trkpt>
      <trkpt lat="44.87621" lon="5.27872">
        <ele>1446</ele>
        <time>2023-09-17T12:11:00.000Z</time>
      </trkpt>
      <trkpt lat="44.87606" lon="5.27863">
        <ele>1447</ele>
        <time>2023-09-17T12:11:14.000Z</time>
      </trkpt>
      <trkpt lat="44.876" lon="5.27856">
        <ele>1447</ele>
        <time>2023-09-17T12:11:22.000Z</time>
      </trkpt>
      <trkpt lat="44.87583" lon="5.2784">
        <ele>1448</ele>
        <time>2023-09-17T12:11:41.000Z</time>
      </trkpt>
      <trkpt lat="44.87576" lon="5.27835">
        <ele>1448</ele>
        <time>2023-09-17T12:11:49.000Z</time>
      </trkpt>
      <trkpt lat="44.87558" lon="5.27818">
        <ele>1449</ele>
        <time>2023-09-17T12:12:10.000Z</time>
      </trkpt>
      <trkpt lat="44.8755" lon="5.27805">
        <ele>1448</ele>
        <time>2023-09-17T12:12:22.000Z</time>
      </trkpt>
      <trkpt lat="44.87545" lon="5.27801">
        <ele>1448</ele>
        <time>2023-09-17T12:12:27.000Z</time>
      </trkpt>
      <trkpt lat="44.87521" lon="5.27787">
        <ele>1449</ele>
        <time>2023-09-17T12:13:00.000Z</time>
      </trkpt>
      <trkpt lat="44.87497" lon="5.27775">
        <ele>1450</ele>
        <time>2023-09-17T12:13:31.000Z</time>
      </trkpt>
      <trkpt lat="44.87494" lon="5.27773">
        <ele>1451</ele>
        <time>2023-09-17T12:13:35.000Z</time>
      </trkpt>
      <trkpt lat="44.87484" lon="5.27762">
        <ele>1450</ele>
        <time>2023-09-17T12:13:49.000Z</time>
      </trkpt>
      <trkpt lat="44.87481" lon="5.27761">
        <ele>1449</ele>
        <time>2023-09-17T12:13:52.000Z</time>
      </trkpt>
      <trkpt lat="44.87458" lon="5.27736">
        <ele>1449</ele>
        <time>2023-09-17T12:14:24.000Z</time>
      </trkpt>
      <trkpt lat="44.87455" lon="5.27732">
        <ele>1449</ele>
        <time>2023-09-17T12:14:28.000Z</time>
      </trkpt>
      <trkpt lat="44.87445" lon="5.27725">
        <ele>1448</ele>
        <time>2023-09-17T12:14:40.000Z</time>
      </trkpt>
      <trkpt lat="44.87441" lon="5.27723">
        <ele>1447</ele>
        <time>2023-09-17T12:14:49.000Z</time>
      </trkpt>
      <trkpt lat="44.87415" lon="5.27718">
        <ele>1446</ele>
        <time>2023-09-17T12:15:15.000Z</time>
      </trkpt>
      <trkpt lat="44.87398" lon="5.27713">
        <ele>1447</ele>
        <time>2023-09-17T12:15:33.000Z</time>
      </trkpt>
      <trkpt lat="44.87371" lon="5.27705">
        <ele>1444</ele>
        <time>2023-09-17T12:16:03.000Z</time>
      </trkpt>
      <trkpt lat="44.87367" lon="5.27704">
        <ele>1443</ele>
        <time>2023-09-17T12:16:08.000Z</time>
      </trkpt>
      <trkpt lat="44.87363" lon="5.27703">
        <ele>1442</ele>
        <time>2023-09-17T12:16:12.000Z</time>
      </trkpt>
      <trkpt lat="44.87355" lon="5.27697">
        <ele>1442</ele>
        <time>2023-09-17T12:16:21.000Z</time>
      </trkpt>
      <trkpt lat="44.87347" lon="5.27693">
        <ele>1441</ele>
        <time>2023-09-17T12:16:30.000Z</time>
      </trkpt>
      <trkpt lat="44.87337" lon="5.27683">
        <ele>1439</ele>
        <time>2023-09-17T12:16:44.000Z</time>
      </trkpt>
      <trkpt lat="44.87331" lon="5.27679">
        <ele>1438</ele>
        <time>2023-09-17T12:16:53.000Z</time>
      </trkpt>
      <trkpt lat="44.87326" lon="5.27678">
        <ele>1437</ele>
        <time>2023-09-17T12:16:57.000Z</time>
      </trkpt>
      <trkpt lat="44.87303" lon="5.27676">
        <ele>1433</ele>
        <time>2023-09-17T12:17:32.000Z</time>
      </trkpt>
      <trkpt lat="44.8728" lon="5.27674">
        <ele>1429</ele>
        <time>2023-09-17T12:18:05.000Z</time>
      </trkpt>
      <trkpt lat="44.87277" lon="5.27674">
        <ele>1428</ele>
        <time>2023-09-17T12:18:11.000Z</time>
      </trkpt>
      <trkpt lat="44.87256" lon="5.27669">
        <ele>1428</ele>
        <time>2023-09-17T12:18:37.000Z</time>
      </trkpt>
      <trkpt lat="44.87234" lon="5.27654">
        <ele>1425</ele>
        <time>2023-09-17T12:19:09.000Z</time>
      </trkpt>
      <trkpt lat="44.87231" lon="5.27651">
        <ele>1424</ele>
        <time>2023-09-17T12:19:14.000Z</time>
      </trkpt>
      <trkpt lat="44.87231" lon="5.27642">
        <ele>1424</ele>
        <time>2023-09-17T12:19:23.000Z</time>
      </trkpt>
      <trkpt lat="44.87232" lon="5.27636">
        <ele>1422</ele>
        <time>2023-09-17T12:19:32.000Z</time>
      </trkpt>
      <trkpt lat="44.87235" lon="5.27625">
        <ele>1420</ele>
        <time>2023-09-17T12:19:52.000Z</time>
      </trkpt>
      <trkpt lat="44.87232" lon="5.27622">
        <ele>1420</ele>
        <time>2023-09-17T12:19:57.000Z</time>
      </trkpt>
      <trkpt lat="44.87227" lon="5.27621">
        <ele>1419</ele>
        <time>2023-09-17T12:20:04.000Z</time>
      </trkpt>
      <trkpt lat="44.87223" lon="5.27618">
        <ele>1418</ele>
        <time>2023-09-17T12:20:13.000Z</time>
      </trkpt>
      <trkpt lat="44.87214" lon="5.27616">
        <ele>1414</ele>
        <time>2023-09-17T12:20:28.000Z</time>
      </trkpt>
      <trkpt lat="44.87202" lon="5.27617">
        <ele>1410</ele>
        <time>2023-09-17T12:20:44.000Z</time>
      </trkpt>
      <trkpt lat="44.87197" lon="5.27617">
        <ele>1410</ele>
        <time>2023-09-17T12:20:50.000Z</time>
      </trkpt>
      <trkpt lat="44.87192" lon="5.27617">
        <ele>1407</ele>
        <time>2023-09-17T12:20:56.000Z</time>
      </trkpt>
      <trkpt lat="44.87187" lon="5.27613">
        <ele>1407</ele>
        <time>2023-09-17T12:21:03.000Z</time>
      </trkpt>
      <trkpt lat="44.87177" lon="5.27608">
        <ele>1406</ele>
        <time>2023-09-17T12:21:17.000Z</time>
      </trkpt>
      <trkpt lat="44.87173" lon="5.27607">
        <ele>1406</ele>
        <time>2023-09-17T12:21:22.000Z</time>
      </trkpt>
      <trkpt lat="44.87168" lon="5.27606">
        <ele>1405</ele>
        <time>2023-09-17T12:21:29.000Z</time>
      </trkpt>
      <trkpt lat="44.87164" lon="5.27605">
        <ele>1404</ele>
        <time>2023-09-17T12:21:34.000Z</time>
      </trkpt>
      <trkpt lat="44.87154" lon="5.27605">
        <ele>1402</ele>
        <time>2023-09-17T12:21:45.000Z</time>
      </trkpt>
      <trkpt lat="44.87145" lon="5.27607">
        <ele>1398</ele>
        <time>2023-09-17T12:21:57.000Z</time>
      </trkpt>
      <trkpt lat="44.87141" lon="5.27607">
        <ele>1399</ele>
        <time>2023-09-17T12:22:01.000Z</time>
      </trkpt>
      <trkpt lat="44.87133" lon="5.27603">
        <ele>1397</ele>
        <time>2023-09-17T12:22:12.000Z</time>
      </trkpt>
      <trkpt lat="44.87129" lon="5.27601">
        <ele>1397</ele>
        <time>2023-09-17T12:22:23.000Z</time>
      </trkpt>
      <trkpt lat="44.87125" lon="5.27602">
        <ele>1396</ele>
        <time>2023-09-17T12:22:29.000Z</time>
      </trkpt>
      <trkpt lat="44.87127" lon="5.27606">
        <ele>1395</ele>
        <time>2023-09-17T12:23:23.000Z</time>
      </trkpt>
      <trkpt lat="44.87141" lon="5.27624">
        <ele>1392</ele>
        <time>2023-09-17T12:23:50.000Z</time>
      </trkpt>
      <trkpt lat="44.87143" lon="5.27629">
        <ele>1391</ele>
        <time>2023-09-17T12:23:55.000Z</time>
      </trkpt>
      <trkpt lat="44.87146" lon="5.27639">
        <ele>1390</ele>
        <time>2023-09-17T12:24:06.000Z</time>
      </trkpt>
      <trkpt lat="44.87147" lon="5.27645">
        <ele>1389</ele>
        <time>2023-09-17T12:24:13.000Z</time>
      </trkpt>
      <trkpt lat="44.87148" lon="5.2765">
        <ele>1388</ele>
        <time>2023-09-17T12:24:20.000Z</time>
      </trkpt>
      <trkpt lat="44.87145" lon="5.27654">
        <ele>1388</ele>
        <time>2023-09-17T12:24:32.000Z</time>
      </trkpt>
      <trkpt lat="44.8714" lon="5.27654">
        <ele>1387</ele>
        <time>2023-09-17T12:24:39.000Z</time>
      </trkpt>
      <trkpt lat="44.87136" lon="5.27654">
        <ele>1387</ele>
        <time>2023-09-17T12:24:45.000Z</time>
      </trkpt>
      <trkpt lat="44.87131" lon="5.27655">
        <ele>1385</ele>
        <time>2023-09-17T12:24:52.000Z</time>
      </trkpt>
      <trkpt lat="44.87112" lon="5.27656">
        <ele>1380</ele>
        <time>2023-09-17T12:25:20.000Z</time>
      </trkpt>
      <trkpt lat="44.87107" lon="5.27659">
        <ele>1379</ele>
        <time>2023-09-17T12:25:33.000Z</time>
      </trkpt>
      <trkpt lat="44.871" lon="5.27666">
        <ele>1378</ele>
        <time>2023-09-17T12:25:50.000Z</time>
      </trkpt>
      <trkpt lat="44.87097" lon="5.27672">
        <ele>1376</ele>
        <time>2023-09-17T12:25:58.000Z</time>
      </trkpt>
      <trkpt lat="44.87093" lon="5.27675">
        <ele>1376</ele>
        <time>2023-09-17T12:26:04.000Z</time>
      </trkpt>
      <trkpt lat="44.87088" lon="5.27674">
        <ele>1376</ele>
        <time>2023-09-17T12:26:09.000Z</time>
      </trkpt>
      <trkpt lat="44.87083" lon="5.27674">
        <ele>1376</ele>
        <time>2023-09-17T12:26:14.000Z</time>
      </trkpt>
      <trkpt lat="44.8706" lon="5.27668">
        <ele>1376</ele>
        <time>2023-09-17T12:26:40.000Z</time>
      </trkpt>
      <trkpt lat="44.87055" lon="5.27668">
        <ele>1376</ele>
        <time>2023-09-17T12:26:45.000Z</time>
      </trkpt>
      <trkpt lat="44.87046" lon="5.2767">
        <ele>1375</ele>
        <time>2023-09-17T12:26:58.000Z</time>
      </trkpt>
      <trkpt lat="44.87041" lon="5.2767">
        <ele>1375</ele>
        <time>2023-09-17T12:27:03.000Z</time>
      </trkpt>
      <trkpt lat="44.87037" lon="5.27667">
        <ele>1374</ele>
        <time>2023-09-17T12:27:08.000Z</time>
      </trkpt>
      <trkpt lat="44.87025" lon="5.27646">
        <ele>1374</ele>
        <time>2023-09-17T12:27:32.000Z</time>
      </trkpt>
      <trkpt lat="44.87017" lon="5.27639">
        <ele>1373</ele>
        <time>2023-09-17T12:27:44.000Z</time>
      </trkpt>
      <trkpt lat="44.87015" lon="5.27633">
        <ele>1372</ele>
        <time>2023-09-17T12:27:50.000Z</time>
      </trkpt>
      <trkpt lat="44.87012" lon="5.2763">
        <ele>1372</ele>
        <time>2023-09-17T12:27:55.000Z</time>
      </trkpt>
      <trkpt lat="44.86993" lon="5.27607">
        <ele>1372</ele>
        <time>2023-09-17T12:28:27.000Z</time>
      </trkpt>
      <trkpt lat="44.86989" lon="5.27602">
        <ele>1372</ele>
        <time>2023-09-17T12:28:34.000Z</time>
      </trkpt>
      <trkpt lat="44.86983" lon="5.276">
        <ele>1373</ele>
        <time>2023-09-17T12:28:40.000Z</time>
      </trkpt>
      <trkpt lat="44.86978" lon="5.27596">
        <ele>1374</ele>
        <time>2023-09-17T12:28:49.000Z</time>
      </trkpt>
      <trkpt lat="44.86955" lon="5.27596">
        <ele>1372</ele>
        <time>2023-09-17T12:29:17.000Z</time>
      </trkpt>
      <trkpt lat="44.86951" lon="5.27596">
        <ele>1369</ele>
        <time>2023-09-17T12:29:23.000Z</time>
      </trkpt>
      <trkpt lat="44.86945" lon="5.27597">
        <ele>1368</ele>
        <time>2023-09-17T12:29:32.000Z</time>
      </trkpt>
      <trkpt lat="44.8694" lon="5.2759">
        <ele>1367</ele>
        <time>2023-09-17T12:29:39.000Z</time>
      </trkpt>
      <trkpt lat="44.86935" lon="5.27583">
        <ele>1367</ele>
        <time>2023-09-17T12:29:51.000Z</time>
      </trkpt>
      <trkpt lat="44.86921" lon="5.27582">
        <ele>1366</ele>
        <time>2023-09-17T12:30:07.000Z</time>
      </trkpt>
      <trkpt lat="44.86914" lon="5.27584">
        <ele>1363</ele>
        <time>2023-09-17T12:30:15.000Z</time>
      </trkpt>
      <trkpt lat="44.86893" lon="5.27574">
        <ele>1361</ele>
        <time>2023-09-17T12:30:44.000Z</time>
      </trkpt>
      <trkpt lat="44.86889" lon="5.27576">
        <ele>1359</ele>
        <time>2023-09-17T12:30:53.000Z</time>
      </trkpt>
      <trkpt lat="44.86891" lon="5.27583">
        <ele>1356</ele>
        <time>2023-09-17T12:31:17.000Z</time>
      </trkpt>
      <trkpt lat="44.86896" lon="5.27589">
        <ele>1354</ele>
        <time>2023-09-17T12:31:45.000Z</time>
      </trkpt>
      <trkpt lat="44.86885" lon="5.27593">
        <ele>1346</ele>
        <time>2023-09-17T12:32:27.000Z</time>
      </trkpt>
      <trkpt lat="44.8688" lon="5.27595">
        <ele>1344</ele>
        <time>2023-09-17T12:32:45.000Z</time>
      </trkpt>
      <trkpt lat="44.86875" lon="5.27596">
        <ele>1340</ele>
        <time>2023-09-17T12:33:04.000Z</time>
      </trkpt>
      <trkpt lat="44.86868" lon="5.27597">
        <ele>1338</ele>
        <time>2023-09-17T12:33:27.000Z</time>
      </trkpt>
      <trkpt lat="44.86863" lon="5.27599">
        <ele>1334</ele>
        <time>2023-09-17T12:33:41.000Z</time>
      </trkpt>
      <trkpt lat="44.86858" lon="5.27598">
        <ele>1333</ele>
        <time>2023-09-17T12:33:51.000Z</time>
      </trkpt>
      <trkpt lat="44.86853" lon="5.27593">
        <ele>1331</ele>
        <time>2023-09-17T12:34:15.000Z</time>
      </trkpt>
      <trkpt lat="44.86854" lon="5.27603">
        <ele>1327</ele>
        <time>2023-09-17T12:36:25.000Z</time>
      </trkpt>
      <trkpt lat="44.86858" lon="5.27609">
        <ele>1327</ele>
        <time>2023-09-17T12:36:35.000Z</time>
      </trkpt>
      <trkpt lat="44.86861" lon="5.27616">
        <ele>1320</ele>
        <time>2023-09-17T12:36:44.000Z</time>
      </trkpt>
      <trkpt lat="44.86864" lon="5.27628">
        <ele>1317</ele>
        <time>2023-09-17T12:36:59.000Z</time>
      </trkpt>
      <trkpt lat="44.86868" lon="5.27633">
        <ele>1316</ele>
        <time>2023-09-17T12:37:05.000Z</time>
      </trkpt>
      <trkpt lat="44.86871" lon="5.27639">
        <ele>1315</ele>
        <time>2023-09-17T12:37:12.000Z</time>
      </trkpt>
      <trkpt lat="44.86878" lon="5.27644">
        <ele>1315</ele>
        <time>2023-09-17T12:37:23.000Z</time>
      </trkpt>
      <trkpt lat="44.86883" lon="5.27649">
        <ele>1314</ele>
        <time>2023-09-17T12:37:31.000Z</time>
      </trkpt>
      <trkpt lat="44.86889" lon="5.27655">
        <ele>1313</ele>
        <time>2023-09-17T12:37:43.000Z</time>
      </trkpt>
      <trkpt lat="44.86894" lon="5.27661">
        <ele>1311</ele>
        <time>2023-09-17T12:37:55.000Z</time>
      </trkpt>
      <trkpt lat="44.86901" lon="5.27663">
        <ele>1311</ele>
        <time>2023-09-17T12:38:05.000Z</time>
      </trkpt>
      <trkpt lat="44.86907" lon="5.27666">
        <ele>1311</ele>
        <time>2023-09-17T12:38:15.000Z</time>
      </trkpt>
      <trkpt lat="44.86916" lon="5.27678">
        <ele>1308</ele>
        <time>2023-09-17T12:38:33.000Z</time>
      </trkpt>
      <trkpt lat="44.86921" lon="5.27684">
        <ele>1306</ele>
        <time>2023-09-17T12:38:40.000Z</time>
      </trkpt>
      <trkpt lat="44.86927" lon="5.27686">
        <ele>1303</ele>
        <time>2023-09-17T12:38:49.000Z</time>
      </trkpt>
      <trkpt lat="44.86938" lon="5.27713">
        <ele>1298</ele>
        <time>2023-09-17T12:39:23.000Z</time>
      </trkpt>
      <trkpt lat="44.86945" lon="5.27731">
        <ele>1297</ele>
        <time>2023-09-17T12:39:39.000Z</time>
      </trkpt>
      <trkpt lat="44.86949" lon="5.27737">
        <ele>1296</ele>
        <time>2023-09-17T12:39:45.000Z</time>
      </trkpt>
      <trkpt lat="44.86952" lon="5.27743">
        <ele>1296</ele>
        <time>2023-09-17T12:39:51.000Z</time>
      </trkpt>
      <trkpt lat="44.86957" lon="5.27749">
        <ele>1294</ele>
        <time>2023-09-17T12:39:58.000Z</time>
      </trkpt>
      <trkpt lat="44.86963" lon="5.27763">
        <ele>1292</ele>
        <time>2023-09-17T12:40:12.000Z</time>
      </trkpt>
      <trkpt lat="44.86965" lon="5.27778">
        <ele>1290</ele>
        <time>2023-09-17T12:40:28.000Z</time>
      </trkpt>
      <trkpt lat="44.86965" lon="5.27788">
        <ele>1290</ele>
        <time>2023-09-17T12:40:37.000Z</time>
      </trkpt>
      <trkpt lat="44.86967" lon="5.27804">
        <ele>1287</ele>
        <time>2023-09-17T12:40:54.000Z</time>
      </trkpt>
      <trkpt lat="44.8697" lon="5.27818">
        <ele>1282</ele>
        <time>2023-09-17T12:41:18.000Z</time>
      </trkpt>
      <trkpt lat="44.86967" lon="5.27822">
        <ele>1280</ele>
        <time>2023-09-17T12:41:27.000Z</time>
      </trkpt>
      <trkpt lat="44.86956" lon="5.27815">
        <ele>1278</ele>
        <time>2023-09-17T12:41:43.000Z</time>
      </trkpt>
      <trkpt lat="44.86944" lon="5.27796">
        <ele>1276</ele>
        <time>2023-09-17T12:42:05.000Z</time>
      </trkpt>
      <trkpt lat="44.86938" lon="5.2779">
        <ele>1276</ele>
        <time>2023-09-17T12:42:13.000Z</time>
      </trkpt>
      <trkpt lat="44.86935" lon="5.27783">
        <ele>1275</ele>
        <time>2023-09-17T12:42:19.000Z</time>
      </trkpt>
      <trkpt lat="44.86931" lon="5.27778">
        <ele>1274</ele>
        <time>2023-09-17T12:42:37.000Z</time>
      </trkpt>
      <trkpt lat="44.86926" lon="5.27777">
        <ele>1273</ele>
        <time>2023-09-17T12:42:54.000Z</time>
      </trkpt>
      <trkpt lat="44.8692" lon="5.27776">
        <ele>1269</ele>
        <time>2023-09-17T12:43:06.000Z</time>
      </trkpt>
      <trkpt lat="44.86915" lon="5.27776">
        <ele>1268</ele>
        <time>2023-09-17T12:43:16.000Z</time>
      </trkpt>
      <trkpt lat="44.86909" lon="5.27772">
        <ele>1266</ele>
        <time>2023-09-17T12:43:30.000Z</time>
      </trkpt>
      <trkpt lat="44.86906" lon="5.27766">
        <ele>1264</ele>
        <time>2023-09-17T12:43:43.000Z</time>
      </trkpt>
      <trkpt lat="44.869" lon="5.27762">
        <ele>1261</ele>
        <time>2023-09-17T12:43:57.000Z</time>
      </trkpt>
      <trkpt lat="44.86894" lon="5.27763">
        <ele>1259</ele>
        <time>2023-09-17T12:44:11.000Z</time>
      </trkpt>
      <trkpt lat="44.86887" lon="5.27759">
        <ele>1255</ele>
        <time>2023-09-17T12:44:22.000Z</time>
      </trkpt>
      <trkpt lat="44.86881" lon="5.27757">
        <ele>1254</ele>
        <time>2023-09-17T12:44:31.000Z</time>
      </trkpt>
      <trkpt lat="44.86874" lon="5.27756">
        <ele>1253</ele>
        <time>2023-09-17T12:44:41.000Z</time>
      </trkpt>
      <trkpt lat="44.86868" lon="5.27755">
        <ele>1250</ele>
        <time>2023-09-17T12:44:55.000Z</time>
      </trkpt>
      <trkpt lat="44.86862" lon="5.27755">
        <ele>1248</ele>
        <time>2023-09-17T12:45:04.000Z</time>
      </trkpt>
      <trkpt lat="44.86858" lon="5.27753">
        <ele>1245</ele>
        <time>2023-09-17T12:45:12.000Z</time>
      </trkpt>
      <trkpt lat="44.86853" lon="5.27756">
        <ele>1241</ele>
        <time>2023-09-17T12:45:26.000Z</time>
      </trkpt>
      <trkpt lat="44.86848" lon="5.27756">
        <ele>1236</ele>
        <time>2023-09-17T12:46:00.000Z</time>
      </trkpt>
      <trkpt lat="44.86844" lon="5.2776">
        <ele>1234</ele>
        <time>2023-09-17T12:46:12.000Z</time>
      </trkpt>
      <trkpt lat="44.86846" lon="5.27768">
        <ele>1230</ele>
        <time>2023-09-17T12:46:43.000Z</time>
      </trkpt>
      <trkpt lat="44.8685" lon="5.27774">
        <ele>1230</ele>
        <time>2023-09-17T12:46:56.000Z</time>
      </trkpt>
      <trkpt lat="44.86855" lon="5.27792">
        <ele>1230</ele>
        <time>2023-09-17T12:47:29.000Z</time>
      </trkpt>
      <trkpt lat="44.8686" lon="5.27799">
        <ele>1229</ele>
        <time>2023-09-17T12:47:47.000Z</time>
      </trkpt>
      <trkpt lat="44.86866" lon="5.27802">
        <ele>1224</ele>
        <time>2023-09-17T12:47:58.000Z</time>
      </trkpt>
      <trkpt lat="44.86869" lon="5.27812">
        <ele>1223</ele>
        <time>2023-09-17T12:48:10.000Z</time>
      </trkpt>
      <trkpt lat="44.86873" lon="5.2782">
        <ele>1220</ele>
        <time>2023-09-17T12:48:27.000Z</time>
      </trkpt>
      <trkpt lat="44.86872" lon="5.27831">
        <ele>1221</ele>
        <time>2023-09-17T12:48:43.000Z</time>
      </trkpt>
      <trkpt lat="44.86876" lon="5.27841">
        <ele>1220</ele>
        <time>2023-09-17T12:49:00.000Z</time>
      </trkpt>
      <trkpt lat="44.86878" lon="5.27849">
        <ele>1219</ele>
        <time>2023-09-17T12:49:19.000Z</time>
      </trkpt>
      <trkpt lat="44.86875" lon="5.27857">
        <ele>1213</ele>
        <time>2023-09-17T12:49:32.000Z</time>
      </trkpt>
      <trkpt lat="44.86875" lon="5.27867">
        <ele>1210</ele>
        <time>2023-09-17T12:49:47.000Z</time>
      </trkpt>
      <trkpt lat="44.86878" lon="5.27878">
        <ele>1206</ele>
        <time>2023-09-17T12:50:03.000Z</time>
      </trkpt>
      <trkpt lat="44.8688" lon="5.27888">
        <ele>1203</ele>
        <time>2023-09-17T12:50:14.000Z</time>
      </trkpt>
      <trkpt lat="44.86881" lon="5.27897">
        <ele>1196</ele>
        <time>2023-09-17T12:50:32.000Z</time>
      </trkpt>
      <trkpt lat="44.86876" lon="5.27896">
        <ele>1192</ele>
        <time>2023-09-17T12:51:11.000Z</time>
      </trkpt>
      <trkpt lat="44.86871" lon="5.27896">
        <ele>1190</ele>
        <time>2023-09-17T12:51:17.000Z</time>
      </trkpt>
      <trkpt lat="44.86861" lon="5.27891">
        <ele>1189</ele>
        <time>2023-09-17T12:51:33.000Z</time>
      </trkpt>
      <trkpt lat="44.86855" lon="5.27887">
        <ele>1188</ele>
        <time>2023-09-17T12:51:42.000Z</time>
      </trkpt>
      <trkpt lat="44.86851" lon="5.27879">
        <ele>1186</ele>
        <time>2023-09-17T12:51:52.000Z</time>
      </trkpt>
      <trkpt lat="44.86847" lon="5.27872">
        <ele>1186</ele>
        <time>2023-09-17T12:52:03.000Z</time>
      </trkpt>
      <trkpt lat="44.86841" lon="5.27868">
        <ele>1183</ele>
        <time>2023-09-17T12:52:14.000Z</time>
      </trkpt>
      <trkpt lat="44.86835" lon="5.27863">
        <ele>1182</ele>
        <time>2023-09-17T12:52:23.000Z</time>
      </trkpt>
      <trkpt lat="44.86829" lon="5.27864">
        <ele>1182</ele>
        <time>2023-09-17T12:52:30.000Z</time>
      </trkpt>
      <trkpt lat="44.86823" lon="5.27862">
        <ele>1181</ele>
        <time>2023-09-17T12:52:37.000Z</time>
      </trkpt>
      <trkpt lat="44.86817" lon="5.27859">
        <ele>1180</ele>
        <time>2023-09-17T12:52:45.000Z</time>
      </trkpt>
      <trkpt lat="44.86801" lon="5.27855">
        <ele>1182</ele>
        <time>2023-09-17T12:53:04.000Z</time>
      </trkpt>
      <trkpt lat="44.86795" lon="5.27857">
        <ele>1180</ele>
        <time>2023-09-17T12:53:12.000Z</time>
      </trkpt>
      <trkpt lat="44.86788" lon="5.27857">
        <ele>1178</ele>
        <time>2023-09-17T12:53:22.000Z</time>
      </trkpt>
      <trkpt lat="44.86781" lon="5.27851">
        <ele>1178</ele>
        <time>2023-09-17T12:53:31.000Z</time>
      </trkpt>
      <trkpt lat="44.86764" lon="5.27853">
        <ele>1177</ele>
        <time>2023-09-17T12:54:06.000Z</time>
      </trkpt>
      <trkpt lat="44.86756" lon="5.27853">
        <ele>1175</ele>
        <time>2023-09-17T12:54:15.000Z</time>
      </trkpt>
      <trkpt lat="44.86749" lon="5.27851">
        <ele>1173</ele>
        <time>2023-09-17T12:54:24.000Z</time>
      </trkpt>
      <trkpt lat="44.86743" lon="5.27845">
        <ele>1170</ele>
        <time>2023-09-17T12:54:36.000Z</time>
      </trkpt>
      <trkpt lat="44.86733" lon="5.27841">
        <ele>1165</ele>
        <time>2023-09-17T12:54:48.000Z</time>
      </trkpt>
      <trkpt lat="44.86726" lon="5.27843">
        <ele>1164</ele>
        <time>2023-09-17T12:55:01.000Z</time>
      </trkpt>
      <trkpt lat="44.86719" lon="5.27838">
        <ele>1162</ele>
        <time>2023-09-17T12:55:11.000Z</time>
      </trkpt>
      <trkpt lat="44.86713" lon="5.27833">
        <ele>1162</ele>
        <time>2023-09-17T12:55:18.000Z</time>
      </trkpt>
      <trkpt lat="44.86711" lon="5.27839">
        <ele>1157</ele>
        <time>2023-09-17T12:56:00.000Z</time>
      </trkpt>
      <trkpt lat="44.86717" lon="5.27848">
        <ele>1155</ele>
        <time>2023-09-17T12:56:14.000Z</time>
      </trkpt>
      <trkpt lat="44.86719" lon="5.27859">
        <ele>1147</ele>
        <time>2023-09-17T12:56:26.000Z</time>
      </trkpt>
      <trkpt lat="44.86712" lon="5.27863">
        <ele>1145</ele>
        <time>2023-09-17T12:56:36.000Z</time>
      </trkpt>
      <trkpt lat="44.86705" lon="5.27863">
        <ele>1143</ele>
        <time>2023-09-17T12:56:46.000Z</time>
      </trkpt>
      <trkpt lat="44.86698" lon="5.27867">
        <ele>1142</ele>
        <time>2023-09-17T12:57:08.000Z</time>
      </trkpt>
      <trkpt lat="44.86691" lon="5.27867">
        <ele>1139</ele>
        <time>2023-09-17T12:57:26.000Z</time>
      </trkpt>
      <trkpt lat="44.86683" lon="5.27866">
        <ele>1135</ele>
        <time>2023-09-17T12:57:37.000Z</time>
      </trkpt>
      <trkpt lat="44.86676" lon="5.27866">
        <ele>1132</ele>
        <time>2023-09-17T12:57:47.000Z</time>
      </trkpt>
      <trkpt lat="44.86672" lon="5.27858">
        <ele>1131</ele>
        <time>2023-09-17T12:57:55.000Z</time>
      </trkpt>
      <trkpt lat="44.86666" lon="5.27856">
        <ele>1129</ele>
        <time>2023-09-17T12:58:10.000Z</time>
      </trkpt>
      <trkpt lat="44.86659" lon="5.27855">
        <ele>1128</ele>
        <time>2023-09-17T12:58:24.000Z</time>
      </trkpt>
      <trkpt lat="44.86653" lon="5.27849">
        <ele>1126</ele>
        <time>2023-09-17T12:58:36.000Z</time>
      </trkpt>
      <trkpt lat="44.86646" lon="5.27851">
        <ele>1121</ele>
        <time>2023-09-17T12:59:06.000Z</time>
      </trkpt>
      <trkpt lat="44.86642" lon="5.27844">
        <ele>1119</ele>
        <time>2023-09-17T12:59:13.000Z</time>
      </trkpt>
      <trkpt lat="44.86637" lon="5.27841">
        <ele>1116</ele>
        <time>2023-09-17T12:59:21.000Z</time>
      </trkpt>
      <trkpt lat="44.86631" lon="5.27843">
        <ele>1114</ele>
        <time>2023-09-17T12:59:34.000Z</time>
      </trkpt>
      <trkpt lat="44.86624" lon="5.27842">
        <ele>1109</ele>
        <time>2023-09-17T12:59:46.000Z</time>
      </trkpt>
      <trkpt lat="44.86617" lon="5.27839">
        <ele>1108</ele>
        <time>2023-09-17T12:59:56.000Z</time>
      </trkpt>
      <trkpt lat="44.86612" lon="5.27835">
        <ele>1104</ele>
        <time>2023-09-17T13:00:07.000Z</time>
      </trkpt>
      <trkpt lat="44.86607" lon="5.27829">
        <ele>1103</ele>
        <time>2023-09-17T13:00:15.000Z</time>
      </trkpt>
      <trkpt lat="44.86597" lon="5.27821">
        <ele>1102</ele>
        <time>2023-09-17T13:00:30.000Z</time>
      </trkpt>
      <trkpt lat="44.86594" lon="5.27812">
        <ele>1100</ele>
        <time>2023-09-17T13:00:38.000Z</time>
      </trkpt>
      <trkpt lat="44.86587" lon="5.27805">
        <ele>1095</ele>
        <time>2023-09-17T13:00:54.000Z</time>
      </trkpt>
      <trkpt lat="44.86579" lon="5.27802">
        <ele>1092</ele>
        <time>2023-09-17T13:01:17.000Z</time>
      </trkpt>
      <trkpt lat="44.86572" lon="5.27804">
        <ele>1088</ele>
        <time>2023-09-17T13:01:28.000Z</time>
      </trkpt>
      <trkpt lat="44.86564" lon="5.27807">
        <ele>1086</ele>
        <time>2023-09-17T13:01:36.000Z</time>
      </trkpt>
      <trkpt lat="44.86556" lon="5.27806">
        <ele>1085</ele>
        <time>2023-09-17T13:01:45.000Z</time>
      </trkpt>
      <trkpt lat="44.86541" lon="5.27804">
        <ele>1087</ele>
        <time>2023-09-17T13:02:04.000Z</time>
      </trkpt>
      <trkpt lat="44.86528" lon="5.278">
        <ele>1085</ele>
        <time>2023-09-17T13:02:19.000Z</time>
      </trkpt>
      <trkpt lat="44.86524" lon="5.27792">
        <ele>1084</ele>
        <time>2023-09-17T13:02:25.000Z</time>
      </trkpt>
      <trkpt lat="44.86517" lon="5.27789">
        <ele>1082</ele>
        <time>2023-09-17T13:02:37.000Z</time>
      </trkpt>
      <trkpt lat="44.86511" lon="5.27784">
        <ele>1081</ele>
        <time>2023-09-17T13:02:46.000Z</time>
      </trkpt>
      <trkpt lat="44.86498" lon="5.2777">
        <ele>1081</ele>
        <time>2023-09-17T13:03:03.000Z</time>
      </trkpt>
      <trkpt lat="44.86494" lon="5.27763">
        <ele>1078</ele>
        <time>2023-09-17T13:03:09.000Z</time>
      </trkpt>
      <trkpt lat="44.86492" lon="5.27753">
        <ele>1077</ele>
        <time>2023-09-17T13:03:20.000Z</time>
      </trkpt>
      <trkpt lat="44.86485" lon="5.27759">
        <ele>1076</ele>
        <time>2023-09-17T13:03:34.000Z</time>
      </trkpt>
      <trkpt lat="44.86481" lon="5.27768">
        <ele>1075</ele>
        <time>2023-09-17T13:03:46.000Z</time>
      </trkpt>
      <trkpt lat="44.86473" lon="5.27772">
        <ele>1071</ele>
        <time>2023-09-17T13:04:01.000Z</time>
      </trkpt>
      <trkpt lat="44.86467" lon="5.27776">
        <ele>1070</ele>
        <time>2023-09-17T13:04:11.000Z</time>
      </trkpt>
      <trkpt lat="44.8646" lon="5.27782">
        <ele>1068</ele>
        <time>2023-09-17T13:04:19.000Z</time>
      </trkpt>
      <trkpt lat="44.86454" lon="5.27785">
        <ele>1064</ele>
        <time>2023-09-17T13:04:29.000Z</time>
      </trkpt>
      <trkpt lat="44.86441" lon="5.27795">
        <ele>1061</ele>
        <time>2023-09-17T13:04:54.000Z</time>
      </trkpt>
      <trkpt lat="44.86432" lon="5.27797">
        <ele>1060</ele>
        <time>2023-09-17T13:05:07.000Z</time>
      </trkpt>
      <trkpt lat="44.86424" lon="5.27797">
        <ele>1058</ele>
        <time>2023-09-17T13:05:14.000Z</time>
      </trkpt>
      <trkpt lat="44.86416" lon="5.27801">
        <ele>1057</ele>
        <time>2023-09-17T13:05:25.000Z</time>
      </trkpt>
      <trkpt lat="44.86388" lon="5.27797">
        <ele>1047</ele>
        <time>2023-09-17T13:06:03.000Z</time>
      </trkpt>
      <trkpt lat="44.86379" lon="5.27794">
        <ele>1045</ele>
        <time>2023-09-17T13:06:14.000Z</time>
      </trkpt>
      <trkpt lat="44.86373" lon="5.27789">
        <ele>1041</ele>
        <time>2023-09-17T13:06:24.000Z</time>
      </trkpt>
      <trkpt lat="44.86366" lon="5.27788">
        <ele>1040</ele>
        <time>2023-09-17T13:06:40.000Z</time>
      </trkpt>
      <trkpt lat="44.86358" lon="5.27793">
        <ele>1041</ele>
        <time>2023-09-17T13:06:54.000Z</time>
      </trkpt>
      <trkpt lat="44.86352" lon="5.27797">
        <ele>1041</ele>
        <time>2023-09-17T13:07:31.000Z</time>
      </trkpt>
      <trkpt lat="44.86341" lon="5.27802">
        <ele>1040</ele>
        <time>2023-09-17T13:08:09.000Z</time>
      </trkpt>
      <trkpt lat="44.86335" lon="5.27804">
        <ele>1039</ele>
        <time>2023-09-17T13:08:17.000Z</time>
      </trkpt>
      <trkpt lat="44.86328" lon="5.27804">
        <ele>1039</ele>
        <time>2023-09-17T13:08:27.000Z</time>
      </trkpt>
      <trkpt lat="44.86322" lon="5.27803">
        <ele>1036</ele>
        <time>2023-09-17T13:08:36.000Z</time>
      </trkpt>
      <trkpt lat="44.86314" lon="5.27804">
        <ele>1036</ele>
        <time>2023-09-17T13:08:44.000Z</time>
      </trkpt>
      <trkpt lat="44.86307" lon="5.27806">
        <ele>1033</ele>
        <time>2023-09-17T13:08:53.000Z</time>
      </trkpt>
      <trkpt lat="44.863" lon="5.27807">
        <ele>1032</ele>
        <time>2023-09-17T13:09:03.000Z</time>
      </trkpt>
      <trkpt lat="44.86292" lon="5.27804">
        <ele>1031</ele>
        <time>2023-09-17T13:09:12.000Z</time>
      </trkpt>
      <trkpt lat="44.86283" lon="5.27809">
        <ele>1030</ele>
        <time>2023-09-17T13:09:36.000Z</time>
      </trkpt>
      <trkpt lat="44.86279" lon="5.27822">
        <ele>1024</ele>
        <time>2023-09-17T13:10:02.000Z</time>
      </trkpt>
      <trkpt lat="44.86272" lon="5.27827">
        <ele>1022</ele>
        <time>2023-09-17T13:10:11.000Z</time>
      </trkpt>
      <trkpt lat="44.86267" lon="5.27836">
        <ele>1021</ele>
        <time>2023-09-17T13:10:25.000Z</time>
      </trkpt>
      <trkpt lat="44.8627" lon="5.27846">
        <ele>1019</ele>
        <time>2023-09-17T13:10:36.000Z</time>
      </trkpt>
      <trkpt lat="44.86273" lon="5.27855">
        <ele>1015</ele>
        <time>2023-09-17T13:10:46.000Z</time>
      </trkpt>
      <trkpt lat="44.86253" lon="5.27873">
        <ele>1013</ele>
        <time>2023-09-17T13:11:05.000Z</time>
      </trkpt>
      <trkpt lat="44.86249" lon="5.27876">
        <ele>1013</ele>
        <time>2023-09-17T13:11:11.000Z</time>
      </trkpt>
      <trkpt lat="44.86246" lon="5.27883">
        <ele>1015</ele>
        <time>2023-09-17T13:11:27.000Z</time>
      </trkpt>
      <trkpt lat="44.86245" lon="5.27891">
        <ele>1014</ele>
        <time>2023-09-17T13:11:34.000Z</time>
      </trkpt>
      <trkpt lat="44.86243" lon="5.27897">
        <ele>1012</ele>
        <time>2023-09-17T13:11:47.000Z</time>
      </trkpt>
      <trkpt lat="44.86238" lon="5.2791">
        <ele>1011</ele>
        <time>2023-09-17T13:11:59.000Z</time>
      </trkpt>
      <trkpt lat="44.86234" lon="5.27917">
        <ele>1010</ele>
        <time>2023-09-17T13:12:07.000Z</time>
      </trkpt>
      <trkpt lat="44.86231" lon="5.27924">
        <ele>1011</ele>
        <time>2023-09-17T13:12:15.000Z</time>
      </trkpt>
      <trkpt lat="44.86225" lon="5.27931">
        <ele>1010</ele>
        <time>2023-09-17T13:12:22.000Z</time>
      </trkpt>
      <trkpt lat="44.86221" lon="5.27935">
        <ele>1009</ele>
        <time>2023-09-17T13:12:27.000Z</time>
      </trkpt>
      <trkpt lat="44.86204" lon="5.27947">
        <ele>1002</ele>
        <time>2023-09-17T13:12:57.000Z</time>
      </trkpt>
      <trkpt lat="44.86199" lon="5.27951">
        <ele>1002</ele>
        <time>2023-09-17T13:13:04.000Z</time>
      </trkpt>
      <trkpt lat="44.8619" lon="5.27962">
        <ele>999</ele>
        <time>2023-09-17T13:13:17.000Z</time>
      </trkpt>
      <trkpt lat="44.86186" lon="5.27969">
        <ele>996</ele>
        <time>2023-09-17T13:13:24.000Z</time>
      </trkpt>
      <trkpt lat="44.86171" lon="5.27988">
        <ele>992</ele>
        <time>2023-09-17T13:13:46.000Z</time>
      </trkpt>
      <trkpt lat="44.86169" lon="5.27998">
        <ele>990</ele>
        <time>2023-09-17T13:13:57.000Z</time>
      </trkpt>
      <trkpt lat="44.86153" lon="5.28017">
        <ele>987</ele>
        <time>2023-09-17T13:14:20.000Z</time>
      </trkpt>
      <trkpt lat="44.86148" lon="5.28024">
        <ele>985</ele>
        <time>2023-09-17T13:14:28.000Z</time>
      </trkpt>
      <trkpt lat="44.86144" lon="5.28031">
        <ele>983</ele>
        <time>2023-09-17T13:14:35.000Z</time>
      </trkpt>
      <trkpt lat="44.86138" lon="5.28035">
        <ele>982</ele>
        <time>2023-09-17T13:14:41.000Z</time>
      </trkpt>
      <trkpt lat="44.86129" lon="5.28044">
        <ele>980</ele>
        <time>2023-09-17T13:14:53.000Z</time>
      </trkpt>
      <trkpt lat="44.86124" lon="5.28049">
        <ele>980</ele>
        <time>2023-09-17T13:14:59.000Z</time>
      </trkpt>
      <trkpt lat="44.86119" lon="5.2805">
        <ele>978</ele>
        <time>2023-09-17T13:15:04.000Z</time>
      </trkpt>
      <trkpt lat="44.86113" lon="5.28049">
        <ele>977</ele>
        <time>2023-09-17T13:15:12.000Z</time>
      </trkpt>
      <trkpt lat="44.86109" lon="5.28054">
        <ele>976</ele>
        <time>2023-09-17T13:15:21.000Z</time>
      </trkpt>
      <trkpt lat="44.86103" lon="5.28055">
        <ele>976</ele>
        <time>2023-09-17T13:15:28.000Z</time>
      </trkpt>
      <trkpt lat="44.86098" lon="5.28056">
        <ele>975</ele>
        <time>2023-09-17T13:15:37.000Z</time>
      </trkpt>
      <trkpt lat="44.86085" lon="5.28053">
        <ele>973</ele>
        <time>2023-09-17T13:15:52.000Z</time>
      </trkpt>
      <trkpt lat="44.8608" lon="5.28051">
        <ele>972</ele>
        <time>2023-09-17T13:16:00.000Z</time>
      </trkpt>
      <trkpt lat="44.86084" lon="5.28061">
        <ele>970</ele>
        <time>2023-09-17T13:16:19.000Z</time>
      </trkpt>
      <trkpt lat="44.8609" lon="5.28068">
        <ele>969</ele>
        <time>2023-09-17T13:16:32.000Z</time>
      </trkpt>
      <trkpt lat="44.86095" lon="5.28074">
        <ele>964</ele>
        <time>2023-09-17T13:16:46.000Z</time>
      </trkpt>
      <trkpt lat="44.86089" lon="5.28078">
        <ele>961</ele>
        <time>2023-09-17T13:16:54.000Z</time>
      </trkpt>
      <trkpt lat="44.86078" lon="5.28076">
        <ele>957</ele>
        <time>2023-09-17T13:17:14.000Z</time>
      </trkpt>
      <trkpt lat="44.86071" lon="5.28077">
        <ele>956</ele>
        <time>2023-09-17T13:17:28.000Z</time>
      </trkpt>
      <trkpt lat="44.86056" lon="5.28078">
        <ele>954</ele>
        <time>2023-09-17T13:17:46.000Z</time>
      </trkpt>
      <trkpt lat="44.8605" lon="5.28074">
        <ele>953</ele>
        <time>2023-09-17T13:17:54.000Z</time>
      </trkpt>
      <trkpt lat="44.86044" lon="5.28072">
        <ele>950</ele>
        <time>2023-09-17T13:18:01.000Z</time>
      </trkpt>
      <trkpt lat="44.86039" lon="5.28068">
        <ele>950</ele>
        <time>2023-09-17T13:18:12.000Z</time>
      </trkpt>
      <trkpt lat="44.86035" lon="5.28075">
        <ele>948</ele>
        <time>2023-09-17T13:18:34.000Z</time>
      </trkpt>
      <trkpt lat="44.86034" lon="5.28084">
        <ele>948</ele>
        <time>2023-09-17T13:18:46.000Z</time>
      </trkpt>
      <trkpt lat="44.86033" lon="5.28096">
        <ele>949</ele>
        <time>2023-09-17T13:19:00.000Z</time>
      </trkpt>
      <trkpt lat="44.86032" lon="5.28105">
        <ele>948</ele>
        <time>2023-09-17T13:19:11.000Z</time>
      </trkpt>
      <trkpt lat="44.8603" lon="5.28115">
        <ele>945</ele>
        <time>2023-09-17T13:19:23.000Z</time>
      </trkpt>
      <trkpt lat="44.86031" lon="5.28124">
        <ele>942</ele>
        <time>2023-09-17T13:19:30.000Z</time>
      </trkpt>
      <trkpt lat="44.86031" lon="5.28133">
        <ele>937</ele>
        <time>2023-09-17T13:19:39.000Z</time>
      </trkpt>
      <trkpt lat="44.8603" lon="5.28142">
        <ele>935</ele>
        <time>2023-09-17T13:19:48.000Z</time>
      </trkpt>
      <trkpt lat="44.86032" lon="5.28152">
        <ele>931</ele>
        <time>2023-09-17T13:19:58.000Z</time>
      </trkpt>
      <trkpt lat="44.86028" lon="5.2816">
        <ele>930</ele>
        <time>2023-09-17T13:20:09.000Z</time>
      </trkpt>
      <trkpt lat="44.8603" lon="5.28168">
        <ele>929</ele>
        <time>2023-09-17T13:20:18.000Z</time>
      </trkpt>
      <trkpt lat="44.86028" lon="5.28176">
        <ele>928</ele>
        <time>2023-09-17T13:20:23.000Z</time>
      </trkpt>
      <trkpt lat="44.8603" lon="5.28191">
        <ele>924</ele>
        <time>2023-09-17T13:20:38.000Z</time>
      </trkpt>
      <trkpt lat="44.86033" lon="5.28197">
        <ele>918</ele>
        <time>2023-09-17T13:20:50.000Z</time>
      </trkpt>
      <trkpt lat="44.86038" lon="5.28203">
        <ele>918</ele>
        <time>2023-09-17T13:21:01.000Z</time>
      </trkpt>
      <trkpt lat="44.86049" lon="5.28214">
        <ele>918</ele>
        <time>2023-09-17T13:21:19.000Z</time>
      </trkpt>
      <trkpt lat="44.86053" lon="5.2822">
        <ele>915</ele>
        <time>2023-09-17T13:21:26.000Z</time>
      </trkpt>
      <trkpt lat="44.86051" lon="5.28228">
        <ele>915</ele>
        <time>2023-09-17T13:21:31.000Z</time>
      </trkpt>
      <trkpt lat="44.86046" lon="5.2823">
        <ele>914</ele>
        <time>2023-09-17T13:21:36.000Z</time>
      </trkpt>
      <trkpt lat="44.86033" lon="5.28227">
        <ele>911</ele>
        <time>2023-09-17T13:21:49.000Z</time>
      </trkpt>
      <trkpt lat="44.86027" lon="5.28225">
        <ele>910</ele>
        <time>2023-09-17T13:21:55.000Z</time>
      </trkpt>
      <trkpt lat="44.8602" lon="5.28224">
        <ele>909</ele>
        <time>2023-09-17T13:22:02.000Z</time>
      </trkpt>
      <trkpt lat="44.86013" lon="5.28226">
        <ele>909</ele>
        <time>2023-09-17T13:22:11.000Z</time>
      </trkpt>
      <trkpt lat="44.86006" lon="5.28228">
        <ele>907</ele>
        <time>2023-09-17T13:22:21.000Z</time>
      </trkpt>
      <trkpt lat="44.86002" lon="5.28235">
        <ele>907</ele>
        <time>2023-09-17T13:22:29.000Z</time>
      </trkpt>
      <trkpt lat="44.86003" lon="5.28245">
        <ele>907</ele>
        <time>2023-09-17T13:22:35.000Z</time>
      </trkpt>
      <trkpt lat="44.86" lon="5.28254">
        <ele>906</ele>
        <time>2023-09-17T13:22:42.000Z</time>
      </trkpt>
      <trkpt lat="44.85997" lon="5.28262">
        <ele>906</ele>
        <time>2023-09-17T13:22:49.000Z</time>
      </trkpt>
      <trkpt lat="44.8599" lon="5.28277">
        <ele>908</ele>
        <time>2023-09-17T13:23:00.000Z</time>
      </trkpt>
      <trkpt lat="44.85983" lon="5.28292">
        <ele>909</ele>
        <time>2023-09-17T13:23:13.000Z</time>
      </trkpt>
      <trkpt lat="44.85961" lon="5.28322">
        <ele>909</ele>
        <time>2023-09-17T13:23:41.000Z</time>
      </trkpt>
      <trkpt lat="44.85954" lon="5.28349">
        <ele>909</ele>
        <time>2023-09-17T13:24:01.000Z</time>
      </trkpt>
      <trkpt lat="44.85948" lon="5.28359">
        <ele>910</ele>
        <time>2023-09-17T13:24:11.000Z</time>
      </trkpt>
      <trkpt lat="44.85946" lon="5.28368">
        <ele>910</ele>
        <time>2023-09-17T13:24:17.000Z</time>
      </trkpt>
      <trkpt lat="44.85942" lon="5.28375">
        <ele>910</ele>
        <time>2023-09-17T13:24:23.000Z</time>
      </trkpt>
      <trkpt lat="44.85934" lon="5.28402">
        <ele>910</ele>
        <time>2023-09-17T13:24:43.000Z</time>
      </trkpt>
      <trkpt lat="44.85926" lon="5.28419">
        <ele>909</ele>
        <time>2023-09-17T13:24:59.000Z</time>
      </trkpt>
      <trkpt lat="44.85915" lon="5.28448">
        <ele>906</ele>
        <time>2023-09-17T13:25:19.000Z</time>
      </trkpt>
      <trkpt lat="44.85912" lon="5.28459">
        <ele>904</ele>
        <time>2023-09-17T13:25:29.000Z</time>
      </trkpt>
      <trkpt lat="44.8591" lon="5.28473">
        <ele>901</ele>
        <time>2023-09-17T13:25:39.000Z</time>
      </trkpt>
      <trkpt lat="44.8591" lon="5.28482">
        <ele>900</ele>
        <time>2023-09-17T13:25:48.000Z</time>
      </trkpt>
      <trkpt lat="44.85906" lon="5.28489">
        <ele>898</ele>
        <time>2023-09-17T13:25:56.000Z</time>
      </trkpt>
      <trkpt lat="44.85907" lon="5.28499">
        <ele>897</ele>
        <time>2023-09-17T13:26:05.000Z</time>
      </trkpt>
      <trkpt lat="44.85904" lon="5.28506">
        <ele>895</ele>
        <time>2023-09-17T13:26:15.000Z</time>
      </trkpt>
      <trkpt lat="44.85895" lon="5.28506">
        <ele>894</ele>
        <time>2023-09-17T13:26:22.000Z</time>
      </trkpt>
      <trkpt lat="44.85887" lon="5.28501">
        <ele>892</ele>
        <time>2023-09-17T13:26:31.000Z</time>
      </trkpt>
      <trkpt lat="44.85881" lon="5.28497">
        <ele>890</ele>
        <time>2023-09-17T13:26:36.000Z</time>
      </trkpt>
      <trkpt lat="44.85876" lon="5.2849">
        <ele>889</ele>
        <time>2023-09-17T13:26:42.000Z</time>
      </trkpt>
      <trkpt lat="44.85871" lon="5.28485">
        <ele>889</ele>
        <time>2023-09-17T13:26:50.000Z</time>
      </trkpt>
      <trkpt lat="44.85849" lon="5.28454">
        <ele>884</ele>
        <time>2023-09-17T13:27:25.000Z</time>
      </trkpt>
      <trkpt lat="44.85844" lon="5.28448">
        <ele>883</ele>
        <time>2023-09-17T13:27:34.000Z</time>
      </trkpt>
      <trkpt lat="44.8583" lon="5.28441">
        <ele>881</ele>
        <time>2023-09-17T13:27:51.000Z</time>
      </trkpt>
      <trkpt lat="44.85823" lon="5.28442">
        <ele>880</ele>
        <time>2023-09-17T13:27:59.000Z</time>
      </trkpt>
      <trkpt lat="44.85817" lon="5.28447">
        <ele>879</ele>
        <time>2023-09-17T13:28:09.000Z</time>
      </trkpt>
      <trkpt lat="44.85811" lon="5.28461">
        <ele>880</ele>
        <time>2023-09-17T13:28:25.000Z</time>
      </trkpt>
      <trkpt lat="44.85798" lon="5.28474">
        <ele>877</ele>
        <time>2023-09-17T13:28:44.000Z</time>
      </trkpt>
      <trkpt lat="44.8579" lon="5.28487">
        <ele>875</ele>
        <time>2023-09-17T13:28:56.000Z</time>
      </trkpt>
      <trkpt lat="44.85786" lon="5.28494">
        <ele>874</ele>
        <time>2023-09-17T13:29:02.000Z</time>
      </trkpt>
      <trkpt lat="44.85782" lon="5.28497">
        <ele>873</ele>
        <time>2023-09-17T13:29:09.000Z</time>
      </trkpt>
      <trkpt lat="44.85777" lon="5.28501">
        <ele>873</ele>
        <time>2023-09-17T13:29:14.000Z</time>
      </trkpt>
      <trkpt lat="44.85772" lon="5.28508">
        <ele>873</ele>
        <time>2023-09-17T13:29:22.000Z</time>
      </trkpt>
      <trkpt lat="44.85768" lon="5.28515">
        <ele>872</ele>
        <time>2023-09-17T13:29:28.000Z</time>
      </trkpt>
      <trkpt lat="44.85764" lon="5.28521">
        <ele>872</ele>
        <time>2023-09-17T13:29:35.000Z</time>
      </trkpt>
      <trkpt lat="44.85759" lon="5.28527">
        <ele>871</ele>
        <time>2023-09-17T13:29:43.000Z</time>
      </trkpt>
      <trkpt lat="44.85753" lon="5.28534">
        <ele>870</ele>
        <time>2023-09-17T13:29:51.000Z</time>
      </trkpt>
      <trkpt lat="44.85749" lon="5.28541">
        <ele>868</ele>
        <time>2023-09-17T13:29:57.000Z</time>
      </trkpt>
      <trkpt lat="44.85743" lon="5.28545">
        <ele>865</ele>
        <time>2023-09-17T13:30:04.000Z</time>
      </trkpt>
      <trkpt lat="44.85739" lon="5.28552">
        <ele>865</ele>
        <time>2023-09-17T13:30:11.000Z</time>
      </trkpt>
      <trkpt lat="44.85734" lon="5.28558">
        <ele>863</ele>
        <time>2023-09-17T13:30:19.000Z</time>
      </trkpt>
      <trkpt lat="44.85723" lon="5.28572">
        <ele>860</ele>
        <time>2023-09-17T13:30:32.000Z</time>
      </trkpt>
      <trkpt lat="44.85718" lon="5.28577">
        <ele>860</ele>
        <time>2023-09-17T13:30:38.000Z</time>
      </trkpt>
      <trkpt lat="44.85713" lon="5.28585">
        <ele>857</ele>
        <time>2023-09-17T13:30:50.000Z</time>
      </trkpt>
      <trkpt lat="44.85702" lon="5.28595">
        <ele>856</ele>
        <time>2023-09-17T13:31:04.000Z</time>
      </trkpt>
      <trkpt lat="44.85688" lon="5.28612">
        <ele>852</ele>
        <time>2023-09-17T13:31:24.000Z</time>
      </trkpt>
      <trkpt lat="44.85683" lon="5.28617">
        <ele>852</ele>
        <time>2023-09-17T13:31:33.000Z</time>
      </trkpt>
      <trkpt lat="44.85669" lon="5.28643">
        <ele>850</ele>
        <time>2023-09-17T13:32:03.000Z</time>
      </trkpt>
      <trkpt lat="44.85663" lon="5.28649">
        <ele>848</ele>
        <time>2023-09-17T13:32:11.000Z</time>
      </trkpt>
      <trkpt lat="44.85659" lon="5.28655">
        <ele>846</ele>
        <time>2023-09-17T13:32:19.000Z</time>
      </trkpt>
      <trkpt lat="44.85656" lon="5.2866">
        <ele>844</ele>
        <time>2023-09-17T13:32:25.000Z</time>
      </trkpt>
      <trkpt lat="44.85652" lon="5.28666">
        <ele>842</ele>
        <time>2023-09-17T13:32:30.000Z</time>
      </trkpt>
      <trkpt lat="44.85645" lon="5.28674">
        <ele>839</ele>
        <time>2023-09-17T13:32:40.000Z</time>
      </trkpt>
      <trkpt lat="44.85641" lon="5.28678">
        <ele>837</ele>
        <time>2023-09-17T13:32:46.000Z</time>
      </trkpt>
      <trkpt lat="44.85638" lon="5.28679">
        <ele>827</ele>
        <time>2023-09-17T13:38:39.000Z</time>
      </trkpt>
      <trkpt lat="44.85636" lon="5.28687">
        <ele>825</ele>
        <time>2023-09-17T13:47:53.000Z</time>
      </trkpt>
      <trkpt lat="44.85636" lon="5.28695">
        <ele>819</ele>
        <time>2023-09-17T13:47:59.000Z</time>
      </trkpt>
      <trkpt lat="44.85641" lon="5.28694">
        <ele>817</ele>
        <time>2023-09-17T13:48:08.000Z</time>
      </trkpt>
      <trkpt lat="44.85646" lon="5.28689">
        <ele>816</ele>
        <time>2023-09-17T13:48:14.000Z</time>
      </trkpt>
      <trkpt lat="44.85652" lon="5.28686">
        <ele>814</ele>
        <time>2023-09-17T13:48:19.000Z</time>
      </trkpt>
      <trkpt lat="44.85658" lon="5.28682">
        <ele>814</ele>
        <time>2023-09-17T13:48:25.000Z</time>
      </trkpt>
      <trkpt lat="44.85664" lon="5.2868">
        <ele>813</ele>
        <time>2023-09-17T13:48:31.000Z</time>
      </trkpt>
      <trkpt lat="44.85698" lon="5.28653">
        <ele>813</ele>
        <time>2023-09-17T13:49:05.000Z</time>
      </trkpt>
      <trkpt lat="44.85716" lon="5.28631">
        <ele>812</ele>
        <time>2023-09-17T13:49:26.000Z</time>
      </trkpt>
      <trkpt lat="44.85724" lon="5.28626">
        <ele>815</ele>
        <time>2023-09-17T13:49:35.000Z</time>
      </trkpt>
      <trkpt lat="44.85729" lon="5.28617">
        <ele>816</ele>
        <time>2023-09-17T13:49:43.000Z</time>
      </trkpt>
      <trkpt lat="44.85759" lon="5.28594">
        <ele>815</ele>
        <time>2023-09-17T13:50:13.000Z</time>
      </trkpt>
      <trkpt lat="44.85766" lon="5.28588">
        <ele>815</ele>
        <time>2023-09-17T13:50:20.000Z</time>
      </trkpt>
      <trkpt lat="44.85773" lon="5.28581">
        <ele>815</ele>
        <time>2023-09-17T13:50:28.000Z</time>
      </trkpt>
      <trkpt lat="44.85782" lon="5.28574">
        <ele>815</ele>
        <time>2023-09-17T13:50:38.000Z</time>
      </trkpt>
      <trkpt lat="44.85793" lon="5.2857">
        <ele>816</ele>
        <time>2023-09-17T13:50:48.000Z</time>
      </trkpt>
      <trkpt lat="44.85806" lon="5.28585">
        <ele>819</ele>
        <time>2023-09-17T13:51:05.000Z</time>
      </trkpt>
      <trkpt lat="44.85816" lon="5.28603">
        <ele>818</ele>
        <time>2023-09-17T13:51:21.000Z</time>
      </trkpt>
      <trkpt lat="44.85828" lon="5.28622">
        <ele>817</ele>
        <time>2023-09-17T13:51:35.000Z</time>
      </trkpt>
      <trkpt lat="44.85834" lon="5.28632">
        <ele>814</ele>
        <time>2023-09-17T13:51:56.000Z</time>
      </trkpt>
      <trkpt lat="44.8586" lon="5.28667">
        <ele>815</ele>
        <time>2023-09-17T13:52:26.000Z</time>
      </trkpt>
      <trkpt lat="44.85867" lon="5.28675">
        <ele>815</ele>
        <time>2023-09-17T13:52:34.000Z</time>
      </trkpt>
      <trkpt lat="44.85872" lon="5.28693">
        <ele>813</ele>
        <time>2023-09-17T13:52:47.000Z</time>
      </trkpt>
      <trkpt lat="44.85877" lon="5.287">
        <ele>813</ele>
        <time>2023-09-17T13:52:53.000Z</time>
      </trkpt>
      <trkpt lat="44.85883" lon="5.28706">
        <ele>812</ele>
        <time>2023-09-17T13:52:59.000Z</time>
      </trkpt>
      <trkpt lat="44.85888" lon="5.28714">
        <ele>813</ele>
        <time>2023-09-17T13:53:05.000Z</time>
      </trkpt>
      <trkpt lat="44.85898" lon="5.28706">
        <ele>810</ele>
        <time>2023-09-17T13:53:16.000Z</time>
      </trkpt>
      <trkpt lat="44.859" lon="5.28707">
        <ele>810</ele>
        <time>2023-09-17T13:53:49.000Z</time>
      </trkpt>
      <trkpt lat="44.85905" lon="5.287">
        <ele>810</ele>
        <time>2023-09-17T13:53:56.000Z</time>
      </trkpt>
      <trkpt lat="44.85926" lon="5.28667">
        <ele>810</ele>
        <time>2023-09-17T13:54:23.000Z</time>
      </trkpt>
      <trkpt lat="44.85931" lon="5.2866">
        <ele>809</ele>
        <time>2023-09-17T13:54:29.000Z</time>
      </trkpt>
      <trkpt lat="44.85955" lon="5.28622">
        <ele>810</ele>
        <time>2023-09-17T13:55:01.000Z</time>
      </trkpt>
      <trkpt lat="44.8596" lon="5.28613">
        <ele>808</ele>
        <time>2023-09-17T13:55:07.000Z</time>
      </trkpt>
      <trkpt lat="44.85986" lon="5.28581">
        <ele>807</ele>
        <time>2023-09-17T13:55:36.000Z</time>
      </trkpt>
      <trkpt lat="44.85997" lon="5.28566">
        <ele>807</ele>
        <time>2023-09-17T13:55:49.000Z</time>
      </trkpt>
      <trkpt lat="44.86002" lon="5.28556">
        <ele>807</ele>
        <time>2023-09-17T13:55:57.000Z</time>
      </trkpt>
      <trkpt lat="44.86019" lon="5.28509">
        <ele>804</ele>
        <time>2023-09-17T13:56:31.000Z</time>
      </trkpt>
      <trkpt lat="44.86023" lon="5.285">
        <ele>805</ele>
        <time>2023-09-17T13:56:38.000Z</time>
      </trkpt>
      <trkpt lat="44.86027" lon="5.28491">
        <ele>803</ele>
        <time>2023-09-17T13:56:45.000Z</time>
      </trkpt>
      <trkpt lat="44.86053" lon="5.28467">
        <ele>802</ele>
        <time>2023-09-17T13:57:12.000Z</time>
      </trkpt>
      <trkpt lat="44.86057" lon="5.28447">
        <ele>803</ele>
        <time>2023-09-17T13:57:26.000Z</time>
      </trkpt>
      <trkpt lat="44.86064" lon="5.28445">
        <ele>803</ele>
        <time>2023-09-17T13:57:34.000Z</time>
      </trkpt>
      <trkpt lat="44.8607" lon="5.28451">
        <ele>802</ele>
        <time>2023-09-17T13:57:39.000Z</time>
      </trkpt>
      <trkpt lat="44.86073" lon="5.28457">
        <ele>801</ele>
        <time>2023-09-17T13:57:43.000Z</time>
      </trkpt>
      <trkpt lat="44.86075" lon="5.28462">
        <ele>800</ele>
        <time>2023-09-17T13:57:47.000Z</time>
      </trkpt>
      <trkpt lat="44.86076" lon="5.2847">
        <ele>798</ele>
        <time>2023-09-17T13:57:52.000Z</time>
      </trkpt>
      <trkpt lat="44.86074" lon="5.28472">
        <ele>798</ele>
        <time>2023-09-17T13:57:56.000Z</time>
      </trkpt>
      <trkpt lat="44.86075" lon="5.28548">
        <ele>784.9</ele>
        <time>2023-09-17T13:59:06.000Z</time>
      </trkpt>
      <trkpt lat="44.86097" lon="5.28577">
        <ele>775.9</ele>
        <time>2023-09-17T13:59:26.000Z</time>
      </trkpt>
      <trkpt lat="44.8611" lon="5.28563">
        <ele>776</ele>
        <time>2023-09-17T13:59:34.000Z</time>
      </trkpt>
      <trkpt lat="44.86133" lon="5.2856">
        <ele>772.5</ele>
        <time>2023-09-17T13:59:41.000Z</time>
      </trkpt>
      <trkpt lat="44.86149" lon="5.2855">
        <ele>771.5</ele>
        <time>2023-09-17T13:59:50.000Z</time>
      </trkpt>
      <trkpt lat="44.86168" lon="5.28536">
        <ele>771.1</ele>
        <time>2023-09-17T14:00:10.000Z</time>
      </trkpt>
      <trkpt lat="44.86184" lon="5.28512">
        <ele>771.6</ele>
        <time>2023-09-17T14:00:24.000Z</time>
      </trkpt>
      <trkpt lat="44.862" lon="5.28479">
        <ele>774.7</ele>
        <time>2023-09-17T14:01:08.000Z</time>
      </trkpt>
      <trkpt lat="44.8622" lon="5.28503">
        <ele>762.1</ele>
        <time>2023-09-17T14:01:29.000Z</time>
      </trkpt>
      <trkpt lat="44.86254" lon="5.28529">
        <ele>747.7</ele>
        <time>2023-09-17T14:01:57.000Z</time>
      </trkpt>
      <trkpt lat="44.86227" lon="5.28544">
        <ele>750.5</ele>
        <time>2023-09-17T14:02:16.000Z</time>
      </trkpt>
      <trkpt lat="44.8621" lon="5.28525">
        <ele>760.3</ele>
        <time>2023-09-17T14:02:27.000Z</time>
      </trkpt>
      <trkpt lat="44.86191" lon="5.28548">
        <ele>761.1</ele>
        <time>2023-09-17T14:02:48.000Z</time>
      </trkpt>
      <trkpt lat="44.86187" lon="5.28591">
        <ele>752.4</ele>
        <time>2023-09-17T14:02:54.000Z</time>
      </trkpt>
      <trkpt lat="44.8618" lon="5.28644">
        <ele>741.9</ele>
        <time>2023-09-17T14:03:11.000Z</time>
      </trkpt>
      <trkpt lat="44.86164" lon="5.28673">
        <ele>738.5</ele>
        <time>2023-09-17T14:03:26.000Z</time>
      </trkpt>
      <trkpt lat="44.86113" lon="5.28723">
        <ele>740.9</ele>
        <time>2023-09-17T14:03:41.000Z</time>
      </trkpt>
      <trkpt lat="44.86091" lon="5.28694">
        <ele>752.7</ele>
        <time>2023-09-17T14:03:45.000Z</time>
      </trkpt>
      <trkpt lat="44.86069" lon="5.28682">
        <ele>758.1</ele>
        <time>2023-09-17T14:03:51.000Z</time>
      </trkpt>
      <trkpt lat="44.86057" lon="5.28689">
        <ele>757.4</ele>
        <time>2023-09-17T14:04:15.000Z</time>
      </trkpt>
      <trkpt lat="44.86067" lon="5.28717">
        <ele>750.6</ele>
        <time>2023-09-17T14:04:38.000Z</time>
      </trkpt>
      <trkpt lat="44.86072" lon="5.28749">
        <ele>742.7</ele>
        <time>2023-09-17T14:04:57.000Z</time>
      </trkpt>
      <trkpt lat="44.86092" lon="5.288">
        <ele>730</ele>
        <time>2023-09-17T14:05:21.000Z</time>
      </trkpt>
      <trkpt lat="44.86109" lon="5.28824">
        <ele>723.1</ele>
        <time>2023-09-17T14:05:37.000Z</time>
      </trkpt>
      <trkpt lat="44.86138" lon="5.28851">
        <ele>714.7</ele>
        <time>2023-09-17T14:06:08.000Z</time>
      </trkpt>
      <trkpt lat="44.86153" lon="5.28873">
        <ele>709.7</ele>
        <time>2023-09-17T14:06:14.000Z</time>
      </trkpt>
      <trkpt lat="44.86157" lon="5.28891">
        <ele>706.7</ele>
        <time>2023-09-17T14:07:28.000Z</time>
      </trkpt>
      <trkpt lat="44.86135" lon="5.28919">
        <ele>705.7</ele>
        <time>2023-09-17T14:08:17.000Z</time>
      </trkpt>
      <trkpt lat="44.86112" lon="5.28948">
        <ele>705.8</ele>
        <time>2023-09-17T14:08:44.000Z</time>
      </trkpt>
      <trkpt lat="44.86091" lon="5.2897">
        <ele>707</ele>
        <time>2023-09-17T14:08:58.000Z</time>
      </trkpt>
      <trkpt lat="44.86099" lon="5.28991">
        <ele>704</ele>
        <time>2023-09-17T14:09:05.000Z</time>
      </trkpt>
      <trkpt lat="44.86121" lon="5.29001">
        <ele>699.6</ele>
        <time>2023-09-17T14:09:41.000Z</time>
      </trkpt>
      <trkpt lat="44.86129" lon="5.29029">
        <ele>696.1</ele>
        <time>2023-09-17T14:10:49.000Z</time>
      </trkpt>
      <trkpt lat="44.86138" lon="5.29065">
        <ele>691.3</ele>
        <time>2023-09-17T14:11:02.000Z</time>
      </trkpt>
      <trkpt lat="44.86132" lon="5.29104">
        <ele>688.9</ele>
        <time>2023-09-17T14:11:38.000Z</time>
      </trkpt>
      <trkpt lat="44.86126" lon="5.29151">
        <ele>684.7</ele>
        <time>2023-09-17T14:12:19.000Z</time>
      </trkpt>
      <trkpt lat="44.86121" lon="5.29187">
        <ele>681.7</ele>
        <time>2023-09-17T14:12:31.000Z</time>
      </trkpt>
      <trkpt lat="44.86122" lon="5.29229">
        <ele>676.9</ele>
        <time>2023-09-17T14:12:43.000Z</time>
      </trkpt>
      <trkpt lat="44.86115" lon="5.2925">
        <ele>675.9</ele>
        <time>2023-09-17T14:13:10.000Z</time>
      </trkpt>
      <trkpt lat="44.86099" lon="5.29282">
        <ele>673.4</ele>
        <time>2023-09-17T14:13:29.000Z</time>
      </trkpt>
      <trkpt lat="44.86084" lon="5.293">
        <ele>671.6</ele>
        <time>2023-09-17T14:13:54.000Z</time>
      </trkpt>
      <trkpt lat="44.86065" lon="5.29325">
        <ele>671.5</ele>
        <time>2023-09-17T14:14:33.000Z</time>
      </trkpt>
      <trkpt lat="44.86054" lon="5.29337">
        <ele>671.7</ele>
        <time>2023-09-17T14:15:31.000Z</time>
      </trkpt>
      <trkpt lat="44.86042" lon="5.29359">
        <ele>670.7</ele>
        <time>2023-09-17T14:15:41.000Z</time>
      </trkpt>
      <trkpt lat="44.86027" lon="5.29382">
        <ele>669.3</ele>
        <time>2023-09-17T14:16:18.000Z</time>
      </trkpt>
      <trkpt lat="44.86011" lon="5.294">
        <ele>667.9</ele>
        <time>2023-09-17T14:18:24.000Z</time>
      </trkpt>
      <trkpt lat="44.85997" lon="5.29419">
        <ele>665.2</ele>
        <time>2023-09-17T14:18:33.000Z</time>
      </trkpt>
      <trkpt lat="44.85985" lon="5.29432">
        <ele>664.4</ele>
        <time>2023-09-17T14:21:35.000Z</time>
      </trkpt>
      <trkpt lat="44.85974" lon="5.29446">
        <ele>663.6</ele>
        <time>2023-09-17T14:22:06.000Z</time>
      </trkpt>
      <trkpt lat="44.85973" lon="5.29457">
        <ele>676</ele>
        <time>2023-09-17T14:22:21.000Z</time>
      </trkpt>
      <trkpt lat="44.85979" lon="5.29457">
        <ele>675</ele>
        <time>2023-09-17T14:22:30.000Z</time>
      </trkpt>
      <trkpt lat="44.85983" lon="5.29453">
        <ele>675</ele>
        <time>2023-09-17T14:22:37.000Z</time>
      </trkpt>
      <trkpt lat="44.85988" lon="5.29449">
        <ele>675</ele>
        <time>2023-09-17T14:22:44.000Z</time>
      </trkpt>
      <trkpt lat="44.85994" lon="5.29447">
        <ele>674</ele>
        <time>2023-09-17T14:22:51.000Z</time>
      </trkpt>
      <trkpt lat="44.86013" lon="5.29438">
        <ele>673</ele>
        <time>2023-09-17T14:23:21.000Z</time>
      </trkpt>
      <trkpt lat="44.8602" lon="5.29433">
        <ele>674</ele>
        <time>2023-09-17T14:23:29.000Z</time>
      </trkpt>
      <trkpt lat="44.86043" lon="5.29424">
        <ele>674</ele>
        <time>2023-09-17T14:24:02.000Z</time>
      </trkpt>
      <trkpt lat="44.86066" lon="5.29428">
        <ele>670</ele>
        <time>2023-09-17T14:24:36.000Z</time>
      </trkpt>
      <trkpt lat="44.86079" lon="5.29435">
        <ele>667</ele>
        <time>2023-09-17T14:24:55.000Z</time>
      </trkpt>
      <trkpt lat="44.86087" lon="5.29435">
        <ele>667</ele>
        <time>2023-09-17T14:25:03.000Z</time>
      </trkpt>
      <trkpt lat="44.86093" lon="5.29439">
        <ele>667</ele>
        <time>2023-09-17T14:25:15.000Z</time>
      </trkpt>
      <trkpt lat="44.86098" lon="5.29445">
        <ele>664</ele>
        <time>2023-09-17T14:25:28.000Z</time>
      </trkpt>
      <trkpt lat="44.86101" lon="5.29452">
        <ele>662</ele>
        <time>2023-09-17T14:26:06.000Z</time>
      </trkpt>
      <trkpt lat="44.86098" lon="5.29466">
        <ele>661</ele>
        <time>2023-09-17T14:26:25.000Z</time>
      </trkpt>
      <trkpt lat="44.86098" lon="5.29478">
        <ele>661</ele>
        <time>2023-09-17T14:26:46.000Z</time>
      </trkpt>
      <trkpt lat="44.86092" lon="5.29488">
        <ele>660</ele>
        <time>2023-09-17T14:26:55.000Z</time>
      </trkpt>
      <trkpt lat="44.86087" lon="5.29499">
        <ele>658</ele>
        <time>2023-09-17T14:27:04.000Z</time>
      </trkpt>
      <trkpt lat="44.86079" lon="5.29504">
        <ele>657</ele>
        <time>2023-09-17T14:27:13.000Z</time>
      </trkpt>
      <trkpt lat="44.86074" lon="5.29514">
        <ele>655</ele>
        <time>2023-09-17T14:27:20.000Z</time>
      </trkpt>
      <trkpt lat="44.86063" lon="5.29532">
        <ele>653</ele>
        <time>2023-09-17T14:27:36.000Z</time>
      </trkpt>
      <trkpt lat="44.86061" lon="5.29545">
        <ele>651</ele>
        <time>2023-09-17T14:27:47.000Z</time>
      </trkpt>
      <trkpt lat="44.86059" lon="5.29556">
        <ele>647</ele>
        <time>2023-09-17T14:28:01.000Z</time>
      </trkpt>
      <trkpt lat="44.86056" lon="5.29575">
        <ele>643</ele>
        <time>2023-09-17T14:28:30.000Z</time>
      </trkpt>
      <trkpt lat="44.86055" lon="5.29585">
        <ele>642</ele>
        <time>2023-09-17T14:28:41.000Z</time>
      </trkpt>
      <trkpt lat="44.86054" lon="5.29596">
        <ele>642</ele>
        <time>2023-09-17T14:28:54.000Z</time>
      </trkpt>
      <trkpt lat="44.86055" lon="5.29607">
        <ele>640</ele>
        <time>2023-09-17T14:29:06.000Z</time>
      </trkpt>
      <trkpt lat="44.86054" lon="5.29619">
        <ele>640</ele>
        <time>2023-09-17T14:29:18.000Z</time>
      </trkpt>
      <trkpt lat="44.86053" lon="5.29629">
        <ele>639</ele>
        <time>2023-09-17T14:29:29.000Z</time>
      </trkpt>
      <trkpt lat="44.86057" lon="5.29639">
        <ele>639</ele>
        <time>2023-09-17T14:29:38.000Z</time>
      </trkpt>
      <trkpt lat="44.86061" lon="5.29648">
        <ele>637</ele>
        <time>2023-09-17T14:29:45.000Z</time>
      </trkpt>
      <trkpt lat="44.86062" lon="5.29658">
        <ele>637</ele>
        <time>2023-09-17T14:29:54.000Z</time>
      </trkpt>
      <trkpt lat="44.86058" lon="5.29666">
        <ele>635</ele>
        <time>2023-09-17T14:30:03.000Z</time>
      </trkpt>
      <trkpt lat="44.86057" lon="5.29674">
        <ele>633</ele>
        <time>2023-09-17T14:30:10.000Z</time>
      </trkpt>
      <trkpt lat="44.86054" lon="5.29678">
        <ele>628</ele>
        <time>2023-09-17T14:30:23.000Z</time>
      </trkpt>
      <trkpt lat="44.86048" lon="5.29692">
        <ele>628</ele>
        <time>2023-09-17T14:30:34.000Z</time>
      </trkpt>
      <trkpt lat="44.86046" lon="5.29699">
        <ele>628</ele>
        <time>2023-09-17T14:30:39.000Z</time>
      </trkpt>
      <trkpt lat="44.86042" lon="5.29706">
        <ele>627</ele>
        <time>2023-09-17T14:30:45.000Z</time>
      </trkpt>
      <trkpt lat="44.86023" lon="5.29736">
        <ele>624</ele>
        <time>2023-09-17T14:31:11.000Z</time>
      </trkpt>
      <trkpt lat="44.86007" lon="5.29779">
        <ele>626</ele>
        <time>2023-09-17T14:31:45.000Z</time>
      </trkpt>
      <trkpt lat="44.86005" lon="5.29796">
        <ele>622</ele>
        <time>2023-09-17T14:31:56.000Z</time>
      </trkpt>
      <trkpt lat="44.86006" lon="5.29805">
        <ele>623</ele>
        <time>2023-09-17T14:32:01.000Z</time>
      </trkpt>
      <trkpt lat="44.86004" lon="5.29813">
        <ele>624</ele>
        <time>2023-09-17T14:32:07.000Z</time>
      </trkpt>
      <trkpt lat="44.86003" lon="5.2982">
        <ele>623</ele>
        <time>2023-09-17T14:32:13.000Z</time>
      </trkpt>
      <trkpt lat="44.85998" lon="5.29831">
        <ele>622</ele>
        <time>2023-09-17T14:32:23.000Z</time>
      </trkpt>
      <trkpt lat="44.85982" lon="5.29848">
        <ele>615</ele>
        <time>2023-09-17T14:32:39.000Z</time>
      </trkpt>
      <trkpt lat="44.85973" lon="5.29855">
        <ele>614</ele>
        <time>2023-09-17T14:32:48.000Z</time>
      </trkpt>
      <trkpt lat="44.85967" lon="5.29857">
        <ele>614</ele>
        <time>2023-09-17T14:32:53.000Z</time>
      </trkpt>
      <trkpt lat="44.85961" lon="5.29857">
        <ele>614</ele>
        <time>2023-09-17T14:32:58.000Z</time>
      </trkpt>
      <trkpt lat="44.85952" lon="5.29861">
        <ele>615</ele>
        <time>2023-09-17T14:33:07.000Z</time>
      </trkpt>
    </trkseg>
  </trk>
</gpx>